Darstellungsparameter: Aktuell verwendete Einstellungen:
Skalierung der Graphiken ... ?
xyx+y,   Skalierungsfaktor:      Skalierung: Modus: x, Faktor: 1
Darstellungszeitraum ... ?
Vom - - bis: - -   Zeitraum: 11.03.2010 - 10.09.2010
Min/Max/Avg-Anzeige ... ?
Zeige MMA aktuell
Zeige MMA Monat
Zeige MMA alles
Zeige --A aktuell
Zeige --A Monat
Zeige --A alles
Keine MMA-Anzeige
MMA:
Average (ber die Originaldaten)
MMA-Basis: 09.08.2020 - 11.09.2020
Quicknavigation für Darstellung... ?
Tage:      1T, 2T, 3T, 5T -1T -2T -3T -5T +1T +2T +3T +5T
Wochen: 1W, 2W, 3W -1W -2W -3W +1W +2W +3W
Monate: 1M, 3M, 6M -1M -3M -6M +1M +3M +6M
Jahre:    1J, 3J, 5J, 10J -1J -3J -5J -10J +1J +3J +5J +10J
Nutze für die Darstellung ... ?
Originaldaten oder Mittelwerte auf ...
Stundenbasis Tagesbasis Wochenbasis
Monatsbasis Jahresbasis      Datenbasis: Original-Daten
Darstellen als:
Statistik (Auto) Statistik J:M      Darstellung:
Zur Graphik,    zurück zur Übersicht aller Sensoren.
 
Tabellarische Datenbersicht: ?
 
Sensor: Nr:Datum:Temp:Abs-Feuchte:Windchill:Wind:
Aussen-T/F 1 11-03-2010 00:06:02 0 C 2.33 g/m*3 0 C 0 km/h
2 11-03-2010 00:18:02 0 C 2.33 g/m*3 0 C 0 km/h
3 11-03-2010 00:30:02 -0.2 C 2.29 g/m*3 -0.2 C 0 km/h
4 11-03-2010 00:42:02 -0.2 C 2.29 g/m*3 -0.2 C 0 km/h
5 11-03-2010 00:54:02 -0.2 C 2.29 g/m*3 -0.2 C 0 km/h
6 11-03-2010 01:06:02 -0.3 C 2.28 g/m*3 -0.3 C 0 km/h
7 11-03-2010 01:18:03 -0.5 C 2.25 g/m*3 -0.5 C 0 km/h
8 11-03-2010 01:30:03 -0.9 C 2.28 g/m*3 -0.9 C 0 km/h
9 11-03-2010 01:42:03 -0.9 C 2.37 g/m*3 -0.9 C 0 km/h
10 11-03-2010 01:54:03 -1.1 C 2.29 g/m*3 -1.1 C 0 km/h
11 11-03-2010 02:06:03 -1 C 2.31 g/m*3 -1 C 0 km/h
12 11-03-2010 02:18:03 -1.1 C 2.29 g/m*3 -1.1 C 0 km/h
13 11-03-2010 02:30:03 -1.3 C 2.3 g/m*3 -1.3 C 0 km/h
14 11-03-2010 02:42:03 -1.3 C 2.3 g/m*3 -1.3 C 0 km/h
15 11-03-2010 02:54:03 -1.4 C 2.33 g/m*3 -1.4 C 0 km/h
16 11-03-2010 03:06:03 -1.5 C 2.31 g/m*3 -1.5 C 0 km/h
17 11-03-2010 03:18:03 -1.5 C 2.36 g/m*3 -1.5 C 0 km/h
18 11-03-2010 03:30:03 -1.7 C 2.32 g/m*3 -1.7 C 0 km/h
19 11-03-2010 03:42:03 -1.8 C 2.31 g/m*3 -1.8 C 0 km/h
20 11-03-2010 03:54:03 -1.9 C 2.29 g/m*3 -1.9 C 0 km/h
21 11-03-2010 04:06:03 -2 C 2.32 g/m*3 -2 C 0 km/h
22 11-03-2010 04:18:03 -2 C 2.32 g/m*3 -2 C 0 km/h
23 11-03-2010 04:30:03 -2.1 C 2.3 g/m*3 -2.1 C 0 km/h
24 11-03-2010 04:42:03 -2.2 C 2.29 g/m*3 -2.2 C 0 km/h
25 11-03-2010 04:54:03 -2.3 C 2.31 g/m*3 -2.3 C 0 km/h
Sensor: Nr:Datum:Temp:Abs-Feuchte:Windchill:Wind:
Aussen-T/F 26 11-03-2010 05:06:03 -2.6 C 2.26 g/m*3 -2.6 C 0 km/h
27 11-03-2010 05:18:03 -3 C 2.2 g/m*3 -3 C 0 km/h
28 11-03-2010 05:30:04 -3 C 2.32 g/m*3 -3 C 0 km/h
29 11-03-2010 05:42:04 -3 C 2.4 g/m*3 -3 C 0 km/h
30 11-03-2010 05:54:04 -2.8 C 2.39 g/m*3 -2.8 C 0 km/h
31 11-03-2010 06:06:04 -2.7 C 2.37 g/m*3 -2.7 C 0 km/h
32 11-03-2010 06:18:04 -2.8 C 2.35 g/m*3 -2.8 C 0 km/h
33 11-03-2010 06:30:04 -2.8 C 2.39 g/m*3 -2.8 C 0 km/h
34 11-03-2010 06:42:04 -2.8 C 2.39 g/m*3 -2.8 C 0 km/h
35 11-03-2010 06:54:04 -2.8 C 2.43 g/m*3 -2.8 C 0 km/h
36 11-03-2010 07:06:02 -2.9 C 2.45 g/m*3 -2.9 C 0 km/h
37 11-03-2010 07:18:01 -3 C 2.44 g/m*3 -3 C 0 km/h
38 11-03-2010 07:30:01 -3 C 2.47 g/m*3 -3 C 0 km/h
39 11-03-2010 07:42:02 -2.9 C 2.49 g/m*3 -2.9 C 0 km/h
40 11-03-2010 07:54:01 -2.7 C 2.53 g/m*3 -2.7 C 0 km/h
41 11-03-2010 08:06:02 -2.4 C 2.58 g/m*3 -2.4 C 0 km/h
42 11-03-2010 08:18:02 -2.1 C 2.55 g/m*3 -2.1 C 0 km/h
43 11-03-2010 08:30:02 -1.8 C 2.52 g/m*3 -1.8 C 0 km/h
44 11-03-2010 08:42:01 -1.3 C 2.52 g/m*3 -1.3 C 0 km/h
45 11-03-2010 08:54:02 -0.9 C 2.55 g/m*3 -0.9 C 0 km/h
46 11-03-2010 09:06:01 -0.7 C 2.54 g/m*3 -0.7 C 0 km/h
47 11-03-2010 09:18:02 -0.4 C 2.45 g/m*3 -0.4 C 0 km/h
48 11-03-2010 09:30:03 -0.3 C 2.42 g/m*3 -0.3 C 0 km/h
49 11-03-2010 09:42:01 -0.2 C 2.39 g/m*3 -0.2 C 0 km/h
50 11-03-2010 09:54:02 -0.2 C 2.29 g/m*3 -0.2 C 0 km/h
Sensor: Nr:Datum:Temp:Abs-Feuchte:Windchill:Wind:
Aussen-T/F 51 11-03-2010 10:06:02 0.1 C 2.34 g/m*3 0.1 C 0 km/h
52 11-03-2010 10:18:02 0.2 C 2.36 g/m*3 0.2 C 0 km/h
53 11-03-2010 10:30:02 0.2 C 2.31 g/m*3 0.2 C 0 km/h
54 11-03-2010 10:42:03 0.4 C 2.39 g/m*3 0.4 C 0 km/h
55 11-03-2010 10:54:02 0.9 C 2.42 g/m*3 0.9 C 0 km/h
56 11-03-2010 11:06:01 1.1 C 2.35 g/m*3 1.1 C 0 km/h
57 11-03-2010 11:18:02 1.4 C 2.35 g/m*3 1.4 C 0 km/h
58 11-03-2010 11:30:02 1.6 C 2.27 g/m*3 1.6 C 0 km/h
59 11-03-2010 11:42:02 1.9 C 2.26 g/m*3 1.9 C 0 km/h
60 11-03-2010 11:54:02 2 C 2.17 g/m*3 2 C 0 km/h
61 11-03-2010 12:06:03 2.2 C 2.2 g/m*3 2.2 C 0 km/h
62 11-03-2010 12:18:02 2.7 C 2.21 g/m*3 2.7 C 0 km/h
63 11-03-2010 12:30:02 3.1 C 2.04 g/m*3 3.1 C 0 km/h
64 11-03-2010 12:42:02 3.6 C 1.98 g/m*3 3.6 C 0 km/h
65 11-03-2010 12:54:02 4 C 1.91 g/m*3 4 C 0 km/h
66 11-03-2010 13:06:02 4.5 C 1.84 g/m*3 4.5 C 0 km/h
67 11-03-2010 13:18:01 4.8 C 1.68 g/m*3 4.8 C 0 km/h
68 11-03-2010 13:30:01 5.1 C 1.78 g/m*3 5.1 C 0 km/h
69 11-03-2010 13:42:02 5.9 C 1.87 g/m*3 5.9 C 0 km/h
70 11-03-2010 13:54:02 5.6 C 1.84 g/m*3 5.6 C 0 km/h
71 11-03-2010 14:06:02 6.1 C 1.9 g/m*3 6.1 C 0 km/h
72 11-03-2010 14:18:01 6.5 C 1.95 g/m*3 6.5 C 0 km/h
73 11-03-2010 14:30:01 6.2 C 2.13 g/m*3 6.2 C 0 km/h
74 11-03-2010 14:42:02 6.6 C 2.04 g/m*3 6.6 C 0 km/h
75 11-03-2010 14:54:02 6.3 C 2.07 g/m*3 6.3 C 0 km/h
Sensor: Nr:Datum:Temp:Abs-Feuchte:Windchill:Wind:
Aussen-T/F 76 11-03-2010 15:06:02 5.7 C 2.35 g/m*3 5.7 C 0 km/h
77 11-03-2010 15:18:01 5.9 C 2.45 g/m*3 5.9 C 0 km/h
78 11-03-2010 15:30:01 4.9 C 2.57 g/m*3 4.9 C 0 km/h
79 11-03-2010 15:42:02 4.6 C 2.65 g/m*3 4.6 C 0 km/h
80 11-03-2010 15:54:02 4.8 C 2.68 g/m*3 4.8 C 0 km/h
81 11-03-2010 16:06:02 4.7 C 2.66 g/m*3 4.7 C 0 km/h
82 11-03-2010 16:18:02 4.8 C 2.68 g/m*3 4.8 C 0 km/h
83 11-03-2010 16:30:02 4.3 C 2.66 g/m*3 4.3 C 0 km/h
84 11-03-2010 16:42:02 4.2 C 2.71 g/m*3 4.2 C 0 km/h
85 11-03-2010 16:54:02 4 C 2.67 g/m*3 4 C 0 km/h
86 11-03-2010 17:06:02 3.9 C 2.78 g/m*3 3.9 C 0 km/h
87 11-03-2010 17:18:02 3.6 C 2.79 g/m*3 3.6 C 0 km/h
88 11-03-2010 17:30:02 3.1 C 2.75 g/m*3 3.1 C 0 km/h
89 11-03-2010 17:42:04 2.8 C 2.82 g/m*3 2.8 C 0 km/h
90 11-03-2010 17:54:02 2.2 C 2.76 g/m*3 2.2 C 0 km/h
91 11-03-2010 18:06:01 2 C 2.78 g/m*3 2 C 0 km/h
92 11-03-2010 18:18:02 1.6 C 2.87 g/m*3 1.6 C 0 km/h
93 11-03-2010 18:30:02 1.2 C 2.84 g/m*3 1.2 C 0 km/h
94 11-03-2010 18:42:02 0.9 C 2.89 g/m*3 0.9 C 0 km/h
95 11-03-2010 18:54:02 0.7 C 2.9 g/m*3 0.7 C 0 km/h
96 11-03-2010 19:06:02 0.4 C 2.89 g/m*3 0.4 C 0 km/h
97 11-03-2010 19:18:02 0.3 C 2.92 g/m*3 0.3 C 0 km/h
98 11-03-2010 19:30:02 0.3 C 2.97 g/m*3 0.3 C 0 km/h
99 11-03-2010 19:42:02 0.1 C 2.93 g/m*3 0.1 C 0 km/h
100 11-03-2010 19:54:02 0 C 2.91 g/m*3 0 C 0 km/h
Sensor: Nr:Datum:Temp:Abs-Feuchte:Windchill:Wind:
Aussen-T/F 101 11-03-2010 20:06:02 -0.1 C 2.89 g/m*3 -0.1 C 0 km/h
102 11-03-2010 20:18:02 -0.2 C 2.91 g/m*3 -0.2 C 0 km/h
103 11-03-2010 20:30:02 -0.4 C 2.92 g/m*3 -0.4 C 0 km/h
104 11-03-2010 20:42:02 -0.4 C 2.97 g/m*3 -0.4 C 0 km/h
105 11-03-2010 20:54:01 -0.6 C 2.97 g/m*3 -0.6 C 0 km/h
106 11-03-2010 21:07:04 -0.8 C 2.93 g/m*3 -0.8 C 0 km/h
107 11-03-2010 21:19:04 -0.8 C 2.98 g/m*3 -0.8 C 0 km/h
108 11-03-2010 21:31:04 -0.9 C 2.96 g/m*3 -0.9 C 0 km/h
109 11-03-2010 21:43:05 -1.1 C 2.96 g/m*3 -1.1 C 0 km/h
110 11-03-2010 21:55:05 -1.1 C 2.96 g/m*3 -1.1 C 0 km/h
111 11-03-2010 22:07:05 -1.2 C 3.03 g/m*3 -1.2 C 0 km/h
112 11-03-2010 22:19:05 -1.3 C 3.01 g/m*3 -1.3 C 0 km/h
113 11-03-2010 22:31:05 -1.2 C 3.08 g/m*3 -1.2 C 0 km/h
114 11-03-2010 22:43:05 -1.4 C 3.03 g/m*3 -1.4 C 0 km/h
115 11-03-2010 22:55:05 -1.5 C 3.06 g/m*3 -1.5 C 0 km/h
116 11-03-2010 23:07:05 -1.7 C 3.01 g/m*3 -1.7 C 0 km/h
117 11-03-2010 23:19:05 -1.9 C 2.97 g/m*3 -1.9 C 0 km/h
118 11-03-2010 23:31:05 -2 C 2.99 g/m*3 -2 C 0 km/h
119 11-03-2010 23:43:05 -2.2 C 2.95 g/m*3 -2.2 C 0 km/h
120 11-03-2010 23:55:05 -2.5 C 2.89 g/m*3 -2.5 C 0 km/h
121 12-03-2010 00:07:05 -2.6 C 2.87 g/m*3 -2.6 C 0 km/h
122 12-03-2010 00:19:05 -2.6 C 2.87 g/m*3 -2.6 C 0 km/h
123 12-03-2010 00:31:05 -2.7 C 2.89 g/m*3 -2.7 C 0 km/h
124 12-03-2010 00:43:05 -2.7 C 2.89 g/m*3 -2.7 C 0 km/h
125 12-03-2010 00:55:05 -2.3 C 2.97 g/m*3 -2.3 C 0 km/h
Sensor: Nr:Datum:Temp:Abs-Feuchte:Windchill:Wind:
Aussen-T/F 126 12-03-2010 01:07:05 -1.9 C 3.06 g/m*3 -1.9 C 0 km/h
127 12-03-2010 01:19:05 -1.6 C 3.08 g/m*3 -1.6 C 0 km/h
128 12-03-2010 01:31:05 -1.5 C 3.06 g/m*3 -1.5 C 0 km/h
129 12-03-2010 01:43:05 -1.3 C 3.1 g/m*3 -1.3 C 0 km/h
130 12-03-2010 01:55:06 -1.4 C 3.03 g/m*3 -1.4 C 0 km/h
131 12-03-2010 02:07:06 -1.4 C 3.03 g/m*3 -1.4 C 0 km/h
132 12-03-2010 02:19:06 -1.3 C 3.1 g/m*3 -1.3 C 0 km/h
133 12-03-2010 02:31:06 -1.3 C 3.1 g/m*3 -1.3 C 0 km/h
134 12-03-2010 02:43:06 -1.3 C 3.1 g/m*3 -1.3 C 0 km/h
135 12-03-2010 02:55:06 -1.3 C 3.1 g/m*3 -1.3 C 0 km/h
136 12-03-2010 03:07:06 -1.2 C 3.12 g/m*3 -1.2 C 0 km/h
137 12-03-2010 03:19:06 -1.3 C 3.1 g/m*3 -1.3 C 0 km/h
138 12-03-2010 03:31:06 -1.3 C 3.1 g/m*3 -1.3 C 0 km/h
139 12-03-2010 03:43:06 -1.3 C 3.14 g/m*3 -1.3 C 0 km/h
140 12-03-2010 03:55:06 -1.2 C 3.17 g/m*3 -1.2 C 0 km/h
141 12-03-2010 04:07:06 -1.3 C 3.14 g/m*3 -1.3 C 0 km/h
142 12-03-2010 04:19:06 -1.3 C 3.14 g/m*3 -1.3 C 0 km/h
143 12-03-2010 04:31:06 -1.3 C 3.14 g/m*3 -1.3 C 0 km/h
144 12-03-2010 04:43:06 -1.3 C 3.14 g/m*3 -1.3 C 0 km/h
145 12-03-2010 04:55:06 -1.3 C 3.14 g/m*3 -1.3 C 0 km/h
146 12-03-2010 05:07:06 -1.2 C 3.17 g/m*3 -1.2 C 0 km/h
147 12-03-2010 05:19:06 -1.2 C 3.21 g/m*3 -1.2 C 0 km/h
148 12-03-2010 05:31:06 -1.2 C 3.21 g/m*3 -1.2 C 0 km/h
149 12-03-2010 05:43:06 -1.1 C 3.23 g/m*3 -1.1 C 0 km/h
150 12-03-2010 05:55:06 -1.1 C 3.23 g/m*3 -1.1 C 0 km/h
Sensor: Nr:Datum:Temp:Abs-Feuchte:Windchill:Wind:
Aussen-T/F 151 12-03-2010 06:07:07 -1.1 C 3.28 g/m*3 -1.1 C 0 km/h
152 12-03-2010 06:19:07 -1.1 C 3.28 g/m*3 -1.1 C 0 km/h
153 12-03-2010 06:31:07 -0.9 C 3.32 g/m*3 -0.9 C 0 km/h
154 12-03-2010 06:43:07 -0.9 C 3.32 g/m*3 -0.9 C 0 km/h
155 12-03-2010 06:55:07 -0.9 C 3.37 g/m*3 -0.9 C 0 km/h
156 12-03-2010 07:07:03 -0.9 C 3.41 g/m*3 -0.9 C 0 km/h
157 12-03-2010 07:19:04 -0.9 C 3.46 g/m*3 -0.9 C 0 km/h
158 12-03-2010 07:31:03 -0.9 C 3.51 g/m*3 -0.9 C 0 km/h
159 12-03-2010 07:43:03 -0.9 C 3.55 g/m*3 -0.9 C 0 km/h
160 12-03-2010 07:55:01 -0.9 C 3.6 g/m*3 -0.9 C 0 km/h
161 12-03-2010 08:07:02 -0.7 C 3.69 g/m*3 -0.7 C 0 km/h
162 12-03-2010 08:19:02 -0.7 C 3.69 g/m*3 -0.7 C 0 km/h
163 12-03-2010 08:31:01 -0.5 C 3.74 g/m*3 -0.5 C 0 km/h
164 12-03-2010 08:43:01 -0.4 C 3.77 g/m*3 -0.4 C 0 km/h
165 12-03-2010 08:55:03 -0.4 C 3.82 g/m*3 -0.4 C 0 km/h
166 12-03-2010 09:07:02 -0.3 C 3.89 g/m*3 -0.3 C 0 km/h
167 12-03-2010 09:19:02 -0.2 C 3.92 g/m*3 -0.2 C 0 km/h
168 12-03-2010 09:31:03 0 C 4.02 g/m*3 0 C 0 km/h
169 12-03-2010 09:43:03 0.1 C 4.05 g/m*3 0.1 C 0 km/h
170 12-03-2010 09:55:02 0.3 C 4.06 g/m*3 0.3 C 0 km/h
171 12-03-2010 10:07:01 0.4 C 4.08 g/m*3 0.4 C 0 km/h
172 12-03-2010 10:19:02 0.7 C 4.12 g/m*3 0.7 C 0 km/h
173 12-03-2010 10:31:02 0.9 C 4.12 g/m*3 0.9 C 0 km/h
174 12-03-2010 10:43:02 1.3 C 4.13 g/m*3 1.3 C 0 km/h
175 12-03-2010 10:55:02 1.5 C 4.14 g/m*3 1.5 C 0 km/h
Sensor: Nr:Datum:Temp:Abs-Feuchte:Windchill:Wind:
Aussen-T/F 176 12-03-2010 11:07:03 1.8 C 4.11 g/m*3 1.8 C 0 km/h
177 12-03-2010 11:19:02 2.1 C 4.08 g/m*3 2.1 C 0 km/h
178 12-03-2010 11:31:02 2.2 C 4.06 g/m*3 2.2 C 0 km/h
179 12-03-2010 11:43:03 2.6 C 4.17 g/m*3 2.6 C 0 km/h
180 12-03-2010 11:55:01 2.7 C 4.2 g/m*3 2.7 C 0 km/h
181 12-03-2010 12:07:02 2.8 C 4.16 g/m*3 2.8 C 0 km/h
182 12-03-2010 12:19:01 3.1 C 4.19 g/m*3 3.1 C 0 km/h
183 12-03-2010 12:31:01 3.4 C 4.28 g/m*3 3.4 C 0 km/h
184 12-03-2010 12:43:01 3.8 C 4.27 g/m*3 3.8 C 0 km/h
185 12-03-2010 12:55:01 3.9 C 4.29 g/m*3 3.9 C 0 km/h
186 12-03-2010 13:07:02 4.4 C 4.31 g/m*3 4.4 C 0 km/h
187 12-03-2010 13:19:01 4.4 C 4.24 g/m*3 4.4 C 0 km/h
188 12-03-2010 13:31:02 4.6 C 4.3 g/m*3 4.6 C 0 km/h
189 12-03-2010 13:43:02 5 C 4.14 g/m*3 5 C 0 km/h
190 12-03-2010 13:55:01 5.2 C 4.27 g/m*3 5.2 C 0 km/h
191 12-03-2010 14:07:02 4.8 C 4.16 g/m*3 4.8 C 0 km/h
192 12-03-2010 14:19:02 5 C 4.08 g/m*3 5 C 0 km/h
193 12-03-2010 14:31:01 5.1 C 4.1 g/m*3 5.1 C 0 km/h
194 12-03-2010 14:43:01 5.4 C 4.12 g/m*3 5.4 C 0 km/h
195 12-03-2010 14:55:01 6.1 C 4.09 g/m*3 6.1 C 0 km/h
196 12-03-2010 15:07:02 7.1 C 4.29 g/m*3 7.1 C 0 km/h
197 12-03-2010 15:19:02 6.9 C 3.85 g/m*3 6.9 C 0 km/h
198 12-03-2010 15:31:01 7.4 C 4.06 g/m*3 7.4 C 0 km/h
199 12-03-2010 15:43:01 7.3 C 3.95 g/m*3 7.3 C 0 km/h
200 12-03-2010 15:55:01 6.1 C 3.8 g/m*3 6.1 C 0 km/h
Sensor: Nr:Datum:Temp:Abs-Feuchte:Windchill:Wind:
Aussen-T/F 201 12-03-2010 16:07:01 5.3 C 4.09 g/m*3 5.3 C 0 km/h
202 12-03-2010 16:19:02 4.9 C 4.25 g/m*3 4.9 C 0 km/h
203 12-03-2010 16:31:01 5.1 C 4.38 g/m*3 5.1 C 0 km/h
204 12-03-2010 16:43:01 5.2 C 4.41 g/m*3 5.2 C 0 km/h
205 12-03-2010 16:55:02 5.1 C 4.31 g/m*3 5.1 C 0 km/h
206 12-03-2010 17:07:01 4.9 C 4.32 g/m*3 4.9 C 0 km/h
207 12-03-2010 17:19:01 4.9 C 4.32 g/m*3 4.9 C 0 km/h
208 12-03-2010 17:31:01 4.8 C 4.29 g/m*3 4.8 C 0 km/h
209 12-03-2010 17:43:01 4.4 C 4.24 g/m*3 4.4 C 0 km/h
210 12-03-2010 17:55:02 4.1 C 4.29 g/m*3 4.1 C 0 km/h
211 12-03-2010 18:07:02 3.9 C 4.36 g/m*3 3.9 C 0 km/h
212 12-03-2010 18:19:02 3.7 C 4.36 g/m*3 3.7 C 0 km/h
213 12-03-2010 18:31:01 3.5 C 4.37 g/m*3 3.5 C 0 km/h
214 12-03-2010 18:43:01 3.2 C 4.28 g/m*3 3.2 C 0 km/h
215 12-03-2010 18:55:02 3 C 4.28 g/m*3 3 C 0 km/h
216 12-03-2010 19:07:01 2.8 C 4.34 g/m*3 2.8 C 0 km/h
217 12-03-2010 19:19:02 2.8 C 4.34 g/m*3 2.8 C 0 km/h
218 12-03-2010 19:31:01 2.8 C 4.4 g/m*3 2.8 C 0 km/h
219 12-03-2010 19:43:01 2.9 C 4.43 g/m*3 2.9 C 0 km/h
220 12-03-2010 19:55:02 3.1 C 4.43 g/m*3 3.1 C 0 km/h
221 12-03-2010 20:07:02 3.1 C 4.43 g/m*3 3.1 C 0 km/h
222 12-03-2010 20:19:02 3.1 C 4.43 g/m*3 3.1 C 0 km/h
223 12-03-2010 20:31:03 3.2 C 4.46 g/m*3 3.2 C 0 km/h
224 12-03-2010 20:43:03 3.1 C 4.37 g/m*3 3.1 C 0 km/h
225 12-03-2010 20:55:02 2.9 C 4.43 g/m*3 2.9 C 0 km/h
Sensor: Nr:Datum:Temp:Abs-Feuchte:Windchill:Wind:
Aussen-T/F 226 12-03-2010 21:07:01 2.8 C 4.4 g/m*3 2.8 C 0 km/h
227 12-03-2010 21:19:02 2.8 C 4.46 g/m*3 2.8 C 0 km/h
228 12-03-2010 21:31:02 2.7 C 4.43 g/m*3 2.7 C 0 km/h
229 12-03-2010 21:43:02 2.7 C 4.43 g/m*3 2.7 C 0 km/h
230 12-03-2010 21:55:03 2.6 C 4.4 g/m*3 2.6 C 0 km/h
231 12-03-2010 22:07:03 2.6 C 4.4 g/m*3 2.6 C 0 km/h
232 12-03-2010 22:20:03 2.6 C 4.46 g/m*3 2.6 C 0 km/h
233 12-03-2010 22:32:03 2.4 C 4.4 g/m*3 2.4 C 0 km/h
234 12-03-2010 22:44:03 2.4 C 4.45 g/m*3 2.4 C 0 km/h
235 12-03-2010 22:56:03 2.4 C 4.45 g/m*3 2.4 C 0 km/h
236 12-03-2010 23:08:03 2.4 C 4.45 g/m*3 2.4 C 0 km/h
237 12-03-2010 23:20:03 2.4 C 4.45 g/m*3 2.4 C 0 km/h
238 12-03-2010 23:32:03 2.3 C 4.42 g/m*3 2.3 C 0 km/h
239 12-03-2010 23:44:03 2.2 C 4.45 g/m*3 2.2 C 0 km/h
240 12-03-2010 23:56:03 2.3 C 4.48 g/m*3 2.3 C 0 km/h
241 13-03-2010 00:08:03 2.3 C 4.48 g/m*3 2.3 C 0 km/h
242 13-03-2010 00:20:03 2.2 C 4.45 g/m*3 2.2 C 0 km/h
243 13-03-2010 00:32:03 2.3 C 4.48 g/m*3 2.3 C 0 km/h
244 13-03-2010 00:44:03 2.3 C 4.48 g/m*3 2.3 C 0 km/h
245 13-03-2010 00:56:03 2.3 C 4.48 g/m*3 2.3 C 0 km/h
246 13-03-2010 01:08:03 2.2 C 4.45 g/m*3 2.2 C 0 km/h
247 13-03-2010 01:20:03 2.2 C 4.39 g/m*3 2.2 C 0 km/h
248 13-03-2010 01:32:03 2.3 C 4.42 g/m*3 2.3 C 0 km/h
249 13-03-2010 01:44:03 2.2 C 4.39 g/m*3 2.2 C 0 km/h
250 13-03-2010 01:56:03 2.2 C 4.39 g/m*3 2.2 C 0 km/h
Sensor: Nr:Datum:Temp:Abs-Feuchte:Windchill:Wind:
Aussen-T/F 251 13-03-2010 02:08:03 2.2 C 4.39 g/m*3 2.2 C 0 km/h
252 13-03-2010 02:20:03 2.1 C 4.31 g/m*3 2.1 C 0 km/h
253 13-03-2010 02:32:03 2.2 C 4.34 g/m*3 2.2 C 0 km/h
254 13-03-2010 02:44:04 2.1 C 4.25 g/m*3 2.1 C 0 km/h
255 13-03-2010 02:56:04 2.2 C 4.28 g/m*3 2.2 C 0 km/h
256 13-03-2010 03:08:04 2.2 C 4.22 g/m*3 2.2 C 0 km/h
257 13-03-2010 03:20:04 2.2 C 4.22 g/m*3 2.2 C 0 km/h
258 13-03-2010 03:32:04 2.2 C 4.22 g/m*3 2.2 C 0 km/h
259 13-03-2010 03:44:04 2 C 4.17 g/m*3 2 C 0 km/h
260 13-03-2010 03:56:04 1.8 C 4.22 g/m*3 1.8 C 0 km/h
261 13-03-2010 04:08:04 1.9 C 4.19 g/m*3 1.9 C 0 km/h
262 13-03-2010 04:20:04 2 C 4.17 g/m*3 2 C 0 km/h
263 13-03-2010 04:32:04 2 C 4.17 g/m*3 2 C 0 km/h
264 13-03-2010 04:44:04 2 C 4.17 g/m*3 2 C 0 km/h
265 13-03-2010 04:56:04 2 C 4.17 g/m*3 2 C 0 km/h
266 13-03-2010 05:08:04 2 C 4.17 g/m*3 2 C 0 km/h
267 13-03-2010 05:20:04 1.8 C 4.17 g/m*3 1.8 C 0 km/h
268 13-03-2010 05:32:04 1.9 C 4.19 g/m*3 1.9 C 0 km/h
269 13-03-2010 05:44:04 2 C 4.11 g/m*3 2 C 0 km/h
270 13-03-2010 05:56:04 2 C 4.11 g/m*3 2 C 0 km/h
271 13-03-2010 06:08:04 2 C 4.11 g/m*3 2 C 0 km/h
272 13-03-2010 06:20:04 2.1 C 4.08 g/m*3 2.1 C 0 km/h
273 13-03-2010 06:32:04 2.2 C 4.11 g/m*3 2.2 C 0 km/h
274 13-03-2010 06:44:04 2.1 C 4.08 g/m*3 2.1 C 0 km/h
275 13-03-2010 06:56:02 2.3 C 4.2 g/m*3 2.3 C 0 km/h
Sensor: Nr:Datum:Temp:Abs-Feuchte:Windchill:Wind:
Aussen-T/F 276 13-03-2010 07:08:02 2.3 C 4.25 g/m*3 2.3 C 0 km/h
277 13-03-2010 07:20:02 2.3 C 4.31 g/m*3 2.3 C 0 km/h
278 13-03-2010 07:32:02 2.3 C 4.31 g/m*3 2.3 C 0 km/h
279 13-03-2010 07:44:02 2.4 C 4.45 g/m*3 2.4 C 0 km/h
280 13-03-2010 07:56:02 2.6 C 4.63 g/m*3 2.6 C 0 km/h
281 13-03-2010 08:08:02 2.7 C 4.66 g/m*3 2.7 C 0 km/h
282 13-03-2010 08:20:02 2.8 C 4.69 g/m*3 2.8 C 0 km/h
283 13-03-2010 08:32:02 2.9 C 4.72 g/m*3 2.9 C 0 km/h
284 13-03-2010 08:44:02 3.1 C 4.73 g/m*3 3.1 C 0 km/h
285 13-03-2010 08:56:02 3.3 C 4.73 g/m*3 3.3 C 0 km/h
286 13-03-2010 09:08:01 3.4 C 4.7 g/m*3 3.4 C 0 km/h
287 13-03-2010 09:20:02 3.4 C 4.64 g/m*3 3.4 C 0 km/h
288 13-03-2010 09:32:01 3.6 C 4.7 g/m*3 3.6 C 0 km/h
289 13-03-2010 09:44:01 3.6 C 4.7 g/m*3 3.6 C 0 km/h
290 13-03-2010 09:56:02 3.7 C 4.74 g/m*3 3.7 C 0 km/h
291 13-03-2010 10:08:01 4 C 4.7 g/m*3 4 C 0 km/h
292 13-03-2010 10:20:02 4.4 C 4.7 g/m*3 4.4 C 0 km/h
293 13-03-2010 10:32:02 4.8 C 4.69 g/m*3 4.8 C 0 km/h
294 13-03-2010 10:44:02 4.8 C 4.49 g/m*3 4.8 C 0 km/h
295 13-03-2010 10:56:02 5 C 4.42 g/m*3 5 C 0 km/h
296 13-03-2010 11:08:02 4.8 C 4.22 g/m*3 4.8 C 0 km/h
297 13-03-2010 11:20:02 4.7 C 4.26 g/m*3 4.7 C 0 km/h
298 13-03-2010 11:32:02 5.2 C 4.34 g/m*3 5.2 C 0 km/h
299 13-03-2010 11:44:02 5.3 C 4.23 g/m*3 5.3 C 0 km/h
300 13-03-2010 11:56:02 6 C 4.06 g/m*3 6 C 0 km/h
Sensor: Nr:Datum:Temp:Abs-Feuchte:Windchill:Wind:
Aussen-T/F 301 13-03-2010 12:08:02 6.5 C 4.05 g/m*3 6.5 C 0 km/h
302 13-03-2010 12:20:01 6.2 C 3.75 g/m*3 6.2 C 0 km/h
303 13-03-2010 12:32:02 5.8 C 3.72 g/m*3 5.8 C 0 km/h
304 13-03-2010 12:44:02 6.3 C 3.78 g/m*3 6.3 C 0 km/h
305 13-03-2010 12:56:02 6.7 C 3.72 g/m*3 6.7 C 0 km/h
306 13-03-2010 13:08:02 6.3 C 3.7 g/m*3 6.3 C 0 km/h
307 13-03-2010 13:20:02 6 C 3.7 g/m*3 6 C 0 km/h
308 13-03-2010 13:32:02 5.8 C 3.94 g/m*3 5.8 C 0 km/h
309 13-03-2010 13:44:02 5.8 C 4.01 g/m*3 5.8 C 0 km/h
310 13-03-2010 13:56:02 6.1 C 4.16 g/m*3 6.1 C 0 km/h
311 13-03-2010 14:08:02 6.3 C 4.07 g/m*3 6.3 C 0 km/h
312 13-03-2010 14:20:02 6.3 C 4.07 g/m*3 6.3 C 0 km/h
313 13-03-2010 14:32:02 6.1 C 4.02 g/m*3 6.1 C 0 km/h
314 13-03-2010 14:44:02 6.2 C 3.97 g/m*3 6.2 C 0 km/h
315 13-03-2010 14:56:02 6.3 C 4 g/m*3 6.3 C 0 km/h
316 13-03-2010 15:08:02 6.5 C 4.05 g/m*3 6.5 C 0 km/h
317 13-03-2010 15:20:02 6.5 C 3.9 g/m*3 6.5 C 0 km/h
318 13-03-2010 15:32:02 6.5 C 3.9 g/m*3 6.5 C 0 km/h
319 13-03-2010 15:44:02 6.7 C 4.03 g/m*3 6.7 C 0 km/h
320 13-03-2010 15:56:02 6.6 C 3.93 g/m*3 6.6 C 0 km/h
321 13-03-2010 16:08:02 6.6 C 3.93 g/m*3 6.6 C 0 km/h
322 13-03-2010 16:20:03 6.5 C 3.9 g/m*3 6.5 C 0 km/h
323 13-03-2010 16:32:02 6.5 C 3.9 g/m*3 6.5 C 0 km/h
324 13-03-2010 16:44:02 6.4 C 3.87 g/m*3 6.4 C 0 km/h
325 13-03-2010 16:56:02 6.4 C 3.95 g/m*3 6.4 C 0 km/h
Sensor: Nr:Datum:Temp:Abs-Feuchte:Windchill:Wind:
Aussen-T/F 326 13-03-2010 17:08:02 6.4 C 3.95 g/m*3 6.4 C 0 km/h
327 13-03-2010 17:20:02 6.3 C 3.92 g/m*3 6.3 C 0 km/h
328 13-03-2010 17:32:02 6.3 C 4 g/m*3 6.3 C 0 km/h
329 13-03-2010 17:44:02 6.2 C 3.97 g/m*3 6.2 C 0 km/h
330 13-03-2010 17:56:02 6.2 C 3.97 g/m*3 6.2 C 0 km/h
331 13-03-2010 18:08:02 6.2 C 3.97 g/m*3 6.2 C 0 km/h
332 13-03-2010 18:20:02 6.1 C 3.95 g/m*3 6.1 C 0 km/h
333 13-03-2010 18:32:01 6.1 C 3.95 g/m*3 6.1 C 0 km/h
334 13-03-2010 18:44:01 6 C 3.92 g/m*3 6 C 0 km/h
335 13-03-2010 18:56:02 6.1 C 3.95 g/m*3 6.1 C 0 km/h
336 13-03-2010 19:08:01 6 C 3.92 g/m*3 6 C 0 km/h
337 13-03-2010 19:20:02 6 C 3.99 g/m*3 6 C 0 km/h
338 13-03-2010 19:32:02 6 C 3.99 g/m*3 6 C 0 km/h
339 13-03-2010 19:44:02 6 C 3.99 g/m*3 6 C 0 km/h
340 13-03-2010 19:56:02 6 C 3.99 g/m*3 6 C 0 km/h
341 13-03-2010 20:08:01 5.8 C 4.08 g/m*3 5.8 C 0 km/h
342 13-03-2010 20:20:01 5.8 C 4.23 g/m*3 5.8 C 0 km/h
343 13-03-2010 20:32:02 5.5 C 4.28 g/m*3 5.5 C 0 km/h
344 13-03-2010 20:44:02 5.5 C 4.42 g/m*3 5.5 C 0 km/h
345 13-03-2010 20:56:02 5.6 C 4.45 g/m*3 5.6 C 0 km/h
346 13-03-2010 21:08:02 5.6 C 4.45 g/m*3 5.6 C 0 km/h
347 13-03-2010 21:20:02 5.5 C 4.35 g/m*3 5.5 C 0 km/h
348 13-03-2010 21:32:02 5.6 C 4.17 g/m*3 5.6 C 0 km/h
349 13-03-2010 21:44:02 5.5 C 4.07 g/m*3 5.5 C 0 km/h
350 13-03-2010 21:56:01 5.4 C 4.05 g/m*3 5.4 C 0 km/h
Sensor: Nr:Datum:Temp:Abs-Feuchte:Windchill:Wind:
Aussen-T/F 351 13-03-2010 22:08:02 5.3 C 4.02 g/m*3 5.3 C 0 km/h
352 13-03-2010 22:21:03 5.2 C 4.13 g/m*3 5.2 C 0 km/h
353 13-03-2010 22:33:04 5 C 4.21 g/m*3 5 C 0 km/h
354 13-03-2010 22:45:04 5 C 4.08 g/m*3 5 C 0 km/h
355 13-03-2010 22:57:04 5.2 C 3.79 g/m*3 5.2 C 0 km/h
356 13-03-2010 23:09:04 5.1 C 3.63 g/m*3 5.1 C 0 km/h
357 13-03-2010 23:21:04 5.1 C 3.63 g/m*3 5.1 C 0 km/h
358 13-03-2010 23:33:04 5.1 C 3.63 g/m*3 5.1 C 0 km/h
359 13-03-2010 23:45:04 5 C 3.67 g/m*3 5 C 0 km/h
360 13-03-2010 23:57:04 4.9 C 3.71 g/m*3 4.9 C 0 km/h
361 14-03-2010 00:09:04 4.8 C 3.62 g/m*3 4.8 C 0 km/h
362 14-03-2010 00:21:04 4.7 C 3.6 g/m*3 4.7 C 0 km/h
363 14-03-2010 00:33:04 4.7 C 3.6 g/m*3 4.7 C 0 km/h
364 14-03-2010 00:45:04 4.7 C 3.6 g/m*3 4.7 C 0 km/h
365 14-03-2010 00:57:04 4.6 C 3.57 g/m*3 4.6 C 0 km/h
366 14-03-2010 01:09:04 4.6 C 3.64 g/m*3 4.6 C 0 km/h
367 14-03-2010 01:21:04 4.5 C 3.68 g/m*3 4.5 C 0 km/h
368 14-03-2010 01:33:04 4.4 C 3.66 g/m*3 4.4 C 0 km/h
369 14-03-2010 01:45:04 4.3 C 3.7 g/m*3 4.3 C 0 km/h
370 14-03-2010 01:57:04 4.3 C 3.76 g/m*3 4.3 C 0 km/h
371 14-03-2010 02:09:04 4.3 C 3.76 g/m*3 4.3 C 0 km/h
372 14-03-2010 02:21:04 4.3 C 3.83 g/m*3 4.3 C 0 km/h
373 14-03-2010 02:33:04 4.3 C 3.83 g/m*3 4.3 C 0 km/h
374 14-03-2010 02:45:05 4.2 C 3.8 g/m*3 4.2 C 0 km/h
375 14-03-2010 02:57:05 4.3 C 3.83 g/m*3 4.3 C 0 km/h
Sensor: Nr:Datum:Temp:Abs-Feuchte:Windchill:Wind:
Aussen-T/F 376 14-03-2010 03:09:05 4.3 C 3.89 g/m*3 4.3 C 0 km/h
377 14-03-2010 03:21:05 4.3 C 3.89 g/m*3 4.3 C 0 km/h
378 14-03-2010 03:33:05 4.4 C 3.85 g/m*3 4.4 C 0 km/h
379 14-03-2010 03:45:05 4.4 C 3.85 g/m*3 4.4 C 0 km/h
380 14-03-2010 03:57:05 4.4 C 3.85 g/m*3 4.4 C 0 km/h
381 14-03-2010 04:09:05 4.4 C 3.85 g/m*3 4.4 C 0 km/h
382 14-03-2010 04:21:05 4.5 C 3.88 g/m*3 4.5 C 0 km/h
383 14-03-2010 04:33:05 4.4 C 3.92 g/m*3 4.4 C 0 km/h
384 14-03-2010 04:45:05 4.4 C 3.92 g/m*3 4.4 C 0 km/h
385 14-03-2010 04:57:05 4.3 C 3.96 g/m*3 4.3 C 0 km/h
386 14-03-2010 05:09:05 4.3 C 4.02 g/m*3 4.3 C 0 km/h
387 14-03-2010 05:21:05 4.3 C 4.02 g/m*3 4.3 C 0 km/h
388 14-03-2010 05:33:05 4.3 C 4.02 g/m*3 4.3 C 0 km/h
389 14-03-2010 05:45:05 4.2 C 3.99 g/m*3 4.2 C 0 km/h
390 14-03-2010 05:57:05 4.2 C 3.99 g/m*3 4.2 C 0 km/h
391 14-03-2010 06:09:05 4.3 C 4.02 g/m*3 4.3 C 0 km/h
392 14-03-2010 06:21:05 4.2 C 3.99 g/m*3 4.2 C 0 km/h
393 14-03-2010 06:33:05 4.2 C 3.99 g/m*3 4.2 C 0 km/h
394 14-03-2010 06:45:06 4.2 C 3.99 g/m*3 4.2 C 0 km/h
395 14-03-2010 06:57:06 4.2 C 4.06 g/m*3 4.2 C 0 km/h
396 14-03-2010 07:09:06 4.3 C 4.02 g/m*3 4.3 C 0 km/h
397 14-03-2010 07:21:06 4.3 C 4.02 g/m*3 4.3 C 0 km/h
398 14-03-2010 07:33:06 4.5 C 4.08 g/m*3 4.5 C 0 km/h
399 14-03-2010 07:45:06 4.6 C 4.04 g/m*3 4.6 C 0 km/h
400 14-03-2010 07:57:06 4.7 C 4 g/m*3 4.7 C 0 km/h
Sensor: Nr:Datum:Temp:Abs-Feuchte:Windchill:Wind:
Aussen-T/F 401 14-03-2010 08:09:06 4.8 C 3.96 g/m*3 4.8 C 0 km/h
402 14-03-2010 08:21:06 4.9 C 3.92 g/m*3 4.9 C 0 km/h
403 14-03-2010 08:33:06 5.2 C 3.86 g/m*3 5.2 C 0 km/h
404 14-03-2010 08:45:01 5.3 C 3.81 g/m*3 5.3 C 0 km/h
405 14-03-2010 08:57:01 5.4 C 3.77 g/m*3 5.4 C 0 km/h
406 14-03-2010 09:09:02 5.6 C 3.82 g/m*3 5.6 C 0 km/h
407 14-03-2010 09:21:01 5.7 C 3.77 g/m*3 5.7 C 0 km/h
408 14-03-2010 09:33:02 6 C 3.7 g/m*3 6 C 0 km/h
409 14-03-2010 09:45:02 5.9 C 3.75 g/m*3 5.9 C 0 km/h
410 14-03-2010 09:57:02 6 C 3.77 g/m*3 6 C 0 km/h
411 14-03-2010 10:09:02 6.3 C 3.78 g/m*3 6.3 C 0 km/h
412 14-03-2010 10:21:02 6.5 C 3.75 g/m*3 6.5 C 0 km/h
413 14-03-2010 10:33:02 6.8 C 3.82 g/m*3 6.8 C 0 km/h
414 14-03-2010 10:45:02 7 C 3.64 g/m*3 7 C 0 km/h
415 14-03-2010 10:57:02 6.9 C 3.7 g/m*3 6.9 C 0 km/h
416 14-03-2010 11:09:02 7.2 C 3.69 g/m*3 7.2 C 0 km/h
417 14-03-2010 11:21:02 7.5 C 3.76 g/m*3 7.5 C 0 km/h
418 14-03-2010 11:33:02 7.4 C 3.66 g/m*3 7.4 C 0 km/h
419 14-03-2010 11:45:01 7.5 C 3.76 g/m*3 7.5 C 0 km/h
420 14-03-2010 11:57:01 7.6 C 3.63 g/m*3 7.6 C 0 km/h
421 14-03-2010 12:09:02 7.8 C 3.51 g/m*3 7.8 C 0 km/h
422 14-03-2010 12:21:01 7.8 C 3.43 g/m*3 7.8 C 0 km/h
423 14-03-2010 12:33:01 7.7 C 3.49 g/m*3 7.7 C 0 km/h
424 14-03-2010 12:45:01 7.6 C 3.54 g/m*3 7.6 C 0 km/h
425 14-03-2010 12:57:01 7.6 C 3.63 g/m*3 7.6 C 0 km/h
Sensor: Nr:Datum:Temp:Abs-Feuchte:Windchill:Wind:
Aussen-T/F 426 14-03-2010 13:09:02 7.6 C 3.63 g/m*3 7.6 C 0 km/h
427 14-03-2010 13:21:01 7.7 C 3.73 g/m*3 7.7 C 0 km/h
428 14-03-2010 13:33:02 7.7 C 3.73 g/m*3 7.7 C 0 km/h
429 14-03-2010 13:45:02 7.5 C 3.76 g/m*3 7.5 C 0 km/h
430 14-03-2010 13:57:02 7.5 C 3.76 g/m*3 7.5 C 0 km/h
431 14-03-2010 14:09:02 7.4 C 3.74 g/m*3 7.4 C 0 km/h
432 14-03-2010 14:21:01 7.3 C 3.79 g/m*3 7.3 C 0 km/h
433 14-03-2010 14:33:02 7.4 C 3.82 g/m*3 7.4 C 0 km/h
434 14-03-2010 14:45:02 7.5 C 3.84 g/m*3 7.5 C 0 km/h
435 14-03-2010 14:57:02 7.5 C 3.84 g/m*3 7.5 C 0 km/h
436 14-03-2010 15:09:02 7.7 C 3.89 g/m*3 7.7 C 0 km/h
437 14-03-2010 15:21:02 7.7 C 3.89 g/m*3 7.7 C 0 km/h
438 14-03-2010 15:33:02 7.8 C 3.84 g/m*3 7.8 C 0 km/h
439 14-03-2010 15:45:02 7.8 C 3.92 g/m*3 7.8 C 0 km/h
440 14-03-2010 15:57:02 7.7 C 3.97 g/m*3 7.7 C 0 km/h
441 14-03-2010 16:09:02 7.6 C 3.95 g/m*3 7.6 C 0 km/h
442 14-03-2010 16:21:02 7.3 C 4.03 g/m*3 7.3 C 0 km/h
443 14-03-2010 16:33:02 7.2 C 4.08 g/m*3 7.2 C 0 km/h
444 14-03-2010 16:45:02 6.9 C 4.31 g/m*3 6.9 C 0 km/h
445 14-03-2010 16:57:02 6.5 C 4.27 g/m*3 6.5 C 0 km/h
446 14-03-2010 17:09:02 6.4 C 4.47 g/m*3 6.4 C 0 km/h
447 14-03-2010 17:21:02 6.7 C 4.18 g/m*3 6.7 C 0 km/h
448 14-03-2010 17:33:02 6.8 C 4.21 g/m*3 6.8 C 0 km/h
449 14-03-2010 17:45:02 6.6 C 4.23 g/m*3 6.6 C 0 km/h
450 14-03-2010 17:57:02 6.4 C 4.32 g/m*3 6.4 C 0 km/h
Sensor: Nr:Datum:Temp:Abs-Feuchte:Windchill:Wind:
Aussen-T/F 451 14-03-2010 18:09:02 6.4 C 4.4 g/m*3 6.4 C 0 km/h
452 14-03-2010 18:21:02 6.2 C 4.49 g/m*3 6.2 C 0 km/h
453 14-03-2010 18:33:02 5.9 C 4.61 g/m*3 5.9 C 0 km/h
454 14-03-2010 18:45:02 5.7 C 4.84 g/m*3 5.7 C 0 km/h
455 14-03-2010 18:57:02 5.4 C 4.95 g/m*3 5.4 C 0 km/h
456 14-03-2010 19:09:01 5.4 C 4.95 g/m*3 5.4 C 0 km/h
457 14-03-2010 19:21:02 5.4 C 4.95 g/m*3 5.4 C 0 km/h
458 14-03-2010 19:33:01 5.6 C 5.02 g/m*3 5.6 C 0 km/h
459 14-03-2010 19:45:02 5.7 C 4.98 g/m*3 5.7 C 0 km/h
460 14-03-2010 19:57:02 5.8 C 4.94 g/m*3 5.8 C 0 km/h
461 14-03-2010 20:09:01 5.7 C 4.91 g/m*3 5.7 C 0 km/h
462 14-03-2010 20:21:02 5.7 C 4.84 g/m*3 5.7 C 0 km/h
463 14-03-2010 20:33:01 5.7 C 4.77 g/m*3 5.7 C 0 km/h
464 14-03-2010 20:45:02 5.8 C 4.73 g/m*3 5.8 C 0 km/h
465 14-03-2010 20:57:02 5.7 C 4.63 g/m*3 5.7 C 0 km/h
466 14-03-2010 21:09:02 5.7 C 4.55 g/m*3 5.7 C 0 km/h
467 14-03-2010 21:21:02 5.7 C 4.55 g/m*3 5.7 C 0 km/h
468 14-03-2010 21:33:02 5.9 C 4.4 g/m*3 5.9 C 0 km/h
469 14-03-2010 21:46:05 5.8 C 4.37 g/m*3 5.8 C 0 km/h
470 14-03-2010 21:58:06 5.8 C 4.3 g/m*3 5.8 C 0 km/h
471 14-03-2010 22:10:06 5.8 C 4.3 g/m*3 5.8 C 0 km/h
472 14-03-2010 22:22:06 5.9 C 4.33 g/m*3 5.9 C 0 km/h
473 14-03-2010 22:34:06 5.8 C 4.3 g/m*3 5.8 C 0 km/h
474 14-03-2010 22:46:06 5.9 C 4.33 g/m*3 5.9 C 0 km/h
475 14-03-2010 22:58:06 5.9 C 4.33 g/m*3 5.9 C 0 km/h
Sensor: Nr:Datum:Temp:Abs-Feuchte:Windchill:Wind:
Aussen-T/F 476 14-03-2010 23:10:06 6.1 C 4.31 g/m*3 6.1 C 0 km/h
477 14-03-2010 23:22:06 6 C 4.5 g/m*3 6 C 0 km/h
478 14-03-2010 23:34:06 5.8 C 4.58 g/m*3 5.8 C 0 km/h
479 14-03-2010 23:46:06 6.1 C 4.75 g/m*3 6.1 C 0 km/h
480 14-03-2010 23:58:06 5.7 C 4.77 g/m*3 5.7 C 0 km/h
481 15-03-2010 00:10:06 5.8 C 4.73 g/m*3 5.8 C 0 km/h
482 15-03-2010 00:22:06 5.8 C 4.73 g/m*3 5.8 C 0 km/h
483 15-03-2010 00:34:06 5.9 C 4.76 g/m*3 5.9 C 0 km/h
484 15-03-2010 00:46:06 5.8 C 4.8 g/m*3 5.8 C 0 km/h
485 15-03-2010 00:58:06 5.8 C 4.73 g/m*3 5.8 C 0 km/h
486 15-03-2010 01:10:06 5.8 C 4.73 g/m*3 5.8 C 0 km/h
487 15-03-2010 01:22:06 5.8 C 4.73 g/m*3 5.8 C 0 km/h
488 15-03-2010 01:34:06 5.7 C 4.63 g/m*3 5.7 C 0 km/h
489 15-03-2010 01:46:06 5.7 C 4.7 g/m*3 5.7 C 0 km/h
490 15-03-2010 01:58:07 5.7 C 4.77 g/m*3 5.7 C 0 km/h
491 15-03-2010 02:10:07 5.4 C 4.81 g/m*3 5.4 C 0 km/h
492 15-03-2010 02:22:07 5.2 C 4.82 g/m*3 5.2 C 0 km/h
493 15-03-2010 02:34:07 4.9 C 4.93 g/m*3 4.9 C 0 km/h
494 15-03-2010 02:46:07 4.8 C 5.03 g/m*3 4.8 C 0 km/h
495 15-03-2010 02:58:07 4.7 C 5 g/m*3 4.7 C 0 km/h
496 15-03-2010 03:10:07 5 C 4.76 g/m*3 5 C 0 km/h
497 15-03-2010 03:22:07 5 C 4.69 g/m*3 5 C 0 km/h
498 15-03-2010 03:34:07 4.9 C 4.79 g/m*3 4.9 C 0 km/h
499 15-03-2010 03:46:07 4.8 C 4.69 g/m*3 4.8 C 0 km/h
500 15-03-2010 03:58:07 4.7 C 4.73 g/m*3 4.7 C 0 km/h
Sensor: Nr:Datum:Temp:Abs-Feuchte:Windchill:Wind:
Aussen-T/F 501 15-03-2010 04:10:07 4.6 C 4.63 g/m*3 4.6 C 0 km/h
502 15-03-2010 04:22:07 4.6 C 4.63 g/m*3 4.6 C 0 km/h
503 15-03-2010 04:34:07 4.6 C 4.63 g/m*3 4.6 C 0 km/h
504 15-03-2010 04:46:07 4.6 C 4.57 g/m*3 4.6 C 0 km/h
505 15-03-2010 04:58:07 4.7 C 4.6 g/m*3 4.7 C 0 km/h
506 15-03-2010 05:10:07 4.6 C 4.5 g/m*3 4.6 C 0 km/h
507 15-03-2010 05:22:07 4.6 C 4.57 g/m*3 4.6 C 0 km/h
508 15-03-2010 05:34:07 4.6 C 4.43 g/m*3 4.6 C 0 km/h
509 15-03-2010 05:46:07 4.7 C 4.33 g/m*3 4.7 C 0 km/h
510 15-03-2010 05:58:07 4.7 C 4.33 g/m*3 4.7 C 0 km/h
511 15-03-2010 06:10:08 4.7 C 4.26 g/m*3 4.7 C 0 km/h
512 15-03-2010 06:22:03 4.7 C 4.2 g/m*3 4.7 C 0 km/h
513 15-03-2010 06:34:04 4.6 C 4.17 g/m*3 4.6 C 0 km/h
514 15-03-2010 06:46:02 4.6 C 4.23 g/m*3 4.6 C 0 km/h
515 15-03-2010 06:58:02 4.7 C 4.2 g/m*3 4.7 C 0 km/h
516 15-03-2010 07:10:02 4.4 C 4.37 g/m*3 4.4 C 0 km/h
517 15-03-2010 07:22:02 4 C 4.64 g/m*3 4 C 0 km/h
518 15-03-2010 07:34:02 3.7 C 4.86 g/m*3 3.7 C 0 km/h
519 15-03-2010 07:46:02 3.6 C 4.95 g/m*3 3.6 C 0 km/h
520 15-03-2010 07:58:02 3.7 C 5.11 g/m*3 3.7 C 0 km/h
521 15-03-2010 08:10:02 3.8 C 5.21 g/m*3 3.8 C 0 km/h
522 15-03-2010 08:22:02 3.7 C 5.23 g/m*3 3.7 C 0 km/h
523 15-03-2010 08:34:02 3.8 C 5.33 g/m*3 3.8 C 0 km/h
524 15-03-2010 08:46:02 4 C 5.4 g/m*3 4 C 0 km/h
525 15-03-2010 08:58:02 4.2 C 5.54 g/m*3 4.2 C 0 km/h
Sensor: Nr:Datum:Temp:Abs-Feuchte:Windchill:Wind:
Aussen-T/F 526 15-03-2010 09:10:02 4.3 C 5.51 g/m*3 4.3 C 0 km/h
527 15-03-2010 09:22:02 4.3 C 5.51 g/m*3 4.3 C 0 km/h
528 15-03-2010 09:34:02 4.4 C 5.55 g/m*3 4.4 C 0 km/h
529 15-03-2010 09:46:02 4.6 C 5.62 g/m*3 4.6 C 0 km/h
530 15-03-2010 09:58:02 4.5 C 5.52 g/m*3 4.5 C 0 km/h
531 15-03-2010 10:10:02 4.5 C 5.52 g/m*3 4.5 C 0 km/h
532 15-03-2010 10:22:02 4.6 C 5.56 g/m*3 4.6 C 0 km/h
533 15-03-2010 10:34:02 5.1 C 5.61 g/m*3 5.1 C 0 km/h
534 15-03-2010 10:46:02 5.5 C 5.48 g/m*3 5.5 C 0 km/h
535 15-03-2010 10:58:02 6 C 5.44 g/m*3 6 C 0 km/h
536 15-03-2010 11:10:02 5.9 C 5.26 g/m*3 5.9 C 0 km/h
537 15-03-2010 11:22:02 6 C 5.08 g/m*3 6 C 0 km/h
538 15-03-2010 11:34:01 5.9 C 5.05 g/m*3 5.9 C 0 km/h
539 15-03-2010 11:46:02 5.9 C 4.98 g/m*3 5.9 C 0 km/h
540 15-03-2010 11:58:02 6 C 4.94 g/m*3 6 C 0 km/h
541 15-03-2010 12:10:01 6 C 4.79 g/m*3 6 C 0 km/h
542 15-03-2010 12:22:02 6.6 C 4.98 g/m*3 6.6 C 0 km/h
543 15-03-2010 12:34:01 7.4 C 4.85 g/m*3 7.4 C 0 km/h
544 15-03-2010 12:46:02 7.8 C 4.98 g/m*3 7.8 C 0 km/h
545 15-03-2010 12:58:02 8.5 C 4.87 g/m*3 8.5 C 0 km/h
546 15-03-2010 13:10:02 9.3 C 4.67 g/m*3 9.3 C 0 km/h
547 15-03-2010 13:22:02 9 C 4.58 g/m*3 9 C 0 km/h
548 15-03-2010 13:34:02 9.4 C 4.61 g/m*3 9.4 C 0 km/h
549 15-03-2010 13:46:02 9.9 C 4.58 g/m*3 9.9 C 0 km/h
550 15-03-2010 13:58:03 9.7 C 4.33 g/m*3 9.7 C 0 km/h
Sensor: Nr:Datum:Temp:Abs-Feuchte:Windchill:Wind:
Aussen-T/F 551 15-03-2010 14:10:01 10.1 C 4.35 g/m*3 10.1 C 0 km/h
552 15-03-2010 14:22:01 10 C 4.04 g/m*3 10 C 0 km/h
553 15-03-2010 14:34:02 10.4 C 3.95 g/m*3 10.4 C 0 km/h
554 15-03-2010 14:46:02 10.5 C 4.07 g/m*3 10.5 C 0 km/h
555 15-03-2010 14:58:02 10.3 C 4.02 g/m*3 10.3 C 0 km/h
556 15-03-2010 15:10:01 10.4 C 4.05 g/m*3 10.4 C 0 km/h
557 15-03-2010 15:22:02 11 C 4.1 g/m*3 11 C 0 km/h
558 15-03-2010 15:34:02 10.5 C 3.98 g/m*3 10.5 C 0 km/h
559 15-03-2010 15:46:02 10.4 C 4.05 g/m*3 10.4 C 0 km/h
560 15-03-2010 15:58:02 10.1 C 4.07 g/m*3 10.1 C 0 km/h
561 15-03-2010 16:10:03 9.9 C 4.2 g/m*3 9.9 C 0 km/h
562 15-03-2010 16:22:02 10 C 4.23 g/m*3 10 C 0 km/h
563 15-03-2010 16:34:02 9.9 C 4.29 g/m*3 9.9 C 0 km/h
564 15-03-2010 16:46:01 9.8 C 4.27 g/m*3 9.8 C 0 km/h
565 15-03-2010 16:58:01 9.7 C 4.43 g/m*3 9.7 C 0 km/h
566 15-03-2010 17:10:02 9.6 C 4.4 g/m*3 9.6 C 0 km/h
567 15-03-2010 17:22:01 9.2 C 4.55 g/m*3 9.2 C 0 km/h
568 15-03-2010 17:34:01 8.6 C 4.98 g/m*3 8.6 C 0 km/h
569 15-03-2010 17:46:01 8.3 C 5.06 g/m*3 8.3 C 0 km/h
570 15-03-2010 17:58:01 8.2 C 4.94 g/m*3 8.2 C 0 km/h
571 15-03-2010 18:10:02 8.2 C 5.11 g/m*3 8.2 C 0 km/h
572 15-03-2010 18:22:01 8.1 C 5.16 g/m*3 8.1 C 0 km/h
573 15-03-2010 18:34:02 8 C 5.21 g/m*3 8 C 0 km/h
574 15-03-2010 18:46:01 8.1 C 5.08 g/m*3 8.1 C 0 km/h
575 15-03-2010 18:58:01 7.7 C 5.27 g/m*3 7.7 C 0 km/h
Sensor: Nr:Datum:Temp:Abs-Feuchte:Windchill:Wind:
Aussen-T/F 576 15-03-2010 19:10:02 7.5 C 5.36 g/m*3 7.5 C 0 km/h
577 15-03-2010 19:22:01 7.2 C 5.42 g/m*3 7.2 C 0 km/h
578 15-03-2010 19:34:02 7.1 C 5.46 g/m*3 7.1 C 0 km/h
579 15-03-2010 19:46:01 7 C 5.5 g/m*3 7 C 0 km/h
580 15-03-2010 19:58:01 7 C 5.58 g/m*3 7 C 0 km/h
581 15-03-2010 20:10:02 6.7 C 5.77 g/m*3 6.7 C 0 km/h
582 15-03-2010 20:22:01 6.8 C 5.81 g/m*3 6.8 C 0 km/h
583 15-03-2010 20:34:02 6.9 C 5.62 g/m*3 6.9 C 0 km/h
584 15-03-2010 20:46:01 6.8 C 5.58 g/m*3 6.8 C 0 km/h
585 15-03-2010 20:58:01 6.8 C 5.58 g/m*3 6.8 C 0 km/h
586 15-03-2010 21:10:02 6.9 C 5.47 g/m*3 6.9 C 0 km/h
587 15-03-2010 21:22:02 6.6 C 5.59 g/m*3 6.6 C 0 km/h
588 15-03-2010 21:34:02 6.4 C 5.66 g/m*3 6.4 C 0 km/h
589 15-03-2010 21:46:01 6.3 C 5.85 g/m*3 6.3 C 0 km/h
590 15-03-2010 21:58:01 6.2 C 5.81 g/m*3 6.2 C 0 km/h
591 15-03-2010 22:10:01 6.1 C 5.77 g/m*3 6.1 C 0 km/h
592 15-03-2010 22:23:02 6 C 5.73 g/m*3 6 C 0 km/h
593 15-03-2010 22:35:02 6 C 5.88 g/m*3 6 C 0 km/h
594 15-03-2010 22:47:02 5.8 C 5.95 g/m*3 5.8 C 0 km/h
595 15-03-2010 22:59:02 5.8 C 6.02 g/m*3 5.8 C 0 km/h
596 15-03-2010 23:11:02 5.7 C 6.05 g/m*3 5.7 C 0 km/h
597 15-03-2010 23:23:02 5.6 C 6.08 g/m*3 5.6 C 0 km/h
598 15-03-2010 23:35:03 5.5 C 6.11 g/m*3 5.5 C 0 km/h
599 15-03-2010 23:47:03 5.5 C 6.11 g/m*3 5.5 C 0 km/h
600 15-03-2010 23:59:03 5.4 C 6.07 g/m*3 5.4 C 0 km/h
Sensor: Nr:Datum:Temp:Abs-Feuchte:Windchill:Wind:
Aussen-T/F 601 16-03-2010 00:11:03 5.4 C 6.14 g/m*3 5.4 C 0 km/h
602 16-03-2010 00:23:03 5.4 C 6.14 g/m*3 5.4 C 0 km/h
603 16-03-2010 00:35:03 5.3 C 6.1 g/m*3 5.3 C 0 km/h
604 16-03-2010 00:47:03 5.2 C 6.13 g/m*3 5.2 C 0 km/h
605 16-03-2010 00:59:03 5.1 C 6.09 g/m*3 5.1 C 0 km/h
606 16-03-2010 01:11:03 5 C 5.98 g/m*3 5 C 0 km/h
607 16-03-2010 01:23:03 5 C 6.05 g/m*3 5 C 0 km/h
608 16-03-2010 01:35:03 5 C 6.05 g/m*3 5 C 0 km/h
609 16-03-2010 01:47:03 5 C 6.05 g/m*3 5 C 0 km/h
610 16-03-2010 01:59:03 5 C 6.05 g/m*3 5 C 0 km/h
611 16-03-2010 02:11:03 5 C 6.12 g/m*3 5 C 0 km/h
612 16-03-2010 02:23:03 4.9 C 6.08 g/m*3 4.9 C 0 km/h
613 16-03-2010 02:35:03 4.9 C 6.08 g/m*3 4.9 C 0 km/h
614 16-03-2010 02:47:03 4.9 C 6.08 g/m*3 4.9 C 0 km/h
615 16-03-2010 02:59:03 4.8 C 5.97 g/m*3 4.8 C 0 km/h
616 16-03-2010 03:11:03 4.8 C 5.97 g/m*3 4.8 C 0 km/h
617 16-03-2010 03:23:03 4.7 C 5.93 g/m*3 4.7 C 0 km/h
618 16-03-2010 03:35:04 4.8 C 6.04 g/m*3 4.8 C 0 km/h
619 16-03-2010 03:47:04 4.8 C 6.04 g/m*3 4.8 C 0 km/h
620 16-03-2010 03:59:04 4.8 C 6.1 g/m*3 4.8 C 0 km/h
621 16-03-2010 04:11:04 4.8 C 6.1 g/m*3 4.8 C 0 km/h
622 16-03-2010 04:23:04 4.8 C 6.1 g/m*3 4.8 C 0 km/h
623 16-03-2010 04:35:04 4.7 C 6.06 g/m*3 4.7 C 0 km/h
624 16-03-2010 04:47:04 4.8 C 6.1 g/m*3 4.8 C 0 km/h
625 16-03-2010 04:59:04 4.7 C 6.06 g/m*3 4.7 C 0 km/h
Sensor: Nr:Datum:Temp:Abs-Feuchte:Windchill:Wind:
Aussen-T/F 626 16-03-2010 05:11:04 4.7 C 6.06 g/m*3 4.7 C 0 km/h
627 16-03-2010 05:23:04 4.7 C 6.13 g/m*3 4.7 C 0 km/h
628 16-03-2010 05:35:04 4.7 C 6.13 g/m*3 4.7 C 0 km/h
629 16-03-2010 05:47:04 4.6 C 6.02 g/m*3 4.6 C 0 km/h
630 16-03-2010 05:59:04 4.6 C 6.02 g/m*3 4.6 C 0 km/h
631 16-03-2010 06:11:04 4.6 C 6.02 g/m*3 4.6 C 0 km/h
632 16-03-2010 06:23:04 4.6 C 5.96 g/m*3 4.6 C 0 km/h
633 16-03-2010 06:35:04 4.6 C 5.96 g/m*3 4.6 C 0 km/h
634 16-03-2010 06:47:04 4.7 C 6.06 g/m*3 4.7 C 0 km/h
635 16-03-2010 06:59:04 4.7 C 6.06 g/m*3 4.7 C 0 km/h
636 16-03-2010 07:11:02 4.7 C 6.06 g/m*3 4.7 C 0 km/h
637 16-03-2010 07:23:01 4.8 C 6.1 g/m*3 4.8 C 0 km/h
638 16-03-2010 07:35:02 4.9 C 6.21 g/m*3 4.9 C 0 km/h
639 16-03-2010 07:47:02 5 C 6.18 g/m*3 5 C 0 km/h
640 16-03-2010 07:59:02 5 C 6.18 g/m*3 5 C 0 km/h
641 16-03-2010 08:11:02 5 C 6.18 g/m*3 5 C 0 km/h
642 16-03-2010 08:23:02 5.1 C 6.22 g/m*3 5.1 C 0 km/h
643 16-03-2010 08:35:02 5.3 C 6.31 g/m*3 5.3 C 0 km/h
644 16-03-2010 08:47:02 5.3 C 6.24 g/m*3 5.3 C 0 km/h
645 16-03-2010 08:59:02 5.5 C 6.32 g/m*3 5.5 C 0 km/h
646 16-03-2010 09:11:01 5.7 C 6.4 g/m*3 5.7 C 0 km/h
647 16-03-2010 09:23:02 6 C 6.46 g/m*3 6 C 0 km/h
648 16-03-2010 09:35:01 6.4 C 6.48 g/m*3 6.4 C 0 km/h
649 16-03-2010 09:47:02 6.4 C 6.26 g/m*3 6.4 C 0 km/h
650 16-03-2010 09:59:02 6.6 C 6.11 g/m*3 6.6 C 0 km/h
Sensor: Nr:Datum:Temp:Abs-Feuchte:Windchill:Wind:
Aussen-T/F 651 16-03-2010 10:11:01 6.7 C 6 g/m*3 6.7 C 0 km/h
652 16-03-2010 10:23:01 6.8 C 5.97 g/m*3 6.8 C 0 km/h
653 16-03-2010 10:35:02 6.8 C 5.81 g/m*3 6.8 C 0 km/h
654 16-03-2010 10:47:02 6.8 C 5.66 g/m*3 6.8 C 0 km/h
655 16-03-2010 10:59:03 6.9 C 5.7 g/m*3 6.9 C 0 km/h
656 16-03-2010 11:11:01 7.1 C 5.62 g/m*3 7.1 C 0 km/h
657 16-03-2010 11:23:02 7.5 C 5.44 g/m*3 7.5 C 0 km/h
658 16-03-2010 11:35:02 8.1 C 5.41 g/m*3 8.1 C 0 km/h
659 16-03-2010 11:47:02 8.5 C 5.29 g/m*3 8.5 C 0 km/h
660 16-03-2010 11:59:02 8.7 C 5.1 g/m*3 8.7 C 0 km/h
661 16-03-2010 12:11:03 8.7 C 5.1 g/m*3 8.7 C 0 km/h
662 16-03-2010 12:23:02 8.9 C 5.26 g/m*3 8.9 C 0 km/h
663 16-03-2010 12:35:02 8.4 C 5.17 g/m*3 8.4 C 0 km/h
664 16-03-2010 12:47:02 7.9 C 5.34 g/m*3 7.9 C 0 km/h
665 16-03-2010 12:59:02 7.8 C 5.39 g/m*3 7.8 C 0 km/h
666 16-03-2010 13:11:02 8 C 5.29 g/m*3 8 C 0 km/h
667 16-03-2010 13:23:01 7.8 C 5.14 g/m*3 7.8 C 0 km/h
668 16-03-2010 13:35:02 8.7 C 5.45 g/m*3 8.7 C 0 km/h
669 16-03-2010 13:47:02 8.2 C 5.11 g/m*3 8.2 C 0 km/h
670 16-03-2010 13:59:02 8.1 C 5.08 g/m*3 8.1 C 0 km/h
671 16-03-2010 14:11:02 8.1 C 5.16 g/m*3 8.1 C 0 km/h
672 16-03-2010 14:23:01 8.7 C 5.36 g/m*3 8.7 C 0 km/h
673 16-03-2010 14:35:02 8.7 C 5.1 g/m*3 8.7 C 0 km/h
674 16-03-2010 14:47:02 8.2 C 4.94 g/m*3 8.2 C 0 km/h
675 16-03-2010 14:59:02 8.1 C 4.99 g/m*3 8.1 C 0 km/h
Sensor: Nr:Datum:Temp:Abs-Feuchte:Windchill:Wind:
Aussen-T/F 676 16-03-2010 15:11:02 8.1 C 5.08 g/m*3 8.1 C 0 km/h
677 16-03-2010 15:23:01 8.5 C 5.12 g/m*3 8.5 C 0 km/h
678 16-03-2010 15:35:02 8.6 C 4.81 g/m*3 8.6 C 0 km/h
679 16-03-2010 15:47:01 8.8 C 4.79 g/m*3 8.8 C 0 km/h
680 16-03-2010 15:59:01 9 C 4.85 g/m*3 9 C 0 km/h
681 16-03-2010 16:11:02 8.7 C 4.76 g/m*3 8.7 C 0 km/h
682 16-03-2010 16:23:02 8.5 C 4.78 g/m*3 8.5 C 0 km/h
683 16-03-2010 16:35:02 8.7 C 4.84 g/m*3 8.7 C 0 km/h
684 16-03-2010 16:47:02 8.7 C 4.84 g/m*3 8.7 C 0 km/h
685 16-03-2010 16:59:02 8.7 C 4.84 g/m*3 8.7 C 0 km/h
686 16-03-2010 17:11:02 8.9 C 4.99 g/m*3 8.9 C 0 km/h
687 16-03-2010 17:23:02 8.8 C 5.05 g/m*3 8.8 C 0 km/h
688 16-03-2010 17:35:01 8.6 C 4.98 g/m*3 8.6 C 0 km/h
689 16-03-2010 17:47:02 8.6 C 4.98 g/m*3 8.6 C 0 km/h
690 16-03-2010 17:59:02 8.4 C 5.01 g/m*3 8.4 C 0 km/h
691 16-03-2010 18:11:01 8.2 C 5.28 g/m*3 8.2 C 0 km/h
692 16-03-2010 18:23:02 8 C 5.37 g/m*3 8 C 0 km/h
693 16-03-2010 18:35:01 7.8 C 5.55 g/m*3 7.8 C 0 km/h
694 16-03-2010 18:47:02 7.5 C 5.52 g/m*3 7.5 C 0 km/h
695 16-03-2010 18:59:02 7.3 C 5.53 g/m*3 7.3 C 0 km/h
696 16-03-2010 19:11:02 7.1 C 5.46 g/m*3 7.1 C 0 km/h
697 16-03-2010 19:23:02 7 C 5.58 g/m*3 7 C 0 km/h
698 16-03-2010 19:35:03 6.9 C 5.62 g/m*3 6.9 C 0 km/h
699 16-03-2010 19:47:02 6.8 C 5.58 g/m*3 6.8 C 0 km/h
700 16-03-2010 19:59:02 6.6 C 5.51 g/m*3 6.6 C 0 km/h
Sensor: Nr:Datum:Temp:Abs-Feuchte:Windchill:Wind:
Aussen-T/F 701 16-03-2010 20:11:01 6.2 C 5.37 g/m*3 6.2 C 0 km/h
702 16-03-2010 20:23:02 5.7 C 5.34 g/m*3 5.7 C 0 km/h
703 16-03-2010 20:35:02 5.3 C 5.2 g/m*3 5.3 C 0 km/h
704 16-03-2010 20:47:02 4.9 C 5.2 g/m*3 4.9 C 0 km/h
705 16-03-2010 20:59:03 4.6 C 5.16 g/m*3 4.6 C 0 km/h
706 16-03-2010 21:11:01 4.4 C 5.09 g/m*3 4.4 C 0 km/h
707 16-03-2010 21:23:01 4.2 C 5.03 g/m*3 4.2 C 0 km/h
708 16-03-2010 21:36:04 4 C 5.02 g/m*3 4 C 0 km/h
709 16-03-2010 21:48:04 3.8 C 5.02 g/m*3 3.8 C 0 km/h
710 16-03-2010 22:00:04 3.7 C 5.05 g/m*3 3.7 C 0 km/h
711 16-03-2010 22:12:04 3.3 C 4.91 g/m*3 3.3 C 0 km/h
712 16-03-2010 22:24:04 3.2 C 4.88 g/m*3 3.2 C 0 km/h
713 16-03-2010 22:36:04 2.9 C 4.84 g/m*3 2.9 C 0 km/h
714 16-03-2010 22:48:04 2.8 C 4.81 g/m*3 2.8 C 0 km/h
715 16-03-2010 23:00:04 2.7 C 4.78 g/m*3 2.7 C 0 km/h
716 16-03-2010 23:12:04 2.5 C 4.71 g/m*3 2.5 C 0 km/h
717 16-03-2010 23:24:04 2.4 C 4.74 g/m*3 2.4 C 0 km/h
718 16-03-2010 23:36:04 2.2 C 4.68 g/m*3 2.2 C 0 km/h
719 16-03-2010 23:48:04 2 C 4.61 g/m*3 2 C 0 km/h
720 17-03-2010 00:00:04 2.3 C 4.76 g/m*3 2.3 C 0 km/h
721 17-03-2010 00:12:04 2 C 4.67 g/m*3 2 C 0 km/h
722 17-03-2010 00:24:05 2.2 C 4.73 g/m*3 2.2 C 0 km/h
723 17-03-2010 00:36:05 2.3 C 4.82 g/m*3 2.3 C 0 km/h
724 17-03-2010 00:48:05 2.3 C 4.76 g/m*3 2.3 C 0 km/h
725 17-03-2010 01:00:05 2.3 C 4.76 g/m*3 2.3 C 0 km/h
Sensor: Nr:Datum:Temp:Abs-Feuchte:Windchill:Wind:
Aussen-T/F 726 17-03-2010 01:12:05 2.3 C 4.76 g/m*3 2.3 C 0 km/h
727 17-03-2010 01:24:05 1.8 C 4.6 g/m*3 1.8 C 0 km/h
728 17-03-2010 01:36:05 1.6 C 4.54 g/m*3 1.6 C 0 km/h
729 17-03-2010 01:48:05 1.7 C 4.63 g/m*3 1.7 C 0 km/h
730 17-03-2010 02:00:05 2 C 4.67 g/m*3 2 C 0 km/h
731 17-03-2010 02:12:05 2 C 4.67 g/m*3 2 C 0 km/h
732 17-03-2010 02:24:05 2.1 C 4.64 g/m*3 2.1 C 0 km/h
733 17-03-2010 02:36:05 2.1 C 4.64 g/m*3 2.1 C 0 km/h
734 17-03-2010 02:48:05 2.1 C 4.59 g/m*3 2.1 C 0 km/h
735 17-03-2010 03:00:05 2.2 C 4.62 g/m*3 2.2 C 0 km/h
736 17-03-2010 03:12:05 2 C 4.56 g/m*3 2 C 0 km/h
737 17-03-2010 03:24:05 2.1 C 4.59 g/m*3 2.1 C 0 km/h
738 17-03-2010 03:36:05 2 C 4.56 g/m*3 2 C 0 km/h
739 17-03-2010 03:48:05 2.1 C 4.59 g/m*3 2.1 C 0 km/h
740 17-03-2010 04:00:05 2 C 4.56 g/m*3 2 C 0 km/h
741 17-03-2010 04:12:05 1.9 C 4.58 g/m*3 1.9 C 0 km/h
742 17-03-2010 04:24:05 1.7 C 4.46 g/m*3 1.7 C 0 km/h
743 17-03-2010 04:36:06 1.4 C 4.37 g/m*3 1.4 C 0 km/h
744 17-03-2010 04:48:06 1.1 C 4.34 g/m*3 1.1 C 0 km/h
745 17-03-2010 05:00:06 1 C 4.31 g/m*3 1 C 0 km/h
746 17-03-2010 05:12:06 0.8 C 4.3 g/m*3 0.8 C 0 km/h
747 17-03-2010 05:24:06 0.8 C 4.35 g/m*3 0.8 C 0 km/h
748 17-03-2010 05:36:06 0.7 C 4.32 g/m*3 0.7 C 0 km/h
749 17-03-2010 05:48:06 0.7 C 4.37 g/m*3 0.7 C 0 km/h
750 17-03-2010 06:00:06 0.6 C 4.34 g/m*3 0.6 C 0 km/h
Sensor: Nr:Datum:Temp:Abs-Feuchte:Windchill:Wind:
Aussen-T/F 751 17-03-2010 06:12:06 0.5 C 4.31 g/m*3 0.5 C 0 km/h
752 17-03-2010 06:24:06 0.6 C 4.39 g/m*3 0.6 C 0 km/h
753 17-03-2010 06:36:06 0.4 C 4.33 g/m*3 0.4 C 0 km/h
754 17-03-2010 06:48:02 0.6 C 4.39 g/m*3 0.6 C 0 km/h
755 17-03-2010 07:00:02 0.5 C 4.36 g/m*3 0.5 C 0 km/h
756 17-03-2010 07:12:02 0.6 C 4.44 g/m*3 0.6 C 0 km/h
757 17-03-2010 07:24:03 0.8 C 4.51 g/m*3 0.8 C 0 km/h
758 17-03-2010 07:36:02 1.2 C 4.63 g/m*3 1.2 C 0 km/h
759 17-03-2010 07:48:02 1.5 C 4.73 g/m*3 1.5 C 0 km/h
760 17-03-2010 08:00:02 1.6 C 4.7 g/m*3 1.6 C 0 km/h
761 17-03-2010 08:12:02 1.8 C 4.77 g/m*3 1.8 C 0 km/h
762 17-03-2010 08:24:02 2 C 4.72 g/m*3 2 C 0 km/h
763 17-03-2010 08:36:02 2.3 C 4.76 g/m*3 2.3 C 0 km/h
764 17-03-2010 08:48:02 2.6 C 4.8 g/m*3 2.6 C 0 km/h
765 17-03-2010 09:00:02 2.9 C 4.67 g/m*3 2.9 C 0 km/h
766 17-03-2010 09:12:02 3.5 C 4.67 g/m*3 3.5 C 0 km/h
767 17-03-2010 09:24:03 4.2 C 4.77 g/m*3 4.2 C 0 km/h
768 17-03-2010 09:36:02 4.6 C 4.5 g/m*3 4.6 C 0 km/h
769 17-03-2010 09:48:02 4.8 C 4.36 g/m*3 4.8 C 0 km/h
770 17-03-2010 10:00:02 5.2 C 4.41 g/m*3 5.2 C 0 km/h
771 17-03-2010 10:12:02 5.5 C 4.35 g/m*3 5.5 C 0 km/h
772 17-03-2010 10:24:02 6.2 C 4.27 g/m*3 6.2 C 0 km/h
773 17-03-2010 10:36:02 6.8 C 4.36 g/m*3 6.8 C 0 km/h
774 17-03-2010 10:48:02 7.1 C 4.21 g/m*3 7.1 C 0 km/h
775 17-03-2010 11:00:02 7.6 C 4.11 g/m*3 7.6 C 0 km/h
Sensor: Nr:Datum:Temp:Abs-Feuchte:Windchill:Wind:
Aussen-T/F 776 17-03-2010 11:12:02 8.2 C 3.94 g/m*3 8.2 C 0 km/h
777 17-03-2010 11:24:02 8.8 C 3.92 g/m*3 8.8 C 0 km/h
778 17-03-2010 11:36:01 9 C 3.79 g/m*3 9 C 0 km/h
779 17-03-2010 11:48:02 9.1 C 3.73 g/m*3 9.1 C 0 km/h
780 17-03-2010 12:00:02 9.6 C 3.94 g/m*3 9.6 C 0 km/h
781 17-03-2010 12:12:01 10.1 C 3.78 g/m*3 10.1 C 0 km/h
782 17-03-2010 12:24:02 10.4 C 3.66 g/m*3 10.4 C 0 km/h
783 17-03-2010 12:36:02 11.1 C 3.73 g/m*3 11.1 C 0 km/h
784 17-03-2010 12:48:02 11.5 C 3.72 g/m*3 11.5 C 0 km/h
785 17-03-2010 13:00:03 11.8 C 3.58 g/m*3 11.8 C 0 km/h
786 17-03-2010 13:12:02 12.2 C 3.45 g/m*3 12.2 C 0 km/h
787 17-03-2010 13:24:02 12.8 C 3.47 g/m*3 12.8 C 0 km/h
788 17-03-2010 13:36:02 13.1 C 3.42 g/m*3 13.1 C 0 km/h
789 17-03-2010 13:48:02 13.2 C 3.44 g/m*3 13.2 C 0 km/h
790 17-03-2010 14:00:02 13.4 C 3.02 g/m*3 13.4 C 0 km/h
791 17-03-2010 14:12:02 13.5 C 2.92 g/m*3 13.5 C 0 km/h
792 17-03-2010 14:24:01 13.4 C 2.91 g/m*3 13.4 C 0 km/h
793 17-03-2010 14:36:02 13.8 C 3.1 g/m*3 13.8 C 0 km/h
794 17-03-2010 14:48:02 14.1 C 2.79 g/m*3 14.1 C 0 km/h
795 17-03-2010 15:00:02 14.5 C 3.11 g/m*3 14.5 C 0 km/h
796 17-03-2010 15:12:02 14.7 C 3.15 g/m*3 14.7 C 0 km/h
797 17-03-2010 15:24:02 14.6 C 3.13 g/m*3 14.6 C 0 km/h
798 17-03-2010 15:36:02 14.6 C 3.13 g/m*3 14.6 C 0 km/h
799 17-03-2010 15:48:02 14.1 C 3.16 g/m*3 14.1 C 0 km/h
800 17-03-2010 16:00:02 14.1 C 3.03 g/m*3 14.1 C 0 km/h
Sensor: Nr:Datum:Temp:Abs-Feuchte:Windchill:Wind:
Aussen-T/F 801 17-03-2010 16:12:03 13.9 C 3 g/m*3 13.9 C 0 km/h
802 17-03-2010 16:24:02 14 C 3.14 g/m*3 14 C 0 km/h
803 17-03-2010 16:36:02 13.9 C 3.12 g/m*3 13.9 C 0 km/h
804 17-03-2010 16:48:01 13.8 C 2.98 g/m*3 13.8 C 0 km/h
805 17-03-2010 17:00:01 13.7 C 3.08 g/m*3 13.7 C 0 km/h
806 17-03-2010 17:12:02 13.7 C 3.08 g/m*3 13.7 C 0 km/h
807 17-03-2010 17:24:01 13.4 C 3.25 g/m*3 13.4 C 0 km/h
808 17-03-2010 17:36:01 13.1 C 3.42 g/m*3 13.1 C 0 km/h
809 17-03-2010 17:48:01 12.5 C 3.63 g/m*3 12.5 C 0 km/h
810 17-03-2010 18:00:01 12 C 3.62 g/m*3 12 C 0 km/h
811 17-03-2010 18:12:02 11.7 C 3.77 g/m*3 11.7 C 0 km/h
812 17-03-2010 18:24:02 11.2 C 3.75 g/m*3 11.2 C 0 km/h
813 17-03-2010 18:36:01 10.8 C 3.76 g/m*3 10.8 C 0 km/h
814 17-03-2010 18:48:01 10.4 C 3.86 g/m*3 10.4 C 0 km/h
815 17-03-2010 19:00:01 10 C 3.95 g/m*3 10 C 0 km/h
816 17-03-2010 19:12:01 9.6 C 3.94 g/m*3 9.6 C 0 km/h
817 17-03-2010 19:24:02 9.5 C 3.91 g/m*3 9.5 C 0 km/h
818 17-03-2010 19:36:01 9.2 C 4.02 g/m*3 9.2 C 0 km/h
819 17-03-2010 19:48:03 9 C 4.14 g/m*3 9 C 0 km/h
820 17-03-2010 20:00:03 8.6 C 4.12 g/m*3 8.6 C 0 km/h
821 17-03-2010 20:12:02 8.5 C 4.18 g/m*3 8.5 C 0 km/h
822 17-03-2010 20:24:02 8.2 C 4.19 g/m*3 8.2 C 0 km/h
823 17-03-2010 20:36:02 7.9 C 4.19 g/m*3 7.9 C 0 km/h
824 17-03-2010 20:48:02 7.8 C 4.24 g/m*3 7.8 C 0 km/h
825 17-03-2010 21:00:02 7.5 C 4.32 g/m*3 7.5 C 0 km/h
Sensor: Nr:Datum:Temp:Abs-Feuchte:Windchill:Wind:
Aussen-T/F 826 17-03-2010 21:13:03 7.3 C 4.35 g/m*3 7.3 C 0 km/h
827 17-03-2010 21:25:03 7.3 C 4.35 g/m*3 7.3 C 0 km/h
828 17-03-2010 21:37:03 7 C 4.26 g/m*3 7 C 0 km/h
829 17-03-2010 21:49:03 6.9 C 4.39 g/m*3 6.9 C 0 km/h
830 17-03-2010 22:01:03 6.9 C 4.39 g/m*3 6.9 C 0 km/h
831 17-03-2010 22:13:03 6.9 C 4.39 g/m*3 6.9 C 0 km/h
832 17-03-2010 22:25:03 6.9 C 4.31 g/m*3 6.9 C 0 km/h
833 17-03-2010 22:37:03 6.9 C 4.23 g/m*3 6.9 C 0 km/h
834 17-03-2010 22:49:03 6.8 C 4.28 g/m*3 6.8 C 0 km/h
835 17-03-2010 23:01:03 6.6 C 4.38 g/m*3 6.6 C 0 km/h
836 17-03-2010 23:13:03 6.4 C 4.4 g/m*3 6.4 C 0 km/h
837 17-03-2010 23:25:03 6.1 C 4.38 g/m*3 6.1 C 0 km/h
838 17-03-2010 23:37:03 5.9 C 4.47 g/m*3 5.9 C 0 km/h
839 17-03-2010 23:49:03 6.2 C 4.49 g/m*3 6.2 C 0 km/h
840 18-03-2010 00:01:03 6.1 C 4.38 g/m*3 6.1 C 0 km/h
841 18-03-2010 00:13:03 6.1 C 4.38 g/m*3 6.1 C 0 km/h
842 18-03-2010 00:25:03 5.8 C 4.44 g/m*3 5.8 C 0 km/h
843 18-03-2010 00:37:03 5.7 C 4.41 g/m*3 5.7 C 0 km/h
844 18-03-2010 00:49:03 5.7 C 4.41 g/m*3 5.7 C 0 km/h
845 18-03-2010 01:01:03 5.6 C 4.38 g/m*3 5.6 C 0 km/h
846 18-03-2010 01:13:04 5.5 C 4.35 g/m*3 5.5 C 0 km/h
847 18-03-2010 01:25:04 5.6 C 4.38 g/m*3 5.6 C 0 km/h
848 18-03-2010 01:37:04 5.4 C 4.4 g/m*3 5.4 C 0 km/h
849 18-03-2010 01:49:04 5.4 C 4.47 g/m*3 5.4 C 0 km/h
850 18-03-2010 02:01:04 5.4 C 4.4 g/m*3 5.4 C 0 km/h
Sensor: Nr:Datum:Temp:Abs-Feuchte:Windchill:Wind:
Aussen-T/F 851 18-03-2010 02:13:04 5.4 C 4.4 g/m*3 5.4 C 0 km/h
852 18-03-2010 02:25:04 5.3 C 4.37 g/m*3 5.3 C 0 km/h
853 18-03-2010 02:37:04 4.9 C 4.39 g/m*3 4.9 C 0 km/h
854 18-03-2010 02:49:04 4.5 C 4.34 g/m*3 4.5 C 0 km/h
855 18-03-2010 03:01:04 4.3 C 4.35 g/m*3 4.3 C 0 km/h
856 18-03-2010 03:13:04 4 C 4.32 g/m*3 4 C 0 km/h
857 18-03-2010 03:25:04 3.8 C 4.39 g/m*3 3.8 C 0 km/h
858 18-03-2010 03:37:04 3.8 C 4.39 g/m*3 3.8 C 0 km/h
859 18-03-2010 03:49:04 3.8 C 4.39 g/m*3 3.8 C 0 km/h
860 18-03-2010 04:01:04 3.8 C 4.39 g/m*3 3.8 C 0 km/h
861 18-03-2010 04:13:04 3.7 C 4.42 g/m*3 3.7 C 0 km/h
862 18-03-2010 04:25:04 3.4 C 4.4 g/m*3 3.4 C 0 km/h
863 18-03-2010 04:37:04 3.2 C 4.34 g/m*3 3.2 C 0 km/h
864 18-03-2010 04:49:04 3 C 4.28 g/m*3 3 C 0 km/h
865 18-03-2010 05:01:04 2.8 C 4.34 g/m*3 2.8 C 0 km/h
866 18-03-2010 05:13:04 2.7 C 4.31 g/m*3 2.7 C 0 km/h
867 18-03-2010 05:25:04 2.5 C 4.25 g/m*3 2.5 C 0 km/h
868 18-03-2010 05:37:04 2.5 C 4.25 g/m*3 2.5 C 0 km/h
869 18-03-2010 05:49:05 2.2 C 4.17 g/m*3 2.2 C 0 km/h
870 18-03-2010 06:01:05 2.1 C 4.2 g/m*3 2.1 C 0 km/h
871 18-03-2010 06:13:05 2.1 C 4.25 g/m*3 2.1 C 0 km/h
872 18-03-2010 06:25:05 1.9 C 4.19 g/m*3 1.9 C 0 km/h
873 18-03-2010 06:37:05 1.8 C 4.22 g/m*3 1.8 C 0 km/h
874 18-03-2010 06:49:05 1.7 C 4.19 g/m*3 1.7 C 0 km/h
875 18-03-2010 07:01:02 1.7 C 4.19 g/m*3 1.7 C 0 km/h
Sensor: Nr:Datum:Temp:Abs-Feuchte:Windchill:Wind:
Aussen-T/F 876 18-03-2010 07:13:02 1.9 C 4.3 g/m*3 1.9 C 0 km/h
877 18-03-2010 07:25:03 1.8 C 4.28 g/m*3 1.8 C 0 km/h
878 18-03-2010 07:37:02 2 C 4.33 g/m*3 2 C 0 km/h
879 18-03-2010 07:49:02 2.2 C 4.39 g/m*3 2.2 C 0 km/h
880 18-03-2010 08:01:01 2.5 C 4.43 g/m*3 2.5 C 0 km/h
881 18-03-2010 08:13:01 2.8 C 4.52 g/m*3 2.8 C 0 km/h
882 18-03-2010 08:25:02 3.1 C 4.55 g/m*3 3.1 C 0 km/h
883 18-03-2010 08:37:01 3.5 C 4.61 g/m*3 3.5 C 0 km/h
884 18-03-2010 08:49:01 4 C 4.64 g/m*3 4 C 0 km/h
885 18-03-2010 09:01:02 4.6 C 4.7 g/m*3 4.6 C 0 km/h
886 18-03-2010 09:13:02 5.1 C 4.45 g/m*3 5.1 C 0 km/h
887 18-03-2010 09:25:01 5.3 C 4.37 g/m*3 5.3 C 0 km/h
888 18-03-2010 09:37:02 5.9 C 4.25 g/m*3 5.9 C 0 km/h
889 18-03-2010 09:49:01 6.2 C 4.19 g/m*3 6.2 C 0 km/h
890 18-03-2010 10:01:02 6.7 C 4.41 g/m*3 6.7 C 0 km/h
891 18-03-2010 10:13:02 7.4 C 4.53 g/m*3 7.4 C 0 km/h
892 18-03-2010 10:25:01 7.9 C 4.35 g/m*3 7.9 C 0 km/h
893 18-03-2010 10:37:02 8.3 C 4.3 g/m*3 8.3 C 0 km/h
894 18-03-2010 10:49:01 8.8 C 4.35 g/m*3 8.8 C 0 km/h
895 18-03-2010 11:01:02 9.5 C 4.46 g/m*3 9.5 C 0 km/h
896 18-03-2010 11:13:02 10.2 C 4.47 g/m*3 10.2 C 0 km/h
897 18-03-2010 11:25:02 10.7 C 4.52 g/m*3 10.7 C 0 km/h
898 18-03-2010 11:37:01 11.4 C 4.21 g/m*3 11.4 C 0 km/h
899 18-03-2010 11:49:01 12 C 4.05 g/m*3 12 C 0 km/h
900 18-03-2010 12:01:01 12.8 C 4.26 g/m*3 12.8 C 0 km/h
Sensor: Nr:Datum:Temp:Abs-Feuchte:Windchill:Wind:
Aussen-T/F 901 18-03-2010 12:13:01 13.4 C 4.18 g/m*3 13.4 C 0 km/h
902 18-03-2010 12:25:02 14.2 C 4.27 g/m*3 14.2 C 0 km/h
903 18-03-2010 12:37:01 15 C 4.1 g/m*3 15 C 0 km/h
904 18-03-2010 12:49:02 15.9 C 4.2 g/m*3 15.9 C 0 km/h
905 18-03-2010 13:01:01 16.8 C 3.86 g/m*3 16.8 C 0 km/h
906 18-03-2010 13:13:01 17.5 C 3.58 g/m*3 17.5 C 0 km/h
907 18-03-2010 13:25:02 18.2 C 3.11 g/m*3 18.2 C 0 km/h
908 18-03-2010 13:37:01 18.7 C 3.2 g/m*3 18.7 C 0 km/h
909 18-03-2010 13:49:02 19 C 3.26 g/m*3 19 C 0 km/h
910 18-03-2010 14:01:02 19.2 C 3.3 g/m*3 19.2 C 0 km/h
911 18-03-2010 14:13:02 19.1 C 3.28 g/m*3 19.1 C 0 km/h
912 18-03-2010 14:25:02 19 C 3.26 g/m*3 19 C 0 km/h
913 18-03-2010 14:37:02 19.2 C 3.3 g/m*3 19.2 C 0 km/h
914 18-03-2010 14:49:02 19.6 C 3.38 g/m*3 19.6 C 0 km/h
915 18-03-2010 15:01:01 20.2 C 3.5 g/m*3 20.2 C 0 km/h
916 18-03-2010 15:13:01 20 C 3.46 g/m*3 20 C 0 km/h
917 18-03-2010 15:25:02 20.4 C 3.54 g/m*3 20.4 C 0 km/h
918 18-03-2010 15:37:02 20.6 C 3.58 g/m*3 20.6 C 0 km/h
919 18-03-2010 15:49:01 20.6 C 3.58 g/m*3 20.6 C 0 km/h
920 18-03-2010 16:01:01 20 C 3.46 g/m*3 20 C 0 km/h
921 18-03-2010 16:13:01 19.8 C 3.42 g/m*3 19.8 C 0 km/h
922 18-03-2010 16:25:01 20 C 3.46 g/m*3 20 C 0 km/h
923 18-03-2010 16:37:02 20 C 3.46 g/m*3 20 C 0 km/h
924 18-03-2010 16:49:02 19.3 C 3.32 g/m*3 19.3 C 0 km/h
925 18-03-2010 17:01:02 19.1 C 3.28 g/m*3 19.1 C 0 km/h
Sensor: Nr:Datum:Temp:Abs-Feuchte:Windchill:Wind:
Aussen-T/F 926 18-03-2010 17:13:02 18.5 C 3.16 g/m*3 18.5 C 0 km/h
927 18-03-2010 17:25:02 18 C 3.38 g/m*3 18 C 0 km/h
928 18-03-2010 17:37:02 17.5 C 3.88 g/m*3 17.5 C 0 km/h
929 18-03-2010 17:49:02 16.8 C 4.15 g/m*3 16.8 C 0 km/h
930 18-03-2010 18:01:03 16.3 C 4.16 g/m*3 16.3 C 0 km/h
931 18-03-2010 18:13:03 15.8 C 4.17 g/m*3 15.8 C 0 km/h
932 18-03-2010 18:25:02 15.4 C 3.94 g/m*3 15.4 C 0 km/h
933 18-03-2010 18:37:02 15 C 3.98 g/m*3 15 C 0 km/h
934 18-03-2010 18:49:01 14.5 C 3.98 g/m*3 14.5 C 0 km/h
935 18-03-2010 19:01:02 14.1 C 4 g/m*3 14.1 C 0 km/h
936 18-03-2010 19:13:02 13.7 C 4.14 g/m*3 13.7 C 0 km/h
937 18-03-2010 19:25:01 13.4 C 4.18 g/m*3 13.4 C 0 km/h
938 18-03-2010 19:37:02 13.3 C 4.04 g/m*3 13.3 C 0 km/h
939 18-03-2010 19:49:02 13.2 C 4.13 g/m*3 13.2 C 0 km/h
940 18-03-2010 20:01:02 13.1 C 4.11 g/m*3 13.1 C 0 km/h
941 18-03-2010 20:13:02 13.1 C 3.99 g/m*3 13.1 C 0 km/h
942 18-03-2010 20:25:01 13 C 3.86 g/m*3 13 C 0 km/h
943 18-03-2010 20:37:02 12.8 C 4.03 g/m*3 12.8 C 0 km/h
944 18-03-2010 20:49:02 12.6 C 3.98 g/m*3 12.6 C 0 km/h
945 18-03-2010 21:01:02 12.4 C 3.93 g/m*3 12.4 C 0 km/h
946 18-03-2010 21:13:02 12.4 C 3.82 g/m*3 12.4 C 0 km/h
947 18-03-2010 21:25:02 12.4 C 3.82 g/m*3 12.4 C 0 km/h
948 18-03-2010 21:37:02 12.1 C 3.97 g/m*3 12.1 C 0 km/h
949 18-03-2010 21:49:02 11.8 C 3.89 g/m*3 11.8 C 0 km/h
950 18-03-2010 22:01:02 11.7 C 3.97 g/m*3 11.7 C 0 km/h
Sensor: Nr:Datum:Temp:Abs-Feuchte:Windchill:Wind:
Aussen-T/F 951 18-03-2010 22:13:02 11.4 C 3.9 g/m*3 11.4 C 0 km/h
952 18-03-2010 22:25:02 11.2 C 4.05 g/m*3 11.2 C 0 km/h
953 18-03-2010 22:38:04 11.1 C 4.03 g/m*3 11.1 C 0 km/h
954 18-03-2010 22:50:04 10.8 C 4.05 g/m*3 10.8 C 0 km/h
955 18-03-2010 23:02:04 10.5 C 4.07 g/m*3 10.5 C 0 km/h
956 18-03-2010 23:14:04 10.7 C 3.93 g/m*3 10.7 C 0 km/h
957 18-03-2010 23:26:04 10.7 C 3.93 g/m*3 10.7 C 0 km/h
958 18-03-2010 23:38:04 10.5 C 3.98 g/m*3 10.5 C 0 km/h
959 18-03-2010 23:50:04 10.4 C 3.86 g/m*3 10.4 C 0 km/h
960 19-03-2010 00:02:04 10 C 4.04 g/m*3 10 C 0 km/h
961 19-03-2010 00:14:04 9.8 C 4.08 g/m*3 9.8 C 0 km/h
962 19-03-2010 00:26:04 9.8 C 4.08 g/m*3 9.8 C 0 km/h
963 19-03-2010 00:38:04 9.9 C 4.01 g/m*3 9.9 C 0 km/h
964 19-03-2010 00:50:04 10.1 C 3.88 g/m*3 10.1 C 0 km/h
965 19-03-2010 01:02:04 10.8 C 3.56 g/m*3 10.8 C 0 km/h
966 19-03-2010 01:14:04 11.4 C 3.39 g/m*3 11.4 C 0 km/h
967 19-03-2010 01:26:04 11.5 C 3.31 g/m*3 11.5 C 0 km/h
968 19-03-2010 01:38:04 11.4 C 3.28 g/m*3 11.4 C 0 km/h
969 19-03-2010 01:50:05 11.4 C 3.28 g/m*3 11.4 C 0 km/h
970 19-03-2010 02:02:05 11.4 C 3.28 g/m*3 11.4 C 0 km/h
971 19-03-2010 02:14:05 11.5 C 3.31 g/m*3 11.5 C 0 km/h
972 19-03-2010 02:26:05 11.4 C 3.39 g/m*3 11.4 C 0 km/h
973 19-03-2010 02:38:05 11.6 C 3.33 g/m*3 11.6 C 0 km/h
974 19-03-2010 02:50:05 11.6 C 3.33 g/m*3 11.6 C 0 km/h
975 19-03-2010 03:02:05 11.6 C 3.33 g/m*3 11.6 C 0 km/h
Sensor: Nr:Datum:Temp:Abs-Feuchte:Windchill:Wind:
Aussen-T/F 976 19-03-2010 03:14:05 12 C 3.2 g/m*3 12 C 0 km/h
977 19-03-2010 03:26:05 12 C 3.2 g/m*3 12 C 0 km/h
978 19-03-2010 03:38:05 12.1 C 3.22 g/m*3 12.1 C 0 km/h
979 19-03-2010 03:50:05 12.1 C 3.22 g/m*3 12.1 C 0 km/h
980 19-03-2010 04:02:05 12.2 C 3.24 g/m*3 12.2 C 0 km/h
981 19-03-2010 04:14:05 12.1 C 3.22 g/m*3 12.1 C 0 km/h
982 19-03-2010 04:26:05 11.9 C 3.28 g/m*3 11.9 C 0 km/h
983 19-03-2010 04:38:05 11.8 C 3.37 g/m*3 11.8 C 0 km/h
984 19-03-2010 04:50:05 11.6 C 3.43 g/m*3 11.6 C 0 km/h
985 19-03-2010 05:02:05 11.4 C 3.49 g/m*3 11.4 C 0 km/h
986 19-03-2010 05:14:05 11.3 C 3.57 g/m*3 11.3 C 0 km/h
987 19-03-2010 05:26:05 11.3 C 3.57 g/m*3 11.3 C 0 km/h
988 19-03-2010 05:38:05 11.3 C 3.57 g/m*3 11.3 C 0 km/h
989 19-03-2010 05:50:06 11.6 C 3.64 g/m*3 11.6 C 0 km/h
990 19-03-2010 06:02:06 11.5 C 3.62 g/m*3 11.5 C 0 km/h
991 19-03-2010 06:14:06 11.5 C 3.62 g/m*3 11.5 C 0 km/h
992 19-03-2010 06:26:06 11.5 C 3.62 g/m*3 11.5 C 0 km/h
993 19-03-2010 06:38:06 11.5 C 3.72 g/m*3 11.5 C 0 km/h
994 19-03-2010 06:50:02 11.4 C 3.7 g/m*3 11.4 C 0 km/h
995 19-03-2010 07:02:02 11.4 C 3.9 g/m*3 11.4 C 0 km/h
996 19-03-2010 07:14:02 11.8 C 4 g/m*3 11.8 C 0 km/h
997 19-03-2010 07:26:02 12.3 C 4.02 g/m*3 12.3 C 0 km/h
998 19-03-2010 07:38:01 12.4 C 4.04 g/m*3 12.4 C 0 km/h
999 19-03-2010 07:50:02 12.4 C 4.04 g/m*3 12.4 C 0 km/h
1000 19-03-2010 08:02:02 12.3 C 4.13 g/m*3 12.3 C 0 km/h
Sensor: Nr:Datum:Temp:Abs-Feuchte:Windchill:Wind:
Aussen-T/F 1001 19-03-2010 08:14:02 12.6 C 4.43 g/m*3 12.6 C 0 km/h
1002 19-03-2010 08:26:02 12.9 C 4.62 g/m*3 12.9 C 0 km/h
1003 19-03-2010 08:38:02 13.1 C 4.56 g/m*3 13.1 C 0 km/h
1004 19-03-2010 08:50:02 13.3 C 4.74 g/m*3 13.3 C 0 km/h
1005 19-03-2010 09:02:01 13.4 C 4.77 g/m*3 13.4 C 0 km/h
1006 19-03-2010 09:14:01 13.5 C 4.8 g/m*3 13.5 C 0 km/h
1007 19-03-2010 09:26:01 13.5 C 4.91 g/m*3 13.5 C 0 km/h
1008 19-03-2010 09:38:02 13.6 C 4.94 g/m*3 13.6 C 0 km/h
1009 19-03-2010 09:50:02 13.8 C 5 g/m*3 13.8 C 0 km/h
1010 19-03-2010 10:02:01 14.1 C 5.1 g/m*3 14.1 C 0 km/h
1011 19-03-2010 10:14:01 14.4 C 5.07 g/m*3 14.4 C 0 km/h
1012 19-03-2010 10:26:02 14.9 C 5.23 g/m*3 14.9 C 0 km/h
1013 19-03-2010 10:38:02 15.2 C 5.19 g/m*3 15.2 C 0 km/h
1014 19-03-2010 10:50:02 15.5 C 5.16 g/m*3 15.5 C 0 km/h
1015 19-03-2010 11:02:01 15.8 C 5.25 g/m*3 15.8 C 0 km/h
1016 19-03-2010 11:14:01 16.2 C 5.24 g/m*3 16.2 C 0 km/h
1017 19-03-2010 11:26:02 16.3 C 5.27 g/m*3 16.3 C 0 km/h
1018 19-03-2010 11:38:01 16 C 5.31 g/m*3 16 C 0 km/h
1019 19-03-2010 11:50:02 16.5 C 5.48 g/m*3 16.5 C 0 km/h
1020 19-03-2010 12:02:01 17 C 5.35 g/m*3 17 C 0 km/h
1021 19-03-2010 12:14:01 18.1 C 5.41 g/m*3 18.1 C 0 km/h
1022 19-03-2010 12:26:02 18.6 C 5.57 g/m*3 18.6 C 0 km/h
1023 19-03-2010 12:38:01 19 C 5.38 g/m*3 19 C 0 km/h
1024 19-03-2010 12:50:02 18.9 C 5.35 g/m*3 18.9 C 0 km/h
1025 19-03-2010 13:02:02 18.3 C 5.47 g/m*3 18.3 C 0 km/h
Sensor: Nr:Datum:Temp:Abs-Feuchte:Windchill:Wind:
Aussen-T/F 1026 19-03-2010 13:14:02 18.7 C 5.44 g/m*3 18.7 C 0 km/h
1027 19-03-2010 13:26:02 18.7 C 5.28 g/m*3 18.7 C 0 km/h
1028 19-03-2010 13:38:02 19.3 C 5.14 g/m*3 19.3 C 0 km/h
1029 19-03-2010 13:50:02 19.4 C 5.17 g/m*3 19.4 C 0 km/h
1030 19-03-2010 14:02:01 20 C 5.18 g/m*3 20 C 0 km/h
1031 19-03-2010 14:14:01 19.8 C 5.12 g/m*3 19.8 C 0 km/h
1032 19-03-2010 14:26:02 20.3 C 5.1 g/m*3 20.3 C 0 km/h
1033 19-03-2010 14:38:01 20.6 C 4.83 g/m*3 20.6 C 0 km/h
1034 19-03-2010 14:50:02 20.7 C 4.86 g/m*3 20.7 C 0 km/h
1035 19-03-2010 15:02:01 20.6 C 4.65 g/m*3 20.6 C 0 km/h
1036 19-03-2010 15:14:01 21 C 4.58 g/m*3 21 C 0 km/h
1037 19-03-2010 15:26:01 21.2 C 4.63 g/m*3 21.2 C 0 km/h
1038 19-03-2010 15:38:02 20.6 C 4.65 g/m*3 20.6 C 0 km/h
1039 19-03-2010 15:50:02 20.8 C 4.71 g/m*3 20.8 C 0 km/h
1040 19-03-2010 16:02:01 20.7 C 4.68 g/m*3 20.7 C 0 km/h
1041 19-03-2010 16:14:01 20.8 C 4.89 g/m*3 20.8 C 0 km/h
1042 19-03-2010 16:26:02 20 C 4.84 g/m*3 20 C 0 km/h
1043 19-03-2010 16:38:02 20 C 4.84 g/m*3 20 C 0 km/h
1044 19-03-2010 16:50:01 19.7 C 5.09 g/m*3 19.7 C 0 km/h
1045 19-03-2010 17:02:02 19.4 C 5.17 g/m*3 19.4 C 0 km/h
1046 19-03-2010 17:14:02 19.1 C 5.08 g/m*3 19.1 C 0 km/h
1047 19-03-2010 17:26:01 18.8 C 5.15 g/m*3 18.8 C 0 km/h
1048 19-03-2010 17:38:01 18.6 C 5.09 g/m*3 18.6 C 0 km/h
1049 19-03-2010 17:50:01 18.3 C 5.32 g/m*3 18.3 C 0 km/h
1050 19-03-2010 18:02:02 18.1 C 5.41 g/m*3 18.1 C 0 km/h
Sensor: Nr:Datum:Temp:Abs-Feuchte:Windchill:Wind:
Aussen-T/F 1051 19-03-2010 18:14:02 17.9 C 5.5 g/m*3 17.9 C 0 km/h
1052 19-03-2010 18:26:01 17.7 C 5.43 g/m*3 17.7 C 0 km/h
1053 19-03-2010 18:38:02 17.3 C 5.45 g/m*3 17.3 C 0 km/h
1054 19-03-2010 18:50:02 16.8 C 5.58 g/m*3 16.8 C 0 km/h
1055 19-03-2010 19:02:02 16.4 C 5.58 g/m*3 16.4 C 0 km/h
1056 19-03-2010 19:14:02 16.4 C 5.58 g/m*3 16.4 C 0 km/h
1057 19-03-2010 19:26:01 15.9 C 5.69 g/m*3 15.9 C 0 km/h
1058 19-03-2010 19:38:02 15.7 C 5.62 g/m*3 15.7 C 0 km/h
1059 19-03-2010 19:50:02 15.7 C 5.62 g/m*3 15.7 C 0 km/h
1060 19-03-2010 20:02:02 15.7 C 5.49 g/m*3 15.7 C 0 km/h
1061 19-03-2010 20:14:02 15.6 C 5.59 g/m*3 15.6 C 0 km/h
1062 19-03-2010 20:26:01 15.5 C 5.42 g/m*3 15.5 C 0 km/h
1063 19-03-2010 20:38:02 15.6 C 5.45 g/m*3 15.6 C 0 km/h
1064 19-03-2010 20:50:02 15.5 C 5.42 g/m*3 15.5 C 0 km/h
1065 19-03-2010 21:02:02 15.4 C 5.39 g/m*3 15.4 C 0 km/h
1066 19-03-2010 21:14:02 15.5 C 5.55 g/m*3 15.5 C 0 km/h
1067 19-03-2010 21:26:02 15.4 C 5.52 g/m*3 15.4 C 0 km/h
1068 19-03-2010 21:38:02 15.4 C 5.52 g/m*3 15.4 C 0 km/h
1069 19-03-2010 21:50:02 15.3 C 5.48 g/m*3 15.3 C 0 km/h
1070 19-03-2010 22:02:02 15.2 C 5.58 g/m*3 15.2 C 0 km/h
1071 19-03-2010 22:14:02 15.2 C 5.58 g/m*3 15.2 C 0 km/h
1072 19-03-2010 22:26:02 15.1 C 5.68 g/m*3 15.1 C 0 km/h
1073 19-03-2010 22:38:02 15 C 5.77 g/m*3 15 C 0 km/h
1074 19-03-2010 22:50:02 14.9 C 5.74 g/m*3 14.9 C 0 km/h
1075 19-03-2010 23:02:01 14.7 C 5.79 g/m*3 14.7 C 0 km/h
Sensor: Nr:Datum:Temp:Abs-Feuchte:Windchill:Wind:
Aussen-T/F 1076 19-03-2010 23:14:01 14.7 C 5.79 g/m*3 14.7 C 0 km/h
1077 19-03-2010 23:26:02 14.6 C 5.76 g/m*3 14.6 C 0 km/h
1078 19-03-2010 23:38:02 14.5 C 5.85 g/m*3 14.5 C 0 km/h
1079 19-03-2010 23:51:04 14.5 C 5.72 g/m*3 14.5 C 0 km/h
1080 20-03-2010 00:03:04 14.4 C 5.93 g/m*3 14.4 C 0 km/h
1081 20-03-2010 00:15:04 14.2 C 5.86 g/m*3 14.2 C 0 km/h
1082 20-03-2010 00:27:04 14.1 C 5.95 g/m*3 14.1 C 0 km/h
1083 20-03-2010 00:39:04 14.1 C 5.83 g/m*3 14.1 C 0 km/h
1084 20-03-2010 00:51:04 14.1 C 5.83 g/m*3 14.1 C 0 km/h
1085 20-03-2010 01:03:04 14.1 C 5.83 g/m*3 14.1 C 0 km/h
1086 20-03-2010 01:15:04 14.1 C 5.95 g/m*3 14.1 C 0 km/h
1087 20-03-2010 01:27:04 13.9 C 5.99 g/m*3 13.9 C 0 km/h
1088 20-03-2010 01:39:04 13.9 C 5.87 g/m*3 13.9 C 0 km/h
1089 20-03-2010 01:51:04 14.1 C 5.58 g/m*3 14.1 C 0 km/h
1090 20-03-2010 02:03:04 14.7 C 5.41 g/m*3 14.7 C 0 km/h
1091 20-03-2010 02:15:04 14.7 C 5.67 g/m*3 14.7 C 0 km/h
1092 20-03-2010 02:27:04 14.4 C 6.43 g/m*3 14.4 C 0 km/h
1093 20-03-2010 02:39:04 13.8 C 7.03 g/m*3 13.8 C 0 km/h
1094 20-03-2010 02:51:04 13.5 C 7.49 g/m*3 13.5 C 0 km/h
1095 20-03-2010 03:03:05 13 C 7.83 g/m*3 13 C 0 km/h
1096 20-03-2010 03:15:05 12.5 C 8.14 g/m*3 12.5 C 0 km/h
1097 20-03-2010 03:27:05 12.1 C 8.26 g/m*3 12.1 C 0 km/h
1098 20-03-2010 03:39:05 12.2 C 8.52 g/m*3 12.2 C 0 km/h
1099 20-03-2010 03:51:05 12.1 C 8.47 g/m*3 12.1 C 0 km/h
1100 20-03-2010 04:03:05 12 C 8.63 g/m*3 12 C 0 km/h
Sensor: Nr:Datum:Temp:Abs-Feuchte:Windchill:Wind:
Aussen-T/F 1101 20-03-2010 04:15:05 12.2 C 8.85 g/m*3 12.2 C 0 km/h
1102 20-03-2010 04:27:05 12 C 8.85 g/m*3 12 C 0 km/h
1103 20-03-2010 04:39:05 12.1 C 9.01 g/m*3 12.1 C 0 km/h
1104 20-03-2010 04:51:05 12.1 C 9.12 g/m*3 12.1 C 0 km/h
1105 20-03-2010 05:03:05 12.1 C 9.12 g/m*3 12.1 C 0 km/h
1106 20-03-2010 05:15:05 12.4 C 9.4 g/m*3 12.4 C 0 km/h
1107 20-03-2010 05:27:05 12.7 C 9.46 g/m*3 12.7 C 0 km/h
1108 20-03-2010 05:39:05 12.6 C 9.29 g/m*3 12.6 C 0 km/h
1109 20-03-2010 05:51:05 12.7 C 9.35 g/m*3 12.7 C 0 km/h
1110 20-03-2010 06:03:06 12.7 C 9.24 g/m*3 12.7 C 0 km/h
1111 20-03-2010 06:15:06 13.1 C 9.24 g/m*3 13.1 C 0 km/h
1112 20-03-2010 06:27:06 13.2 C 9.19 g/m*3 13.2 C 0 km/h
1113 20-03-2010 06:39:06 13.2 C 9.07 g/m*3 13.2 C 0 km/h
1114 20-03-2010 06:51:06 13.2 C 9.19 g/m*3 13.2 C 0 km/h
1115 20-03-2010 07:03:06 13.3 C 9.13 g/m*3 13.3 C 0 km/h
1116 20-03-2010 07:15:06 13.4 C 9.18 g/m*3 13.4 C 0 km/h
1117 20-03-2010 07:27:06 13.4 C 9.18 g/m*3 13.4 C 0 km/h
1118 20-03-2010 07:39:06 13.6 C 9.18 g/m*3 13.6 C 0 km/h
1119 20-03-2010 07:51:06 13.9 C 9.23 g/m*3 13.9 C 0 km/h
1120 20-03-2010 08:03:06 14 C 9.05 g/m*3 14 C 0 km/h
1121 20-03-2010 08:15:06 14.2 C 9.04 g/m*3 14.2 C 0 km/h
1122 20-03-2010 08:27:06 14.2 C 9.16 g/m*3 14.2 C 0 km/h
1123 20-03-2010 08:39:03 14.3 C 9.09 g/m*3 14.3 C 0 km/h
1124 20-03-2010 08:51:02 14.4 C 9.15 g/m*3 14.4 C 0 km/h
1125 20-03-2010 09:03:03 14.6 C 9.13 g/m*3 14.6 C 0 km/h
Sensor: Nr:Datum:Temp:Abs-Feuchte:Windchill:Wind:
Aussen-T/F 1126 20-03-2010 09:15:02 14.8 C 9.12 g/m*3 14.8 C 0 km/h
1127 20-03-2010 09:27:02 14.6 C 9.39 g/m*3 14.6 C 0 km/h
1128 20-03-2010 09:39:02 14.2 C 9.52 g/m*3 14.2 C 0 km/h
1129 20-03-2010 09:51:01 15 C 9.36 g/m*3 15 C 0 km/h
1130 20-03-2010 10:03:02 15.4 C 9.2 g/m*3 15.4 C 0 km/h
1131 20-03-2010 10:15:01 15.8 C 9.29 g/m*3 15.8 C 0 km/h
1132 20-03-2010 10:27:01 16.1 C 9.05 g/m*3 16.1 C 0 km/h
1133 20-03-2010 10:39:02 16.1 C 8.91 g/m*3 16.1 C 0 km/h
1134 20-03-2010 10:51:01 15.8 C 9.02 g/m*3 15.8 C 0 km/h
1135 20-03-2010 11:03:02 15.1 C 9.29 g/m*3 15.1 C 0 km/h
1136 20-03-2010 11:15:01 15.2 C 9.35 g/m*3 15.2 C 0 km/h
1137 20-03-2010 11:27:01 15.6 C 9.31 g/m*3 15.6 C 0 km/h
1138 20-03-2010 11:39:02 15.5 C 9.25 g/m*3 15.5 C 0 km/h
1139 20-03-2010 11:51:02 15.1 C 9.16 g/m*3 15.1 C 0 km/h
1140 20-03-2010 12:03:02 15.1 C 9.29 g/m*3 15.1 C 0 km/h
1141 20-03-2010 12:15:01 15.4 C 9.33 g/m*3 15.4 C 0 km/h
1142 20-03-2010 12:27:01 15.7 C 9.1 g/m*3 15.7 C 0 km/h
1143 20-03-2010 12:39:02 15.4 C 8.93 g/m*3 15.4 C 0 km/h
1144 20-03-2010 12:51:01 15.4 C 8.93 g/m*3 15.4 C 0 km/h
1145 20-03-2010 13:03:02 16.2 C 8.83 g/m*3 16.2 C 0 km/h
1146 20-03-2010 13:15:02 15.9 C 8.67 g/m*3 15.9 C 0 km/h
1147 20-03-2010 13:27:02 15.9 C 8.94 g/m*3 15.9 C 0 km/h
1148 20-03-2010 13:39:02 16 C 8.86 g/m*3 16 C 0 km/h
1149 20-03-2010 13:51:01 15.6 C 9.04 g/m*3 15.6 C 0 km/h
1150 20-03-2010 14:03:02 15.1 C 9.03 g/m*3 15.1 C 0 km/h
Sensor: Nr:Datum:Temp:Abs-Feuchte:Windchill:Wind:
Aussen-T/F 1151 20-03-2010 14:15:02 15 C 8.98 g/m*3 15 C 0 km/h
1152 20-03-2010 14:27:02 15.5 C 8.99 g/m*3 15.5 C 0 km/h
1153 20-03-2010 14:39:02 15.6 C 8.78 g/m*3 15.6 C 0 km/h
1154 20-03-2010 14:51:01 15.8 C 8.48 g/m*3 15.8 C 0 km/h
1155 20-03-2010 15:03:02 16.7 C 8.38 g/m*3 16.7 C 0 km/h
1156 20-03-2010 15:15:02 17 C 8.1 g/m*3 17 C 0 km/h
1157 20-03-2010 15:27:02 16.8 C 8.15 g/m*3 16.8 C 0 km/h
1158 20-03-2010 15:39:01 17 C 8.25 g/m*3 17 C 0 km/h
1159 20-03-2010 15:51:02 16.8 C 8.15 g/m*3 16.8 C 0 km/h
1160 20-03-2010 16:03:01 16.5 C 8 g/m*3 16.5 C 0 km/h
1161 20-03-2010 16:15:02 16.4 C 8.1 g/m*3 16.4 C 0 km/h
1162 20-03-2010 16:27:02 16.1 C 8.09 g/m*3 16.1 C 0 km/h
1163 20-03-2010 16:39:01 16 C 8.17 g/m*3 16 C 0 km/h
1164 20-03-2010 16:51:03 15.9 C 8.26 g/m*3 15.9 C 0 km/h
1165 20-03-2010 17:03:02 15.7 C 8.16 g/m*3 15.7 C 0 km/h
1166 20-03-2010 17:15:02 15.1 C 8.39 g/m*3 15.1 C 0 km/h
1167 20-03-2010 17:27:02 14.4 C 8.78 g/m*3 14.4 C 0 km/h
1168 20-03-2010 17:39:02 14.6 C 8.63 g/m*3 14.6 C 0 km/h
1169 20-03-2010 17:51:02 14.7 C 8.56 g/m*3 14.7 C 0 km/h
1170 20-03-2010 18:03:01 14.6 C 8.38 g/m*3 14.6 C 0 km/h
1171 20-03-2010 18:15:02 14.6 C 8.38 g/m*3 14.6 C 0 km/h
1172 20-03-2010 18:27:02 14.5 C 8.33 g/m*3 14.5 C 0 km/h
1173 20-03-2010 18:39:02 14.5 C 8.33 g/m*3 14.5 C 0 km/h
1174 20-03-2010 18:51:02 14.4 C 8.41 g/m*3 14.4 C 0 km/h
1175 20-03-2010 19:03:01 14.3 C 8.48 g/m*3 14.3 C 0 km/h
Sensor: Nr:Datum:Temp:Abs-Feuchte:Windchill:Wind:
Aussen-T/F 1176 20-03-2010 19:15:01 14.2 C 8.43 g/m*3 14.2 C 0 km/h
1177 20-03-2010 19:27:01 14.3 C 8.48 g/m*3 14.3 C 0 km/h
1178 20-03-2010 19:39:02 14.4 C 8.53 g/m*3 14.4 C 0 km/h
1179 20-03-2010 19:51:02 14.5 C 8.46 g/m*3 14.5 C 0 km/h
1180 20-03-2010 20:03:02 14.6 C 8.38 g/m*3 14.6 C 0 km/h
1181 20-03-2010 20:15:02 14.5 C 8.46 g/m*3 14.5 C 0 km/h
1182 20-03-2010 20:27:02 14.6 C 8.38 g/m*3 14.6 C 0 km/h
1183 20-03-2010 20:39:02 14.6 C 8.38 g/m*3 14.6 C 0 km/h
1184 20-03-2010 20:51:02 14.5 C 8.21 g/m*3 14.5 C 0 km/h
1185 20-03-2010 21:03:02 14.6 C 8.26 g/m*3 14.6 C 0 km/h
1186 20-03-2010 21:15:02 14.5 C 8.21 g/m*3 14.5 C 0 km/h
1187 20-03-2010 21:27:02 14.4 C 8.16 g/m*3 14.4 C 0 km/h
1188 20-03-2010 21:39:02 14.2 C 8.18 g/m*3 14.2 C 0 km/h
1189 20-03-2010 21:51:01 14.2 C 8.18 g/m*3 14.2 C 0 km/h
1190 20-03-2010 22:03:02 14.2 C 8.18 g/m*3 14.2 C 0 km/h
1191 20-03-2010 22:16:01 14.3 C 8.11 g/m*3 14.3 C 0 km/h
1192 20-03-2010 22:28:01 13.9 C 8.39 g/m*3 13.9 C 0 km/h
1193 20-03-2010 22:40:01 14.1 C 8.25 g/m*3 14.1 C 0 km/h
1194 20-03-2010 22:52:01 13.7 C 8.53 g/m*3 13.7 C 0 km/h
1195 20-03-2010 23:04:02 13 C 8.85 g/m*3 13 C 0 km/h
1196 20-03-2010 23:16:02 12.6 C 9.07 g/m*3 12.6 C 0 km/h
1197 20-03-2010 23:28:02 12.5 C 9.24 g/m*3 12.5 C 0 km/h
1198 20-03-2010 23:40:02 12.4 C 9.29 g/m*3 12.4 C 0 km/h
1199 20-03-2010 23:52:02 12.3 C 9.34 g/m*3 12.3 C 0 km/h
1200 21-03-2010 00:04:02 12.1 C 9.44 g/m*3 12.1 C 0 km/h
Sensor: Nr:Datum:Temp:Abs-Feuchte:Windchill:Wind:
Aussen-T/F 1201 21-03-2010 00:16:02 12 C 9.38 g/m*3 12 C 0 km/h
1202 21-03-2010 00:28:02 12.1 C 9.54 g/m*3 12.1 C 0 km/h
1203 21-03-2010 00:40:02 12.1 C 9.54 g/m*3 12.1 C 0 km/h
1204 21-03-2010 00:52:02 12.1 C 9.54 g/m*3 12.1 C 0 km/h
1205 21-03-2010 01:04:02 12 C 9.59 g/m*3 12 C 0 km/h
1206 21-03-2010 01:16:02 12 C 9.59 g/m*3 12 C 0 km/h
1207 21-03-2010 01:28:02 11.9 C 9.64 g/m*3 11.9 C 0 km/h
1208 21-03-2010 01:40:02 11.9 C 9.64 g/m*3 11.9 C 0 km/h
1209 21-03-2010 01:52:02 11.8 C 9.68 g/m*3 11.8 C 0 km/h
1210 21-03-2010 02:04:02 11.8 C 9.68 g/m*3 11.8 C 0 km/h
1211 21-03-2010 02:16:02 11.8 C 9.79 g/m*3 11.8 C 0 km/h
1212 21-03-2010 02:28:02 11.7 C 9.73 g/m*3 11.7 C 0 km/h
1213 21-03-2010 02:40:02 11.7 C 9.73 g/m*3 11.7 C 0 km/h
1214 21-03-2010 02:52:02 11.5 C 9.61 g/m*3 11.5 C 0 km/h
1215 21-03-2010 03:04:02 11.5 C 9.61 g/m*3 11.5 C 0 km/h
1216 21-03-2010 03:16:02 11.4 C 9.55 g/m*3 11.4 C 0 km/h
1217 21-03-2010 03:28:02 11.4 C 9.55 g/m*3 11.4 C 0 km/h
1218 21-03-2010 03:40:03 11.5 C 9.71 g/m*3 11.5 C 0 km/h
1219 21-03-2010 03:52:03 11.6 C 9.77 g/m*3 11.6 C 0 km/h
1220 21-03-2010 04:04:03 11.6 C 9.77 g/m*3 11.6 C 0 km/h
1221 21-03-2010 04:16:03 11.5 C 9.71 g/m*3 11.5 C 0 km/h
1222 21-03-2010 04:28:03 11.6 C 9.77 g/m*3 11.6 C 0 km/h
1223 21-03-2010 04:40:03 11.6 C 9.87 g/m*3 11.6 C 0 km/h
1224 21-03-2010 04:52:03 11.6 C 9.87 g/m*3 11.6 C 0 km/h
1225 21-03-2010 05:04:03 11.5 C 9.81 g/m*3 11.5 C 0 km/h
Sensor: Nr:Datum:Temp:Abs-Feuchte:Windchill:Wind:
Aussen-T/F 1226 21-03-2010 05:16:03 11.4 C 9.75 g/m*3 11.4 C 0 km/h
1227 21-03-2010 05:28:03 11.3 C 9.69 g/m*3 11.3 C 0 km/h
1228 21-03-2010 05:40:03 11.3 C 9.69 g/m*3 11.3 C 0 km/h
1229 21-03-2010 05:52:03 11.4 C 9.75 g/m*3 11.4 C 0 km/h
1230 21-03-2010 06:04:03 11.4 C 9.65 g/m*3 11.4 C 0 km/h
1231 21-03-2010 06:16:03 11.4 C 9.65 g/m*3 11.4 C 0 km/h
1232 21-03-2010 06:28:03 11.4 C 9.55 g/m*3 11.4 C 0 km/h
1233 21-03-2010 06:40:03 11.3 C 9.38 g/m*3 11.3 C 0 km/h
1234 21-03-2010 06:52:03 11.3 C 9.38 g/m*3 11.3 C 0 km/h
1235 21-03-2010 07:04:03 11.3 C 9.38 g/m*3 11.3 C 0 km/h
1236 21-03-2010 07:16:03 11.3 C 9.38 g/m*3 11.3 C 0 km/h
1237 21-03-2010 07:28:03 11.2 C 9.33 g/m*3 11.2 C 0 km/h
1238 21-03-2010 07:40:03 11.3 C 9.49 g/m*3 11.3 C 0 km/h
1239 21-03-2010 07:52:03 11.2 C 9.43 g/m*3 11.2 C 0 km/h
1240 21-03-2010 08:04:04 11.5 C 9.61 g/m*3 11.5 C 0 km/h
1241 21-03-2010 08:16:04 11.9 C 9.96 g/m*3 11.9 C 0 km/h
1242 21-03-2010 08:28:04 12.2 C 9.93 g/m*3 12.2 C 0 km/h
1243 21-03-2010 08:40:01 12.5 C 9.78 g/m*3 12.5 C 0 km/h
1244 21-03-2010 08:52:02 12.4 C 9.4 g/m*3 12.4 C 0 km/h
1245 21-03-2010 09:04:02 12.9 C 9.35 g/m*3 12.9 C 0 km/h
1246 21-03-2010 09:16:02 13.5 C 8.89 g/m*3 13.5 C 0 km/h
1247 21-03-2010 09:28:02 13.5 C 8.66 g/m*3 13.5 C 0 km/h
1248 21-03-2010 09:40:01 12.7 C 8.68 g/m*3 12.7 C 0 km/h
1249 21-03-2010 09:52:02 12.1 C 8.58 g/m*3 12.1 C 0 km/h
1250 21-03-2010 10:04:01 12.4 C 8.85 g/m*3 12.4 C 0 km/h
Sensor: Nr:Datum:Temp:Abs-Feuchte:Windchill:Wind:
Aussen-T/F 1251 21-03-2010 10:16:02 13 C 8.85 g/m*3 13 C 0 km/h
1252 21-03-2010 10:28:03 13.2 C 8.15 g/m*3 13.2 C 0 km/h
1253 21-03-2010 10:40:01 12.8 C 7.84 g/m*3 12.8 C 0 km/h
1254 21-03-2010 10:52:02 13.2 C 7.81 g/m*3 13.2 C 0 km/h
1255 21-03-2010 11:04:02 13.5 C 7.95 g/m*3 13.5 C 0 km/h
1256 21-03-2010 11:16:02 13.5 C 7.84 g/m*3 13.5 C 0 km/h
1257 21-03-2010 11:28:02 13.6 C 7.89 g/m*3 13.6 C 0 km/h
1258 21-03-2010 11:40:03 12.5 C 8.14 g/m*3 12.5 C 0 km/h
1259 21-03-2010 11:52:02 12.1 C 8.69 g/m*3 12.1 C 0 km/h
1260 21-03-2010 12:04:02 11.9 C 8.9 g/m*3 11.9 C 0 km/h
1261 21-03-2010 12:16:02 11.9 C 8.9 g/m*3 11.9 C 0 km/h
1262 21-03-2010 12:28:02 12.4 C 9.18 g/m*3 12.4 C 0 km/h
1263 21-03-2010 12:40:03 13.6 C 8.94 g/m*3 13.6 C 0 km/h
1264 21-03-2010 12:52:02 13.7 C 8.29 g/m*3 13.7 C 0 km/h
1265 21-03-2010 13:04:02 13.2 C 8.04 g/m*3 13.2 C 0 km/h
1266 21-03-2010 13:16:02 13 C 8.05 g/m*3 13 C 0 km/h
1267 21-03-2010 13:28:02 12.6 C 7.97 g/m*3 12.6 C 0 km/h
1268 21-03-2010 13:40:02 12.6 C 7.97 g/m*3 12.6 C 0 km/h
1269 21-03-2010 13:52:01 12.4 C 7.87 g/m*3 12.4 C 0 km/h
1270 21-03-2010 14:04:02 12.4 C 7.98 g/m*3 12.4 C 0 km/h
1271 21-03-2010 14:16:01 12.2 C 7.99 g/m*3 12.2 C 0 km/h
1272 21-03-2010 14:28:01 11.8 C 8.42 g/m*3 11.8 C 0 km/h
1273 21-03-2010 14:40:02 11.4 C 8.42 g/m*3 11.4 C 0 km/h
1274 21-03-2010 14:52:02 11.5 C 8.57 g/m*3 11.5 C 0 km/h
1275 21-03-2010 15:04:02 11.5 C 8.57 g/m*3 11.5 C 0 km/h
Sensor: Nr:Datum:Temp:Abs-Feuchte:Windchill:Wind:
Aussen-T/F 1276 21-03-2010 15:16:01 11.5 C 8.57 g/m*3 11.5 C 0 km/h
1277 21-03-2010 15:28:01 11.5 C 8.57 g/m*3 11.5 C 0 km/h
1278 21-03-2010 15:40:02 11.3 C 8.57 g/m*3 11.3 C 0 km/h
1279 21-03-2010 15:52:03 11.1 C 8.46 g/m*3 11.1 C 0 km/h
1280 21-03-2010 16:04:03 11.1 C 8.56 g/m*3 11.1 C 0 km/h
1281 21-03-2010 16:16:02 10.8 C 8.6 g/m*3 10.8 C 0 km/h
1282 21-03-2010 16:28:02 10.7 C 8.74 g/m*3 10.7 C 0 km/h
1283 21-03-2010 16:40:02 10.5 C 8.63 g/m*3 10.5 C 0 km/h
1284 21-03-2010 16:52:02 10.5 C 8.53 g/m*3 10.5 C 0 km/h
1285 21-03-2010 17:04:01 10.5 C 8.53 g/m*3 10.5 C 0 km/h
1286 21-03-2010 17:16:02 10.7 C 8.45 g/m*3 10.7 C 0 km/h
1287 21-03-2010 17:28:02 10.7 C 8.45 g/m*3 10.7 C 0 km/h
1288 21-03-2010 17:40:02 10.7 C 8.35 g/m*3 10.7 C 0 km/h
1289 21-03-2010 17:52:02 10.7 C 7.96 g/m*3 10.7 C 0 km/h
1290 21-03-2010 18:04:02 10.1 C 7.66 g/m*3 10.1 C 0 km/h
1291 21-03-2010 18:16:02 9.8 C 7.79 g/m*3 9.8 C 0 km/h
1292 21-03-2010 18:28:02 9.5 C 7.74 g/m*3 9.5 C 0 km/h
1293 21-03-2010 18:40:03 9.4 C 7.69 g/m*3 9.4 C 0 km/h
1294 21-03-2010 18:52:02 9.5 C 7.74 g/m*3 9.5 C 0 km/h
1295 21-03-2010 19:04:02 9.6 C 7.79 g/m*3 9.6 C 0 km/h
1296 21-03-2010 19:16:01 9.6 C 7.79 g/m*3 9.6 C 0 km/h
1297 21-03-2010 19:28:01 9.5 C 7.74 g/m*3 9.5 C 0 km/h
1298 21-03-2010 19:40:02 9.3 C 7.64 g/m*3 9.3 C 0 km/h
1299 21-03-2010 19:52:02 9.3 C 7.73 g/m*3 9.3 C 0 km/h
1300 21-03-2010 20:04:02 9.3 C 7.73 g/m*3 9.3 C 0 km/h
Sensor: Nr:Datum:Temp:Abs-Feuchte:Windchill:Wind:
Aussen-T/F 1301 21-03-2010 20:16:02 9.4 C 7.78 g/m*3 9.4 C 0 km/h
1302 21-03-2010 20:28:02 9.5 C 7.92 g/m*3 9.5 C 0 km/h
1303 21-03-2010 20:40:02 9.5 C 7.92 g/m*3 9.5 C 0 km/h
1304 21-03-2010 20:52:02 9.5 C 7.83 g/m*3 9.5 C 0 km/h
1305 21-03-2010 21:04:02 9.5 C 7.83 g/m*3 9.5 C 0 km/h
1306 21-03-2010 21:16:02 9.4 C 7.78 g/m*3 9.4 C 0 km/h
1307 21-03-2010 21:28:02 9.3 C 7.46 g/m*3 9.3 C 0 km/h
1308 21-03-2010 21:40:02 9.4 C 7.15 g/m*3 9.4 C 0 km/h
1309 21-03-2010 21:52:01 9.4 C 7.05 g/m*3 9.4 C 0 km/h
1310 21-03-2010 22:05:03 9.4 C 7.05 g/m*3 9.4 C 0 km/h
1311 21-03-2010 22:17:03 9.3 C 7.1 g/m*3 9.3 C 0 km/h
1312 21-03-2010 22:29:03 9.2 C 7.14 g/m*3 9.2 C 0 km/h
1313 21-03-2010 22:41:03 9.1 C 7.19 g/m*3 9.1 C 0 km/h
1314 21-03-2010 22:53:03 9.1 C 7.19 g/m*3 9.1 C 0 km/h
1315 21-03-2010 23:05:03 8.9 C 7.27 g/m*3 8.9 C 0 km/h
1316 21-03-2010 23:17:03 8.8 C 7.49 g/m*3 8.8 C 0 km/h
1317 21-03-2010 23:29:03 8.6 C 7.48 g/m*3 8.6 C 0 km/h
1318 21-03-2010 23:41:03 8.5 C 7.51 g/m*3 8.5 C 0 km/h
1319 21-03-2010 23:53:04 8.5 C 7.6 g/m*3 8.5 C 0 km/h
1320 22-03-2010 00:05:04 8.5 C 7.68 g/m*3 8.5 C 0 km/h
1321 22-03-2010 00:17:04 8.5 C 7.68 g/m*3 8.5 C 0 km/h
1322 22-03-2010 00:29:04 8.4 C 7.63 g/m*3 8.4 C 0 km/h
1323 22-03-2010 00:41:04 8.3 C 7.67 g/m*3 8.3 C 0 km/h
1324 22-03-2010 00:53:04 8.3 C 7.67 g/m*3 8.3 C 0 km/h
1325 22-03-2010 01:05:04 8.3 C 7.67 g/m*3 8.3 C 0 km/h
Sensor: Nr:Datum:Temp:Abs-Feuchte:Windchill:Wind:
Aussen-T/F 1326 22-03-2010 01:17:04 8.2 C 7.62 g/m*3 8.2 C 0 km/h
1327 22-03-2010 01:29:04 8.2 C 7.62 g/m*3 8.2 C 0 km/h
1328 22-03-2010 01:41:04 8.3 C 7.75 g/m*3 8.3 C 0 km/h
1329 22-03-2010 01:53:04 8.3 C 7.75 g/m*3 8.3 C 0 km/h
1330 22-03-2010 02:05:04 8.4 C 7.8 g/m*3 8.4 C 0 km/h
1331 22-03-2010 02:17:04 8.2 C 7.7 g/m*3 8.2 C 0 km/h
1332 22-03-2010 02:29:04 8.2 C 7.7 g/m*3 8.2 C 0 km/h
1333 22-03-2010 02:41:04 8.3 C 7.75 g/m*3 8.3 C 0 km/h
1334 22-03-2010 02:53:04 8.4 C 7.8 g/m*3 8.4 C 0 km/h
1335 22-03-2010 03:05:04 8.4 C 7.8 g/m*3 8.4 C 0 km/h
1336 22-03-2010 03:17:04 8.4 C 7.8 g/m*3 8.4 C 0 km/h
1337 22-03-2010 03:29:04 8.4 C 7.8 g/m*3 8.4 C 0 km/h
1338 22-03-2010 03:41:04 8.4 C 7.8 g/m*3 8.4 C 0 km/h
1339 22-03-2010 03:53:04 8.4 C 7.8 g/m*3 8.4 C 0 km/h
1340 22-03-2010 04:05:05 8.4 C 7.8 g/m*3 8.4 C 0 km/h
1341 22-03-2010 04:17:05 8.4 C 7.8 g/m*3 8.4 C 0 km/h
1342 22-03-2010 04:29:05 8.3 C 7.75 g/m*3 8.3 C 0 km/h
1343 22-03-2010 04:41:05 8.2 C 7.7 g/m*3 8.2 C 0 km/h
1344 22-03-2010 04:53:05 8.1 C 7.66 g/m*3 8.1 C 0 km/h
1345 22-03-2010 05:05:05 8.1 C 7.66 g/m*3 8.1 C 0 km/h
1346 22-03-2010 05:17:05 8.2 C 7.7 g/m*3 8.2 C 0 km/h
1347 22-03-2010 05:29:05 8.2 C 7.7 g/m*3 8.2 C 0 km/h
1348 22-03-2010 05:41:05 8.1 C 7.66 g/m*3 8.1 C 0 km/h
1349 22-03-2010 05:53:01 8.1 C 7.66 g/m*3 8.1 C 0 km/h
1350 22-03-2010 06:05:01 8.2 C 7.7 g/m*3 8.2 C 0 km/h
Sensor: Nr:Datum:Temp:Abs-Feuchte:Windchill:Wind:
Aussen-T/F 1351 22-03-2010 06:17:02 8.2 C 7.7 g/m*3 8.2 C 0 km/h
1352 22-03-2010 06:29:02 8.2 C 7.7 g/m*3 8.2 C 0 km/h
1353 22-03-2010 06:41:01 8.1 C 7.66 g/m*3 8.1 C 0 km/h
1354 22-03-2010 06:53:02 8.1 C 7.66 g/m*3 8.1 C 0 km/h
1355 22-03-2010 07:05:01 8.2 C 7.7 g/m*3 8.2 C 0 km/h
1356 22-03-2010 07:17:02 8.2 C 7.7 g/m*3 8.2 C 0 km/h
1357 22-03-2010 07:29:02 8.3 C 7.84 g/m*3 8.3 C 0 km/h
1358 22-03-2010 07:41:01 8.4 C 7.89 g/m*3 8.4 C 0 km/h
1359 22-03-2010 07:53:01 8.5 C 7.94 g/m*3 8.5 C 0 km/h
1360 22-03-2010 08:05:01 8.6 C 7.99 g/m*3 8.6 C 0 km/h
1361 22-03-2010 08:17:02 8.8 C 8.09 g/m*3 8.8 C 0 km/h
1362 22-03-2010 08:29:02 8.8 C 8.01 g/m*3 8.8 C 0 km/h
1363 22-03-2010 08:41:01 8.9 C 8.06 g/m*3 8.9 C 0 km/h
1364 22-03-2010 08:53:02 8.9 C 8.06 g/m*3 8.9 C 0 km/h
1365 22-03-2010 09:05:01 8.9 C 7.97 g/m*3 8.9 C 0 km/h
1366 22-03-2010 09:17:02 9 C 7.93 g/m*3 9 C 0 km/h
1367 22-03-2010 09:29:02 9 C 7.93 g/m*3 9 C 0 km/h
1368 22-03-2010 09:41:02 9.2 C 7.95 g/m*3 9.2 C 0 km/h
1369 22-03-2010 09:53:02 9.3 C 8 g/m*3 9.3 C 0 km/h
1370 22-03-2010 10:05:03 9.6 C 8.06 g/m*3 9.6 C 0 km/h
1371 22-03-2010 10:17:02 10 C 8.08 g/m*3 10 C 0 km/h
1372 22-03-2010 10:29:02 9.9 C 8.03 g/m*3 9.9 C 0 km/h
1373 22-03-2010 10:41:02 9.5 C 7.65 g/m*3 9.5 C 0 km/h
1374 22-03-2010 10:53:02 9.4 C 7.69 g/m*3 9.4 C 0 km/h
1375 22-03-2010 11:05:02 9.5 C 7.92 g/m*3 9.5 C 0 km/h
Sensor: Nr:Datum:Temp:Abs-Feuchte:Windchill:Wind:
Aussen-T/F 1376 22-03-2010 11:17:01 9.5 C 7.92 g/m*3 9.5 C 0 km/h
1377 22-03-2010 11:29:01 9.5 C 7.83 g/m*3 9.5 C 0 km/h
1378 22-03-2010 11:41:02 9.7 C 7.74 g/m*3 9.7 C 0 km/h
1379 22-03-2010 11:53:02 10.2 C 7.8 g/m*3 10.2 C 0 km/h
1380 22-03-2010 12:05:02 10.6 C 7.81 g/m*3 10.6 C 0 km/h
1381 22-03-2010 12:17:01 10.7 C 7.76 g/m*3 10.7 C 0 km/h
1382 22-03-2010 12:29:01 11 C 7.61 g/m*3 11 C 0 km/h
1383 22-03-2010 12:41:02 11.1 C 7.45 g/m*3 11.1 C 0 km/h
1384 22-03-2010 12:53:02 11.4 C 7.39 g/m*3 11.4 C 0 km/h
1385 22-03-2010 13:05:02 11.5 C 7.23 g/m*3 11.5 C 0 km/h
1386 22-03-2010 13:17:01 12.1 C 7.18 g/m*3 12.1 C 0 km/h
1387 22-03-2010 13:29:01 12.4 C 6.66 g/m*3 12.4 C 0 km/h
1388 22-03-2010 13:41:02 12.6 C 6.42 g/m*3 12.6 C 0 km/h
1389 22-03-2010 13:53:01 12.6 C 6.31 g/m*3 12.6 C 0 km/h
1390 22-03-2010 14:05:02 13.3 C 6.47 g/m*3 13.3 C 0 km/h
1391 22-03-2010 14:17:02 14.2 C 6.11 g/m*3 14.2 C 0 km/h
1392 22-03-2010 14:29:02 14.2 C 5.86 g/m*3 14.2 C 0 km/h
1393 22-03-2010 14:41:02 14.5 C 5.72 g/m*3 14.5 C 0 km/h
1394 22-03-2010 14:53:01 14.6 C 5.51 g/m*3 14.6 C 0 km/h
1395 22-03-2010 15:05:02 14.2 C 5.49 g/m*3 14.2 C 0 km/h
1396 22-03-2010 15:17:02 14 C 5.43 g/m*3 14 C 0 km/h
1397 22-03-2010 15:29:02 14 C 5.31 g/m*3 14 C 0 km/h
1398 22-03-2010 15:41:01 14.6 C 5.51 g/m*3 14.6 C 0 km/h
1399 22-03-2010 15:53:02 14.9 C 5.23 g/m*3 14.9 C 0 km/h
1400 22-03-2010 16:05:01 14.4 C 5.07 g/m*3 14.4 C 0 km/h
Sensor: Nr:Datum:Temp:Abs-Feuchte:Windchill:Wind:
Aussen-T/F 1401 22-03-2010 16:17:02 14.3 C 5.28 g/m*3 14.3 C 0 km/h
1402 22-03-2010 16:29:02 14.5 C 5.1 g/m*3 14.5 C 0 km/h
1403 22-03-2010 16:41:01 15.2 C 5.32 g/m*3 15.2 C 0 km/h
1404 22-03-2010 16:53:03 15.2 C 5.45 g/m*3 15.2 C 0 km/h
1405 22-03-2010 17:05:02 14.9 C 5.35 g/m*3 14.9 C 0 km/h
1406 22-03-2010 17:17:02 14.2 C 5.01 g/m*3 14.2 C 0 km/h
1407 22-03-2010 17:29:02 13.9 C 4.8 g/m*3 13.9 C 0 km/h
1408 22-03-2010 17:41:02 13.4 C 4.77 g/m*3 13.4 C 0 km/h
1409 22-03-2010 17:53:02 13.2 C 4.82 g/m*3 13.2 C 0 km/h
1410 22-03-2010 18:05:01 13 C 4.88 g/m*3 13 C 0 km/h
1411 22-03-2010 18:17:02 12.9 C 5.3 g/m*3 12.9 C 0 km/h
1412 22-03-2010 18:29:02 12.4 C 5.35 g/m*3 12.4 C 0 km/h
1413 22-03-2010 18:41:02 11.8 C 5.58 g/m*3 11.8 C 0 km/h
1414 22-03-2010 18:53:02 11.3 C 5.61 g/m*3 11.3 C 0 km/h
1415 22-03-2010 19:05:01 10.5 C 5.72 g/m*3 10.5 C 0 km/h
1416 22-03-2010 19:17:01 10 C 5.64 g/m*3 10 C 0 km/h
1417 22-03-2010 19:29:01 9.7 C 5.72 g/m*3 9.7 C 0 km/h
1418 22-03-2010 19:41:02 9.5 C 5.83 g/m*3 9.5 C 0 km/h
1419 22-03-2010 19:53:02 9.2 C 5.8 g/m*3 9.2 C 0 km/h
1420 22-03-2010 20:05:02 9 C 5.99 g/m*3 9 C 0 km/h
1421 22-03-2010 20:17:02 8.7 C 6.14 g/m*3 8.7 C 0 km/h
1422 22-03-2010 20:29:02 8.7 C 6.23 g/m*3 8.7 C 0 km/h
1423 22-03-2010 20:41:02 8.5 C 6.15 g/m*3 8.5 C 0 km/h
1424 22-03-2010 20:53:02 8.3 C 6.07 g/m*3 8.3 C 0 km/h
1425 22-03-2010 21:05:02 8.1 C 6.07 g/m*3 8.1 C 0 km/h
Sensor: Nr:Datum:Temp:Abs-Feuchte:Windchill:Wind:
Aussen-T/F 1426 22-03-2010 21:17:02 7.8 C 6.12 g/m*3 7.8 C 0 km/h
1427 22-03-2010 21:29:02 7.4 C 6.04 g/m*3 7.4 C 0 km/h
1428 22-03-2010 21:41:02 7.3 C 6.08 g/m*3 7.3 C 0 km/h
1429 22-03-2010 21:53:02 7.1 C 6.08 g/m*3 7.1 C 0 km/h
1430 22-03-2010 22:05:02 6.9 C 6.08 g/m*3 6.9 C 0 km/h
1431 22-03-2010 22:17:02 6.6 C 5.96 g/m*3 6.6 C 0 km/h
1432 22-03-2010 22:29:02 6.5 C 6 g/m*3 6.5 C 0 km/h
1433 22-03-2010 22:41:02 6.2 C 5.88 g/m*3 6.2 C 0 km/h
1434 22-03-2010 22:54:02 6 C 5.88 g/m*3 6 C 0 km/h
1435 22-03-2010 23:06:02 6 C 5.95 g/m*3 6 C 0 km/h
1436 22-03-2010 23:18:03 5.7 C 5.91 g/m*3 5.7 C 0 km/h
1437 22-03-2010 23:30:03 5.6 C 5.87 g/m*3 5.6 C 0 km/h
1438 22-03-2010 23:42:03 5.6 C 5.94 g/m*3 5.6 C 0 km/h
1439 22-03-2010 23:54:03 5.4 C 5.86 g/m*3 5.4 C 0 km/h
1440 23-03-2010 00:06:03 5.2 C 5.78 g/m*3 5.2 C 0 km/h
1441 23-03-2010 00:18:03 5 C 5.78 g/m*3 5 C 0 km/h
1442 23-03-2010 00:30:03 5 C 5.78 g/m*3 5 C 0 km/h
1443 23-03-2010 00:42:03 4.8 C 5.83 g/m*3 4.8 C 0 km/h
1444 23-03-2010 00:54:03 4.6 C 5.76 g/m*3 4.6 C 0 km/h
1445 23-03-2010 01:06:03 4.4 C 5.68 g/m*3 4.4 C 0 km/h
1446 23-03-2010 01:18:03 4.3 C 5.64 g/m*3 4.3 C 0 km/h
1447 23-03-2010 01:30:03 4.3 C 5.71 g/m*3 4.3 C 0 km/h
1448 23-03-2010 01:42:03 4.2 C 5.67 g/m*3 4.2 C 0 km/h
1449 23-03-2010 01:54:03 4.1 C 5.63 g/m*3 4.1 C 0 km/h
1450 23-03-2010 02:06:03 4 C 5.59 g/m*3 4 C 0 km/h
Sensor: Nr:Datum:Temp:Abs-Feuchte:Windchill:Wind:
Aussen-T/F 1451 23-03-2010 02:18:03 3.9 C 5.62 g/m*3 3.9 C 0 km/h
1452 23-03-2010 02:30:03 3.7 C 5.55 g/m*3 3.7 C 0 km/h
1453 23-03-2010 02:42:03 3.6 C 5.57 g/m*3 3.6 C 0 km/h
1454 23-03-2010 02:54:03 3.5 C 5.53 g/m*3 3.5 C 0 km/h
1455 23-03-2010 03:06:03 3.4 C 5.56 g/m*3 3.4 C 0 km/h
1456 23-03-2010 03:18:04 3.3 C 5.52 g/m*3 3.3 C 0 km/h
1457 23-03-2010 03:30:04 3.2 C 5.48 g/m*3 3.2 C 0 km/h
1458 23-03-2010 03:42:04 3.1 C 5.45 g/m*3 3.1 C 0 km/h
1459 23-03-2010 03:54:04 2.9 C 5.43 g/m*3 2.9 C 0 km/h
1460 23-03-2010 04:06:04 2.9 C 5.43 g/m*3 2.9 C 0 km/h
1461 23-03-2010 04:18:04 2.7 C 5.3 g/m*3 2.7 C 0 km/h
1462 23-03-2010 04:30:04 2.6 C 5.27 g/m*3 2.6 C 0 km/h
1463 23-03-2010 04:42:04 2.5 C 5.29 g/m*3 2.5 C 0 km/h
1464 23-03-2010 04:54:04 2.4 C 5.25 g/m*3 2.4 C 0 km/h
1465 23-03-2010 05:06:04 2.4 C 5.25 g/m*3 2.4 C 0 km/h
1466 23-03-2010 05:18:04 2.4 C 5.25 g/m*3 2.4 C 0 km/h
1467 23-03-2010 05:30:04 2.3 C 5.22 g/m*3 2.3 C 0 km/h
1468 23-03-2010 05:42:04 2.2 C 5.24 g/m*3 2.2 C 0 km/h
1469 23-03-2010 05:54:04 2.1 C 5.2 g/m*3 2.1 C 0 km/h
1470 23-03-2010 06:06:04 2.1 C 5.2 g/m*3 2.1 C 0 km/h
1471 23-03-2010 06:18:04 2.1 C 5.2 g/m*3 2.1 C 0 km/h
1472 23-03-2010 06:30:04 2.2 C 5.24 g/m*3 2.2 C 0 km/h
1473 23-03-2010 06:42:04 2.4 C 5.31 g/m*3 2.4 C 0 km/h
1474 23-03-2010 06:54:04 2.7 C 5.48 g/m*3 2.7 C 0 km/h
1475 23-03-2010 07:06:02 2.7 C 5.48 g/m*3 2.7 C 0 km/h
Sensor: Nr:Datum:Temp:Abs-Feuchte:Windchill:Wind:
Aussen-T/F 1476 23-03-2010 07:18:02 2.6 C 5.44 g/m*3 2.6 C 0 km/h
1477 23-03-2010 07:30:02 2.7 C 5.48 g/m*3 2.7 C 0 km/h
1478 23-03-2010 07:42:02 2.9 C 5.55 g/m*3 2.9 C 0 km/h
1479 23-03-2010 07:54:02 3.4 C 5.74 g/m*3 3.4 C 0 km/h
1480 23-03-2010 08:06:02 3.6 C 5.82 g/m*3 3.6 C 0 km/h
1481 23-03-2010 08:18:01 3.8 C 5.83 g/m*3 3.8 C 0 km/h
1482 23-03-2010 08:30:01 3.9 C 5.87 g/m*3 3.9 C 0 km/h
1483 23-03-2010 08:42:02 4.1 C 5.95 g/m*3 4.1 C 0 km/h
1484 23-03-2010 08:54:02 4.4 C 6.07 g/m*3 4.4 C 0 km/h
1485 23-03-2010 09:06:01 4.8 C 6.24 g/m*3 4.8 C 0 km/h
1486 23-03-2010 09:18:02 5.3 C 6.45 g/m*3 5.3 C 0 km/h
1487 23-03-2010 09:30:02 5.9 C 6.71 g/m*3 5.9 C 0 km/h
1488 23-03-2010 09:42:01 6.7 C 6.99 g/m*3 6.7 C 0 km/h
1489 23-03-2010 09:54:03 7.3 C 6.95 g/m*3 7.3 C 0 km/h
1490 23-03-2010 10:06:02 7.9 C 7.06 g/m*3 7.9 C 0 km/h
1491 23-03-2010 10:18:02 8.4 C 6.96 g/m*3 8.4 C 0 km/h
1492 23-03-2010 10:30:03 8.9 C 6.75 g/m*3 8.9 C 0 km/h
1493 23-03-2010 10:42:02 9.3 C 6.56 g/m*3 9.3 C 0 km/h
1494 23-03-2010 10:54:02 9.8 C 6.59 g/m*3 9.8 C 0 km/h
1495 23-03-2010 11:06:01 10.3 C 6.61 g/m*3 10.3 C 0 km/h
1496 23-03-2010 11:18:02 11.2 C 6.49 g/m*3 11.2 C 0 km/h
1497 23-03-2010 11:30:02 11.8 C 6.42 g/m*3 11.8 C 0 km/h
1498 23-03-2010 11:42:02 12.3 C 6.08 g/m*3 12.3 C 0 km/h
1499 23-03-2010 11:54:02 12.8 C 5.94 g/m*3 12.8 C 0 km/h
1500 23-03-2010 12:06:01 13.3 C 5.89 g/m*3 13.3 C 0 km/h
Sensor: Nr:Datum:Temp:Abs-Feuchte:Windchill:Wind:
Aussen-T/F 1501 23-03-2010 12:18:01 13.7 C 5.92 g/m*3 13.7 C 0 km/h
1502 23-03-2010 12:30:01 14 C 5.67 g/m*3 14 C 0 km/h
1503 23-03-2010 12:42:02 13.9 C 5.87 g/m*3 13.9 C 0 km/h
1504 23-03-2010 12:54:02 14.4 C 5.56 g/m*3 14.4 C 0 km/h
1505 23-03-2010 13:06:02 14.9 C 5.23 g/m*3 14.9 C 0 km/h
1506 23-03-2010 13:18:02 15 C 5.13 g/m*3 15 C 0 km/h
1507 23-03-2010 13:30:02 15.6 C 5.59 g/m*3 15.6 C 0 km/h
1508 23-03-2010 13:42:02 16.1 C 5.35 g/m*3 16.1 C 0 km/h
1509 23-03-2010 13:54:01 16 C 5.31 g/m*3 16 C 0 km/h
1510 23-03-2010 14:06:02 16.4 C 5.44 g/m*3 16.4 C 0 km/h
1511 23-03-2010 14:18:01 16.8 C 5.43 g/m*3 16.8 C 0 km/h
1512 23-03-2010 14:30:01 16.9 C 5.32 g/m*3 16.9 C 0 km/h
1513 23-03-2010 14:42:01 17.2 C 5.27 g/m*3 17.2 C 0 km/h
1514 23-03-2010 14:54:02 16.6 C 5.09 g/m*3 16.6 C 0 km/h
1515 23-03-2010 15:06:02 17.1 C 5.24 g/m*3 17.1 C 0 km/h
1516 23-03-2010 15:18:01 17.3 C 5.01 g/m*3 17.3 C 0 km/h
1517 23-03-2010 15:30:01 17.2 C 5.13 g/m*3 17.2 C 0 km/h
1518 23-03-2010 15:42:02 17.1 C 4.8 g/m*3 17.1 C 0 km/h
1519 23-03-2010 15:54:02 17.4 C 5.19 g/m*3 17.4 C 0 km/h
1520 23-03-2010 16:06:02 17.3 C 5.16 g/m*3 17.3 C 0 km/h
1521 23-03-2010 16:18:01 16.7 C 5.12 g/m*3 16.7 C 0 km/h
1522 23-03-2010 16:30:01 16.3 C 5.13 g/m*3 16.3 C 0 km/h
1523 23-03-2010 16:42:02 16.3 C 5.13 g/m*3 16.3 C 0 km/h
1524 23-03-2010 16:54:02 16.1 C 5.35 g/m*3 16.1 C 0 km/h
1525 23-03-2010 17:06:02 16.2 C 5.38 g/m*3 16.2 C 0 km/h
Sensor: Nr:Datum:Temp:Abs-Feuchte:Windchill:Wind:
Aussen-T/F 1526 23-03-2010 17:18:01 16.5 C 5.34 g/m*3 16.5 C 0 km/h
1527 23-03-2010 17:30:01 15.8 C 5.38 g/m*3 15.8 C 0 km/h
1528 23-03-2010 17:42:02 15.2 C 5.32 g/m*3 15.2 C 0 km/h
1529 23-03-2010 17:54:02 14.8 C 5.45 g/m*3 14.8 C 0 km/h
1530 23-03-2010 18:06:02 14.6 C 5.63 g/m*3 14.6 C 0 km/h
1531 23-03-2010 18:18:02 14.2 C 5.62 g/m*3 14.2 C 0 km/h
1532 23-03-2010 18:30:02 13.9 C 5.87 g/m*3 13.9 C 0 km/h
1533 23-03-2010 18:42:02 13.5 C 6.08 g/m*3 13.5 C 0 km/h
1534 23-03-2010 18:54:01 12.8 C 6.27 g/m*3 12.8 C 0 km/h
1535 23-03-2010 19:06:02 12.1 C 6.22 g/m*3 12.1 C 0 km/h
1536 23-03-2010 19:18:02 11.7 C 6.28 g/m*3 11.7 C 0 km/h
1537 23-03-2010 19:30:02 11.4 C 6.26 g/m*3 11.4 C 0 km/h
1538 23-03-2010 19:42:02 11.2 C 6.18 g/m*3 11.2 C 0 km/h
1539 23-03-2010 19:54:02 10.8 C 6.23 g/m*3 10.8 C 0 km/h
1540 23-03-2010 20:06:01 10.6 C 6.15 g/m*3 10.6 C 0 km/h
1541 23-03-2010 20:18:02 10.4 C 6.17 g/m*3 10.4 C 0 km/h
1542 23-03-2010 20:30:02 10.4 C 6.07 g/m*3 10.4 C 0 km/h
1543 23-03-2010 20:42:01 10.3 C 6.03 g/m*3 10.3 C 0 km/h
1544 23-03-2010 20:54:02 10.2 C 6.09 g/m*3 10.2 C 0 km/h
1545 23-03-2010 21:06:01 10 C 6.11 g/m*3 10 C 0 km/h
1546 23-03-2010 21:18:01 9.8 C 6.12 g/m*3 9.8 C 0 km/h
1547 23-03-2010 21:30:01 9.6 C 6.23 g/m*3 9.6 C 0 km/h
1548 23-03-2010 21:42:01 9.5 C 6.28 g/m*3 9.5 C 0 km/h
1549 23-03-2010 21:54:02 9.4 C 6.24 g/m*3 9.4 C 0 km/h
1550 23-03-2010 22:06:02 9.2 C 6.25 g/m*3 9.2 C 0 km/h
Sensor: Nr:Datum:Temp:Abs-Feuchte:Windchill:Wind:
Aussen-T/F 1551 23-03-2010 22:18:02 9 C 6.26 g/m*3 9 C 0 km/h
1552 23-03-2010 22:30:02 8.7 C 6.23 g/m*3 8.7 C 0 km/h
1553 23-03-2010 22:42:02 8.6 C 6.27 g/m*3 8.6 C 0 km/h
1554 23-03-2010 22:54:02 8.5 C 6.32 g/m*3 8.5 C 0 km/h
1555 23-03-2010 23:06:02 8.4 C 6.28 g/m*3 8.4 C 0 km/h
1556 23-03-2010 23:18:02 8.3 C 6.24 g/m*3 8.3 C 0 km/h
1557 23-03-2010 23:30:02 8.2 C 6.2 g/m*3 8.2 C 0 km/h
1558 23-03-2010 23:42:02 8.1 C 6.24 g/m*3 8.1 C 0 km/h
1559 23-03-2010 23:54:01 8 C 6.2 g/m*3 8 C 0 km/h
1560 24-03-2010 00:06:01 7.9 C 6.24 g/m*3 7.9 C 0 km/h
1561 24-03-2010 00:18:01 7.8 C 6.28 g/m*3 7.8 C 0 km/h
1562 24-03-2010 00:30:01 7.7 C 6.24 g/m*3 7.7 C 0 km/h
1563 24-03-2010 00:42:02 7.6 C 6.2 g/m*3 7.6 C 0 km/h
1564 24-03-2010 00:54:01 7.5 C 6.16 g/m*3 7.5 C 0 km/h
1565 24-03-2010 01:06:02 7.5 C 6.24 g/m*3 7.5 C 0 km/h
1566 24-03-2010 01:18:01 7.5 C 6.24 g/m*3 7.5 C 0 km/h
1567 24-03-2010 01:30:01 7.3 C 6.16 g/m*3 7.3 C 0 km/h
1568 24-03-2010 01:42:02 7.1 C 6.08 g/m*3 7.1 C 0 km/h
1569 24-03-2010 01:54:02 6.9 C 6.08 g/m*3 6.9 C 0 km/h
1570 24-03-2010 02:06:02 6.8 C 6.12 g/m*3 6.8 C 0 km/h
1571 24-03-2010 02:18:01 6.7 C 6.15 g/m*3 6.7 C 0 km/h
1572 24-03-2010 02:30:01 6.6 C 6.11 g/m*3 6.6 C 0 km/h
1573 24-03-2010 02:42:02 6.4 C 6.04 g/m*3 6.4 C 0 km/h
1574 24-03-2010 02:55:04 6.2 C 5.96 g/m*3 6.2 C 0 km/h
1575 24-03-2010 03:07:04 6.2 C 6.03 g/m*3 6.2 C 0 km/h
Sensor: Nr:Datum:Temp:Abs-Feuchte:Windchill:Wind:
Aussen-T/F 1576 24-03-2010 03:19:04 6.1 C 5.99 g/m*3 6.1 C 0 km/h
1577 24-03-2010 03:31:02 5.8 C 5.95 g/m*3 5.8 C 0 km/h
1578 24-03-2010 03:43:02 5.6 C 5.87 g/m*3 5.6 C 0 km/h
1579 24-03-2010 03:55:02 5.7 C 5.98 g/m*3 5.7 C 0 km/h
1580 24-03-2010 04:07:03 5.6 C 5.94 g/m*3 5.6 C 0 km/h
1581 24-03-2010 04:19:02 5.3 C 5.82 g/m*3 5.3 C 0 km/h
1582 24-03-2010 04:31:02 5.3 C 5.82 g/m*3 5.3 C 0 km/h
1583 24-03-2010 04:43:02 5.2 C 5.85 g/m*3 5.2 C 0 km/h
1584 24-03-2010 04:55:01 5.1 C 5.81 g/m*3 5.1 C 0 km/h
1585 24-03-2010 05:07:02 4.9 C 5.81 g/m*3 4.9 C 0 km/h
1586 24-03-2010 05:19:01 5 C 5.84 g/m*3 5 C 0 km/h
1587 24-03-2010 05:31:01 5 C 5.84 g/m*3 5 C 0 km/h
1588 24-03-2010 05:43:01 4.7 C 5.8 g/m*3 4.7 C 0 km/h
1589 24-03-2010 05:55:01 4.5 C 5.72 g/m*3 4.5 C 0 km/h
1590 24-03-2010 06:07:02 4.4 C 5.68 g/m*3 4.4 C 0 km/h
1591 24-03-2010 06:19:01 4.4 C 5.68 g/m*3 4.4 C 0 km/h
1592 24-03-2010 06:31:01 4.4 C 5.75 g/m*3 4.4 C 0 km/h
1593 24-03-2010 06:43:01 4.3 C 5.71 g/m*3 4.3 C 0 km/h
1594 24-03-2010 06:55:01 4.3 C 5.71 g/m*3 4.3 C 0 km/h
1595 24-03-2010 07:07:01 4.4 C 5.81 g/m*3 4.4 C 0 km/h
1596 24-03-2010 07:19:02 4.4 C 5.81 g/m*3 4.4 C 0 km/h
1597 24-03-2010 07:31:01 4.6 C 5.89 g/m*3 4.6 C 0 km/h
1598 24-03-2010 07:43:01 4.9 C 6.01 g/m*3 4.9 C 0 km/h
1599 24-03-2010 07:55:03 5.2 C 6.06 g/m*3 5.2 C 0 km/h
1600 24-03-2010 08:07:02 5.3 C 6.1 g/m*3 5.3 C 0 km/h
Sensor: Nr:Datum:Temp:Abs-Feuchte:Windchill:Wind:
Aussen-T/F 1601 24-03-2010 08:19:02 5.4 C 6.07 g/m*3 5.4 C 0 km/h
1602 24-03-2010 08:31:02 5.7 C 6.19 g/m*3 5.7 C 0 km/h
1603 24-03-2010 08:43:02 5.7 C 6.12 g/m*3 5.7 C 0 km/h
1604 24-03-2010 08:55:02 5.8 C 6.16 g/m*3 5.8 C 0 km/h
1605 24-03-2010 09:07:01 6.1 C 6.21 g/m*3 6.1 C 0 km/h
1606 24-03-2010 09:19:02 6.7 C 6.46 g/m*3 6.7 C 0 km/h
1607 24-03-2010 09:31:01 7.2 C 6.44 g/m*3 7.2 C 0 km/h
1608 24-03-2010 09:43:01 7.8 C 6.69 g/m*3 7.8 C 0 km/h
1609 24-03-2010 09:55:02 8.4 C 6.53 g/m*3 8.4 C 0 km/h
1610 24-03-2010 10:07:01 9.2 C 6.79 g/m*3 9.2 C 0 km/h
1611 24-03-2010 10:19:01 10.2 C 6.95 g/m*3 10.2 C 0 km/h
1612 24-03-2010 10:31:02 10.9 C 6.76 g/m*3 10.9 C 0 km/h
1613 24-03-2010 10:43:02 11.7 C 6.48 g/m*3 11.7 C 0 km/h
1614 24-03-2010 10:55:02 12.7 C 6.46 g/m*3 12.7 C 0 km/h
1615 24-03-2010 11:07:01 13.1 C 5.71 g/m*3 13.1 C 0 km/h
1616 24-03-2010 11:19:02 13.8 C 5.6 g/m*3 13.8 C 0 km/h
1617 24-03-2010 11:31:02 14.4 C 5.44 g/m*3 14.4 C 0 km/h
1618 24-03-2010 11:43:02 14.9 C 5.23 g/m*3 14.9 C 0 km/h
1619 24-03-2010 11:55:02 15.5 C 5.29 g/m*3 15.5 C 0 km/h
1620 24-03-2010 12:07:02 16.1 C 5.21 g/m*3 16.1 C 0 km/h
1621 24-03-2010 12:19:02 16.7 C 5.26 g/m*3 16.7 C 0 km/h
1622 24-03-2010 12:31:02 17.2 C 5.27 g/m*3 17.2 C 0 km/h
1623 24-03-2010 12:43:02 17.6 C 5.1 g/m*3 17.6 C 0 km/h
1624 24-03-2010 12:55:02 18.4 C 4.88 g/m*3 18.4 C 0 km/h
1625 24-03-2010 13:07:03 18.7 C 4.8 g/m*3 18.7 C 0 km/h
Sensor: Nr:Datum:Temp:Abs-Feuchte:Windchill:Wind:
Aussen-T/F 1626 24-03-2010 13:19:02 19 C 5.05 g/m*3 19 C 0 km/h
1627 24-03-2010 13:31:02 19.5 C 5.2 g/m*3 19.5 C 0 km/h
1628 24-03-2010 13:43:02 19.9 C 4.98 g/m*3 19.9 C 0 km/h
1629 24-03-2010 13:55:01 20.3 C 4.75 g/m*3 20.3 C 0 km/h
1630 24-03-2010 14:07:02 20.8 C 4.71 g/m*3 20.8 C 0 km/h
1631 24-03-2010 14:19:01 21.6 C 4.74 g/m*3 21.6 C 0 km/h
1632 24-03-2010 14:31:01 21.6 C 4.36 g/m*3 21.6 C 0 km/h
1633 24-03-2010 14:43:01 21.5 C 4.34 g/m*3 21.5 C 0 km/h
1634 24-03-2010 14:55:01 21.8 C 4.41 g/m*3 21.8 C 0 km/h
1635 24-03-2010 15:07:02 22 C 4.27 g/m*3 22 C 0 km/h
1636 24-03-2010 15:19:01 22 C 4.27 g/m*3 22 C 0 km/h
1637 24-03-2010 15:31:01 22.3 C 4.34 g/m*3 22.3 C 0 km/h
1638 24-03-2010 15:43:01 23 C 4.52 g/m*3 23 C 0 km/h
1639 24-03-2010 15:55:01 21.9 C 4.44 g/m*3 21.9 C 0 km/h
1640 24-03-2010 16:07:02 21.4 C 4.5 g/m*3 21.4 C 0 km/h
1641 24-03-2010 16:19:02 21 C 4.58 g/m*3 21 C 0 km/h
1642 24-03-2010 16:31:01 21.1 C 4.79 g/m*3 21.1 C 0 km/h
1643 24-03-2010 16:43:01 20.3 C 4.92 g/m*3 20.3 C 0 km/h
1644 24-03-2010 16:55:01 20.4 C 5.13 g/m*3 20.4 C 0 km/h
1645 24-03-2010 17:07:01 20.4 C 5.31 g/m*3 20.4 C 0 km/h
1646 24-03-2010 17:19:02 20 C 5.18 g/m*3 20 C 0 km/h
1647 24-03-2010 17:31:01 19.8 C 5.47 g/m*3 19.8 C 0 km/h
1648 24-03-2010 17:43:01 19.5 C 5.37 g/m*3 19.5 C 0 km/h
1649 24-03-2010 17:55:02 19.1 C 5.08 g/m*3 19.1 C 0 km/h
1650 24-03-2010 18:07:01 18.5 C 5.22 g/m*3 18.5 C 0 km/h
Sensor: Nr:Datum:Temp:Abs-Feuchte:Windchill:Wind:
Aussen-T/F 1651 24-03-2010 18:19:02 17.9 C 5.65 g/m*3 17.9 C 0 km/h
1652 24-03-2010 18:31:01 17.4 C 5.48 g/m*3 17.4 C 0 km/h
1653 24-03-2010 18:43:01 16.5 C 5.62 g/m*3 16.5 C 0 km/h
1654 24-03-2010 18:55:02 15.8 C 5.38 g/m*3 15.8 C 0 km/h
1655 24-03-2010 19:07:02 15.4 C 5.52 g/m*3 15.4 C 0 km/h
1656 24-03-2010 19:19:02 15 C 5.51 g/m*3 15 C 0 km/h
1657 24-03-2010 19:31:03 14.5 C 5.6 g/m*3 14.5 C 0 km/h
1658 24-03-2010 19:43:03 14.4 C 5.56 g/m*3 14.4 C 0 km/h
1659 24-03-2010 19:55:02 14.2 C 5.49 g/m*3 14.2 C 0 km/h
1660 24-03-2010 20:07:01 14 C 5.67 g/m*3 14 C 0 km/h
1661 24-03-2010 20:19:02 14 C 5.55 g/m*3 14 C 0 km/h
1662 24-03-2010 20:31:02 13.8 C 5.48 g/m*3 13.8 C 0 km/h
1663 24-03-2010 20:43:02 13.8 C 5.6 g/m*3 13.8 C 0 km/h
1664 24-03-2010 20:55:02 13.4 C 5.58 g/m*3 13.4 C 0 km/h
1665 24-03-2010 21:07:01 13.4 C 5.58 g/m*3 13.4 C 0 km/h
1666 24-03-2010 21:19:01 13.2 C 5.51 g/m*3 13.2 C 0 km/h
1667 24-03-2010 21:31:02 13.1 C 5.59 g/m*3 13.1 C 0 km/h
1668 24-03-2010 21:43:02 12.9 C 5.75 g/m*3 12.9 C 0 km/h
1669 24-03-2010 21:55:02 12.8 C 5.71 g/m*3 12.8 C 0 km/h
1670 24-03-2010 22:07:02 12.4 C 5.68 g/m*3 12.4 C 0 km/h
1671 24-03-2010 22:19:02 12.7 C 5.68 g/m*3 12.7 C 0 km/h
1672 24-03-2010 22:31:02 12.6 C 5.64 g/m*3 12.6 C 0 km/h
1673 24-03-2010 22:43:02 12.4 C 5.68 g/m*3 12.4 C 0 km/h
1674 24-03-2010 22:55:02 12 C 5.86 g/m*3 12 C 0 km/h
1675 24-03-2010 23:07:02 11.7 C 6.07 g/m*3 11.7 C 0 km/h
Sensor: Nr:Datum:Temp:Abs-Feuchte:Windchill:Wind:
Aussen-T/F 1676 24-03-2010 23:19:02 11.4 C 5.95 g/m*3 11.4 C 0 km/h
1677 24-03-2010 23:31:02 10.9 C 6.07 g/m*3 10.9 C 0 km/h
1678 24-03-2010 23:43:02 10.8 C 6.13 g/m*3 10.8 C 0 km/h
1679 24-03-2010 23:55:02 10.6 C 6.15 g/m*3 10.6 C 0 km/h
1680 25-03-2010 00:07:02 10.6 C 6.25 g/m*3 10.6 C 0 km/h
1681 25-03-2010 00:19:02 10.5 C 6.21 g/m*3 10.5 C 0 km/h
1682 25-03-2010 00:31:02 10.4 C 6.07 g/m*3 10.4 C 0 km/h
1683 25-03-2010 00:43:02 10.1 C 6.05 g/m*3 10.1 C 0 km/h
1684 25-03-2010 00:55:01 9.7 C 6.08 g/m*3 9.7 C 0 km/h
1685 25-03-2010 01:07:02 9.4 C 6.06 g/m*3 9.4 C 0 km/h
1686 25-03-2010 01:19:01 9.3 C 6.11 g/m*3 9.3 C 0 km/h
1687 25-03-2010 01:31:01 9.2 C 6.16 g/m*3 9.2 C 0 km/h
1688 25-03-2010 01:43:01 9 C 6.08 g/m*3 9 C 0 km/h
1689 25-03-2010 01:55:01 8.9 C 6.13 g/m*3 8.9 C 0 km/h
1690 25-03-2010 02:07:02 8.9 C 6.22 g/m*3 8.9 C 0 km/h
1691 25-03-2010 02:19:02 8.8 C 6.18 g/m*3 8.8 C 0 km/h
1692 25-03-2010 02:31:01 8.6 C 6.19 g/m*3 8.6 C 0 km/h
1693 25-03-2010 02:43:01 8.7 C 6.23 g/m*3 8.7 C 0 km/h
1694 25-03-2010 02:55:01 8.6 C 6.27 g/m*3 8.6 C 0 km/h
1695 25-03-2010 03:07:01 8.7 C 6.31 g/m*3 8.7 C 0 km/h
1696 25-03-2010 03:19:01 8.6 C 6.27 g/m*3 8.6 C 0 km/h
1697 25-03-2010 03:31:01 8.4 C 6.28 g/m*3 8.4 C 0 km/h
1698 25-03-2010 03:43:01 8.1 C 6.16 g/m*3 8.1 C 0 km/h
1699 25-03-2010 03:55:01 7.9 C 6.24 g/m*3 7.9 C 0 km/h
1700 25-03-2010 04:07:02 7.7 C 6.24 g/m*3 7.7 C 0 km/h
Sensor: Nr:Datum:Temp:Abs-Feuchte:Windchill:Wind:
Aussen-T/F 1701 25-03-2010 04:19:01 7.6 C 6.28 g/m*3 7.6 C 0 km/h
1702 25-03-2010 04:31:01 7.7 C 6.32 g/m*3 7.7 C 0 km/h
1703 25-03-2010 04:43:01 7.9 C 6.49 g/m*3 7.9 C 0 km/h
1704 25-03-2010 04:55:01 7.8 C 6.45 g/m*3 7.8 C 0 km/h
1705 25-03-2010 05:07:01 7.6 C 6.44 g/m*3 7.6 C 0 km/h
1706 25-03-2010 05:19:01 7.5 C 6.4 g/m*3 7.5 C 0 km/h
1707 25-03-2010 05:31:01 7.3 C 6.4 g/m*3 7.3 C 0 km/h
1708 25-03-2010 05:43:01 7.2 C 6.36 g/m*3 7.2 C 0 km/h
1709 25-03-2010 05:55:01 7.2 C 6.36 g/m*3 7.2 C 0 km/h
1710 25-03-2010 06:07:01 7.3 C 6.48 g/m*3 7.3 C 0 km/h
1711 25-03-2010 06:19:02 7.4 C 6.44 g/m*3 7.4 C 0 km/h
1712 25-03-2010 06:31:01 7.4 C 6.44 g/m*3 7.4 C 0 km/h
1713 25-03-2010 06:43:01 7.5 C 6.48 g/m*3 7.5 C 0 km/h
1714 25-03-2010 06:55:01 7.6 C 6.53 g/m*3 7.6 C 0 km/h
1715 25-03-2010 07:07:01 7.8 C 6.53 g/m*3 7.8 C 0 km/h
1716 25-03-2010 07:19:02 7.9 C 6.57 g/m*3 7.9 C 0 km/h
1717 25-03-2010 07:31:01 7.6 C 6.61 g/m*3 7.6 C 0 km/h
1718 25-03-2010 07:43:01 7.9 C 6.9 g/m*3 7.9 C 0 km/h
1719 25-03-2010 07:55:02 8.2 C 6.95 g/m*3 8.2 C 0 km/h
1720 25-03-2010 08:07:01 8.2 C 6.87 g/m*3 8.2 C 0 km/h
1721 25-03-2010 08:19:02 8.1 C 6.82 g/m*3 8.1 C 0 km/h
1722 25-03-2010 08:31:01 8.2 C 6.95 g/m*3 8.2 C 0 km/h
1723 25-03-2010 08:43:01 8.4 C 7.04 g/m*3 8.4 C 0 km/h
1724 25-03-2010 08:55:02 8.8 C 7.22 g/m*3 8.8 C 0 km/h
1725 25-03-2010 09:07:01 9.5 C 7.46 g/m*3 9.5 C 0 km/h
Sensor: Nr:Datum:Temp:Abs-Feuchte:Windchill:Wind:
Aussen-T/F 1726 25-03-2010 09:19:01 10.4 C 7.61 g/m*3 10.4 C 0 km/h
1727 25-03-2010 09:31:02 11 C 7.31 g/m*3 11 C 0 km/h
1728 25-03-2010 09:43:02 11.5 C 7.33 g/m*3 11.5 C 0 km/h
1729 25-03-2010 09:55:02 11.9 C 7.31 g/m*3 11.9 C 0 km/h
1730 25-03-2010 10:07:01 12.4 C 7.21 g/m*3 12.4 C 0 km/h
1731 25-03-2010 10:19:01 12.6 C 7.08 g/m*3 12.6 C 0 km/h
1732 25-03-2010 10:31:02 13.1 C 7.3 g/m*3 13.1 C 0 km/h
1733 25-03-2010 10:43:02 14.1 C 7.4 g/m*3 14.1 C 0 km/h
1734 25-03-2010 10:55:01 14.7 C 7.05 g/m*3 14.7 C 0 km/h
1735 25-03-2010 11:07:02 15.7 C 6.69 g/m*3 15.7 C 0 km/h
1736 25-03-2010 11:19:01 16.8 C 6.43 g/m*3 16.8 C 0 km/h
1737 25-03-2010 11:31:02 17.9 C 5.95 g/m*3 17.9 C 0 km/h
1738 25-03-2010 11:43:02 18.5 C 5.85 g/m*3 18.5 C 0 km/h
1739 25-03-2010 11:55:01 18.8 C 5.64 g/m*3 18.8 C 0 km/h
1740 25-03-2010 12:07:02 19.5 C 5.2 g/m*3 19.5 C 0 km/h
1741 25-03-2010 12:19:01 19.3 C 4.64 g/m*3 19.3 C 0 km/h
1742 25-03-2010 12:31:01 20.2 C 4.55 g/m*3 20.2 C 0 km/h
1743 25-03-2010 12:43:01 21 C 4.4 g/m*3 21 C 0 km/h
1744 25-03-2010 12:55:01 21.6 C 4.55 g/m*3 21.6 C 0 km/h
1745 25-03-2010 13:07:02 22 C 4.27 g/m*3 22 C 0 km/h
1746 25-03-2010 13:19:01 22.2 C 3.93 g/m*3 22.2 C 0 km/h
1747 25-03-2010 13:31:01 22.8 C 4.06 g/m*3 22.8 C 0 km/h
1748 25-03-2010 13:43:01 22.7 C 4.04 g/m*3 22.7 C 0 km/h
1749 25-03-2010 13:55:01 23.2 C 4.16 g/m*3 23.2 C 0 km/h
1750 25-03-2010 14:07:01 22.8 C 4.06 g/m*3 22.8 C 0 km/h
Sensor: Nr:Datum:Temp:Abs-Feuchte:Windchill:Wind:
Aussen-T/F 1751 25-03-2010 14:19:02 22.9 C 4.09 g/m*3 22.9 C 0 km/h
1752 25-03-2010 14:31:01 23.3 C 4.18 g/m*3 23.3 C 0 km/h
1753 25-03-2010 14:43:01 23.8 C 4.3 g/m*3 23.8 C 0 km/h
1754 25-03-2010 14:55:01 23.7 C 4.28 g/m*3 23.7 C 0 km/h
1755 25-03-2010 15:07:01 23.2 C 4.16 g/m*3 23.2 C 0 km/h
1756 25-03-2010 15:19:02 22.8 C 4.06 g/m*3 22.8 C 0 km/h
1757 25-03-2010 15:31:01 23.4 C 4.21 g/m*3 23.4 C 0 km/h
1758 25-03-2010 15:43:01 23.6 C 4.25 g/m*3 23.6 C 0 km/h
1759 25-03-2010 15:55:02 23.7 C 4.28 g/m*3 23.7 C 0 km/h
1760 25-03-2010 16:07:01 23.6 C 4.25 g/m*3 23.6 C 0 km/h
1761 25-03-2010 16:19:02 24.1 C 4.38 g/m*3 24.1 C 0 km/h
1762 25-03-2010 16:31:01 23.6 C 4.25 g/m*3 23.6 C 0 km/h
1763 25-03-2010 16:43:01 22.8 C 4.06 g/m*3 22.8 C 0 km/h
1764 25-03-2010 16:55:02 21.9 C 4.44 g/m*3 21.9 C 0 km/h
1765 25-03-2010 17:07:01 21.5 C 4.71 g/m*3 21.5 C 0 km/h
1766 25-03-2010 17:19:01 20.9 C 4.55 g/m*3 20.9 C 0 km/h
1767 25-03-2010 17:31:01 20.7 C 4.68 g/m*3 20.7 C 0 km/h
1768 25-03-2010 17:43:01 20 C 5.01 g/m*3 20 C 0 km/h
1769 25-03-2010 17:55:01 19.5 C 5.37 g/m*3 19.5 C 0 km/h
1770 25-03-2010 18:07:02 19.6 C 5.23 g/m*3 19.6 C 0 km/h
1771 25-03-2010 18:19:02 19.5 C 5.87 g/m*3 19.5 C 0 km/h
1772 25-03-2010 18:31:01 19.3 C 5.31 g/m*3 19.3 C 0 km/h
1773 25-03-2010 18:43:01 18.7 C 5.6 g/m*3 18.7 C 0 km/h
1774 25-03-2010 18:55:02 18.5 C 5.85 g/m*3 18.5 C 0 km/h
1775 25-03-2010 19:07:01 18.3 C 5.79 g/m*3 18.3 C 0 km/h
Sensor: Nr:Datum:Temp:Abs-Feuchte:Windchill:Wind:
Aussen-T/F 1776 25-03-2010 19:19:02 17.8 C 5.62 g/m*3 17.8 C 0 km/h
1777 25-03-2010 19:31:01 17.2 C 5.86 g/m*3 17.2 C 0 km/h
1778 25-03-2010 19:43:01 16.8 C 5.86 g/m*3 16.8 C 0 km/h
1779 25-03-2010 19:55:02 16.4 C 5.72 g/m*3 16.4 C 0 km/h
1780 25-03-2010 20:07:01 16.1 C 5.76 g/m*3 16.1 C 0 km/h
1781 25-03-2010 20:19:01 15.8 C 5.79 g/m*3 15.8 C 0 km/h
1782 25-03-2010 20:31:02 15.4 C 5.91 g/m*3 15.4 C 0 km/h
1783 25-03-2010 20:43:02 15.2 C 5.97 g/m*3 15.2 C 0 km/h
1784 25-03-2010 20:55:02 15 C 5.9 g/m*3 15 C 0 km/h
1785 25-03-2010 21:07:01 14.9 C 5.99 g/m*3 14.9 C 0 km/h
1786 25-03-2010 21:19:01 14.7 C 6.04 g/m*3 14.7 C 0 km/h
1787 25-03-2010 21:31:02 14.5 C 6.09 g/m*3 14.5 C 0 km/h
1788 25-03-2010 21:43:02 14.1 C 6.07 g/m*3 14.1 C 0 km/h
1789 25-03-2010 21:55:01 13.8 C 6.2 g/m*3 13.8 C 0 km/h
1790 25-03-2010 22:07:02 13.6 C 6.24 g/m*3 13.6 C 0 km/h
1791 25-03-2010 22:19:01 13.4 C 6.28 g/m*3 13.4 C 0 km/h
1792 25-03-2010 22:31:01 13.1 C 6.39 g/m*3 13.1 C 0 km/h
1793 25-03-2010 22:43:01 13 C 6.35 g/m*3 13 C 0 km/h
1794 25-03-2010 22:55:01 13 C 6.24 g/m*3 13 C 0 km/h
1795 25-03-2010 23:07:02 13 C 6.46 g/m*3 13 C 0 km/h
1796 25-03-2010 23:19:01 12.6 C 6.31 g/m*3 12.6 C 0 km/h
1797 25-03-2010 23:31:02 12.7 C 6.57 g/m*3 12.7 C 0 km/h
1798 25-03-2010 23:43:02 12.6 C 6.53 g/m*3 12.6 C 0 km/h
1799 25-03-2010 23:55:01 12.5 C 6.6 g/m*3 12.5 C 0 km/h
1800 26-03-2010 00:07:02 12.5 C 6.71 g/m*3 12.5 C 0 km/h
Sensor: Nr:Datum:Temp:Abs-Feuchte:Windchill:Wind:
Aussen-T/F 1801 26-03-2010 00:19:02 12.4 C 6.66 g/m*3 12.4 C 0 km/h
1802 26-03-2010 00:31:01 12.4 C 6.66 g/m*3 12.4 C 0 km/h
1803 26-03-2010 00:43:01 12.2 C 6.58 g/m*3 12.2 C 0 km/h
1804 26-03-2010 00:55:02 12.1 C 6.65 g/m*3 12.1 C 0 km/h
1805 26-03-2010 01:07:01 12.3 C 6.62 g/m*3 12.3 C 0 km/h
1806 26-03-2010 01:19:02 12.2 C 6.58 g/m*3 12.2 C 0 km/h
1807 26-03-2010 01:31:01 12.5 C 6.6 g/m*3 12.5 C 0 km/h
1808 26-03-2010 01:43:01 13 C 6.58 g/m*3 13 C 0 km/h
1809 26-03-2010 01:55:02 13.8 C 6.55 g/m*3 13.8 C 0 km/h
1810 26-03-2010 02:07:01 13.4 C 6.28 g/m*3 13.4 C 0 km/h
1811 26-03-2010 02:19:01 12.7 C 6.46 g/m*3 12.7 C 0 km/h
1812 26-03-2010 02:31:02 12.4 C 6.66 g/m*3 12.4 C 0 km/h
1813 26-03-2010 02:43:02 12.1 C 6.76 g/m*3 12.1 C 0 km/h
1814 26-03-2010 02:56:05 12 C 6.82 g/m*3 12 C 0 km/h
1815 26-03-2010 03:08:06 11.6 C 6.76 g/m*3 11.6 C 0 km/h
1816 26-03-2010 03:20:05 11.6 C 6.86 g/m*3 11.6 C 0 km/h
1817 26-03-2010 03:32:03 11.8 C 6.95 g/m*3 11.8 C 0 km/h
1818 26-03-2010 03:44:03 12 C 6.82 g/m*3 12 C 0 km/h
1819 26-03-2010 03:56:03 12.1 C 6.86 g/m*3 12.1 C 0 km/h
1820 26-03-2010 04:08:02 11.7 C 6.9 g/m*3 11.7 C 0 km/h
1821 26-03-2010 04:20:02 11.2 C 6.79 g/m*3 11.2 C 0 km/h
1822 26-03-2010 04:32:02 11.2 C 6.99 g/m*3 11.2 C 0 km/h
1823 26-03-2010 04:44:02 11.1 C 6.95 g/m*3 11.1 C 0 km/h
1824 26-03-2010 04:56:02 11.2 C 6.89 g/m*3 11.2 C 0 km/h
1825 26-03-2010 05:08:02 11 C 6.81 g/m*3 11 C 0 km/h
Sensor: Nr:Datum:Temp:Abs-Feuchte:Windchill:Wind:
Aussen-T/F 1826 26-03-2010 05:20:02 10.9 C 6.86 g/m*3 10.9 C 0 km/h
1827 26-03-2010 05:32:01 10.7 C 6.88 g/m*3 10.7 C 0 km/h
1828 26-03-2010 05:44:01 10.9 C 6.96 g/m*3 10.9 C 0 km/h
1829 26-03-2010 05:56:02 11 C 7.01 g/m*3 11 C 0 km/h
1830 26-03-2010 06:08:01 10.8 C 6.92 g/m*3 10.8 C 0 km/h
1831 26-03-2010 06:20:02 10.5 C 6.98 g/m*3 10.5 C 0 km/h
1832 26-03-2010 06:32:02 10.2 C 6.85 g/m*3 10.2 C 0 km/h
1833 26-03-2010 06:44:02 10.2 C 6.95 g/m*3 10.2 C 0 km/h
1834 26-03-2010 06:56:02 10.2 C 6.95 g/m*3 10.2 C 0 km/h
1835 26-03-2010 07:08:02 10.3 C 6.99 g/m*3 10.3 C 0 km/h
1836 26-03-2010 07:20:02 10.6 C 7.22 g/m*3 10.6 C 0 km/h
1837 26-03-2010 07:32:02 10.7 C 7.17 g/m*3 10.7 C 0 km/h
1838 26-03-2010 07:44:02 10.8 C 7.22 g/m*3 10.8 C 0 km/h
1839 26-03-2010 07:56:02 11 C 7.11 g/m*3 11 C 0 km/h
1840 26-03-2010 08:08:02 11.5 C 7.23 g/m*3 11.5 C 0 km/h
1841 26-03-2010 08:20:01 11.5 C 7.13 g/m*3 11.5 C 0 km/h
1842 26-03-2010 08:32:02 11.7 C 7.22 g/m*3 11.7 C 0 km/h
1843 26-03-2010 08:44:02 12.3 C 7.28 g/m*3 12.3 C 0 km/h
1844 26-03-2010 08:56:02 12.2 C 7.12 g/m*3 12.2 C 0 km/h
1845 26-03-2010 09:08:02 12.4 C 7.21 g/m*3 12.4 C 0 km/h
1846 26-03-2010 09:20:02 12.8 C 7.28 g/m*3 12.8 C 0 km/h
1847 26-03-2010 09:32:02 13.2 C 7.23 g/m*3 13.2 C 0 km/h
1848 26-03-2010 09:44:02 13.7 C 7.22 g/m*3 13.7 C 0 km/h
1849 26-03-2010 09:56:02 13.8 C 7.03 g/m*3 13.8 C 0 km/h
1850 26-03-2010 10:08:02 13.8 C 7.15 g/m*3 13.8 C 0 km/h
Sensor: Nr:Datum:Temp:Abs-Feuchte:Windchill:Wind:
Aussen-T/F 1851 26-03-2010 10:20:02 13.8 C 7.03 g/m*3 13.8 C 0 km/h
1852 26-03-2010 10:32:02 13.8 C 7.15 g/m*3 13.8 C 0 km/h
1853 26-03-2010 10:44:02 13.6 C 6.83 g/m*3 13.6 C 0 km/h
1854 26-03-2010 10:56:02 13.3 C 6.82 g/m*3 13.3 C 0 km/h
1855 26-03-2010 11:08:02 12.5 C 6.6 g/m*3 12.5 C 0 km/h
1856 26-03-2010 11:20:02 12.2 C 6.58 g/m*3 12.2 C 0 km/h
1857 26-03-2010 11:32:02 11 C 7.01 g/m*3 11 C 0 km/h
1858 26-03-2010 11:44:02 9.9 C 7.28 g/m*3 9.9 C 0 km/h
1859 26-03-2010 11:56:01 9 C 6.96 g/m*3 9 C 0 km/h
1860 26-03-2010 12:08:01 8.5 C 7.17 g/m*3 8.5 C 0 km/h
1861 26-03-2010 12:20:01 8.2 C 7.2 g/m*3 8.2 C 0 km/h
1862 26-03-2010 12:32:01 7.9 C 7.23 g/m*3 7.9 C 0 km/h
1863 26-03-2010 12:44:01 7.5 C 6.96 g/m*3 7.5 C 0 km/h
1864 26-03-2010 12:56:01 7.4 C 7 g/m*3 7.4 C 0 km/h
1865 26-03-2010 13:08:01 7.5 C 7.12 g/m*3 7.5 C 0 km/h
1866 26-03-2010 13:20:02 7.4 C 7.08 g/m*3 7.4 C 0 km/h
1867 26-03-2010 13:32:01 7.5 C 7.2 g/m*3 7.5 C 0 km/h
1868 26-03-2010 13:44:01 7.8 C 7.43 g/m*3 7.8 C 0 km/h
1869 26-03-2010 13:56:02 7.7 C 7.38 g/m*3 7.7 C 0 km/h
1870 26-03-2010 14:08:02 7.5 C 7.28 g/m*3 7.5 C 0 km/h
1871 26-03-2010 14:20:02 7.4 C 7.16 g/m*3 7.4 C 0 km/h
1872 26-03-2010 14:32:02 7.5 C 7.2 g/m*3 7.5 C 0 km/h
1873 26-03-2010 14:44:02 8.1 C 7.49 g/m*3 8.1 C 0 km/h
1874 26-03-2010 14:56:02 8.2 C 7.54 g/m*3 8.2 C 0 km/h
1875 26-03-2010 15:08:01 8.1 C 7.41 g/m*3 8.1 C 0 km/h
Sensor: Nr:Datum:Temp:Abs-Feuchte:Windchill:Wind:
Aussen-T/F 1876 26-03-2010 15:20:01 8.2 C 7.45 g/m*3 8.2 C 0 km/h
1877 26-03-2010 15:32:01 8.1 C 7.32 g/m*3 8.1 C 0 km/h
1878 26-03-2010 15:44:01 8.3 C 7.42 g/m*3 8.3 C 0 km/h
1879 26-03-2010 15:56:02 8.6 C 7.65 g/m*3 8.6 C 0 km/h
1880 26-03-2010 16:08:02 8.7 C 7.7 g/m*3 8.7 C 0 km/h
1881 26-03-2010 16:20:01 8.5 C 7.51 g/m*3 8.5 C 0 km/h
1882 26-03-2010 16:32:01 8.6 C 7.56 g/m*3 8.6 C 0 km/h
1883 26-03-2010 16:44:01 8.5 C 7.51 g/m*3 8.5 C 0 km/h
1884 26-03-2010 16:56:01 8.4 C 7.38 g/m*3 8.4 C 0 km/h
1885 26-03-2010 17:08:02 8.6 C 7.3 g/m*3 8.6 C 0 km/h
1886 26-03-2010 17:20:02 8.6 C 7.22 g/m*3 8.6 C 0 km/h
1887 26-03-2010 17:32:02 8.6 C 7.22 g/m*3 8.6 C 0 km/h
1888 26-03-2010 17:44:02 8.6 C 7.22 g/m*3 8.6 C 0 km/h
1889 26-03-2010 17:56:01 8.6 C 7.22 g/m*3 8.6 C 0 km/h
1890 26-03-2010 18:08:02 8.5 C 7.17 g/m*3 8.5 C 0 km/h
1891 26-03-2010 18:20:02 8.8 C 7.22 g/m*3 8.8 C 0 km/h
1892 26-03-2010 18:32:01 8.7 C 7.01 g/m*3 8.7 C 0 km/h
1893 26-03-2010 18:44:01 8.6 C 6.87 g/m*3 8.6 C 0 km/h
1894 26-03-2010 18:56:02 8.6 C 6.96 g/m*3 8.6 C 0 km/h
1895 26-03-2010 19:08:01 8.4 C 6.96 g/m*3 8.4 C 0 km/h
1896 26-03-2010 19:20:02 8.4 C 7.04 g/m*3 8.4 C 0 km/h
1897 26-03-2010 19:32:01 8.5 C 7.09 g/m*3 8.5 C 0 km/h
1898 26-03-2010 19:44:01 8.4 C 7.04 g/m*3 8.4 C 0 km/h
1899 26-03-2010 19:56:01 8.4 C 7.13 g/m*3 8.4 C 0 km/h
1900 26-03-2010 20:08:01 8.5 C 7.09 g/m*3 8.5 C 0 km/h
Sensor: Nr:Datum:Temp:Abs-Feuchte:Windchill:Wind:
Aussen-T/F 1901 26-03-2010 20:20:01 8.7 C 7.09 g/m*3 8.7 C 0 km/h
1902 26-03-2010 20:32:02 8.7 C 6.92 g/m*3 8.7 C 0 km/h
1903 26-03-2010 20:44:02 8.6 C 6.7 g/m*3 8.6 C 0 km/h
1904 26-03-2010 20:56:02 8.4 C 6.53 g/m*3 8.4 C 0 km/h
1905 26-03-2010 21:08:02 8.3 C 6.41 g/m*3 8.3 C 0 km/h
1906 26-03-2010 21:20:01 8.5 C 6.15 g/m*3 8.5 C 0 km/h
1907 26-03-2010 21:33:02 8.5 C 6.15 g/m*3 8.5 C 0 km/h
1908 26-03-2010 21:45:03 8.3 C 6.15 g/m*3 8.3 C 0 km/h
1909 26-03-2010 21:57:03 8.4 C 6.19 g/m*3 8.4 C 0 km/h
1910 26-03-2010 22:09:03 8.3 C 6.32 g/m*3 8.3 C 0 km/h
1911 26-03-2010 22:21:03 8.3 C 6.32 g/m*3 8.3 C 0 km/h
1912 26-03-2010 22:33:03 8.2 C 6.36 g/m*3 8.2 C 0 km/h
1913 26-03-2010 22:45:03 8.1 C 6.41 g/m*3 8.1 C 0 km/h
1914 26-03-2010 22:57:03 7.8 C 6.37 g/m*3 7.8 C 0 km/h
1915 26-03-2010 23:09:03 7.7 C 6.49 g/m*3 7.7 C 0 km/h
1916 26-03-2010 23:21:03 7.8 C 6.53 g/m*3 7.8 C 0 km/h
1917 26-03-2010 23:33:03 7.8 C 6.45 g/m*3 7.8 C 0 km/h
1918 26-03-2010 23:45:03 7.6 C 6.44 g/m*3 7.6 C 0 km/h
1919 26-03-2010 23:57:03 7.7 C 6.49 g/m*3 7.7 C 0 km/h
1920 27-03-2010 00:09:03 7.7 C 6.41 g/m*3 7.7 C 0 km/h
1921 27-03-2010 00:21:03 7.9 C 6.49 g/m*3 7.9 C 0 km/h
1922 27-03-2010 00:33:03 7.9 C 6.49 g/m*3 7.9 C 0 km/h
1923 27-03-2010 00:45:03 8 C 6.45 g/m*3 8 C 0 km/h
1924 27-03-2010 00:57:03 8.2 C 6.45 g/m*3 8.2 C 0 km/h
1925 27-03-2010 01:09:03 8.4 C 6.45 g/m*3 8.4 C 0 km/h
Sensor: Nr:Datum:Temp:Abs-Feuchte:Windchill:Wind:
Aussen-T/F 1926 27-03-2010 01:21:03 8.4 C 6.36 g/m*3 8.4 C 0 km/h
1927 27-03-2010 01:33:03 8.5 C 6.4 g/m*3 8.5 C 0 km/h
1928 27-03-2010 01:45:03 8.5 C 6.23 g/m*3 8.5 C 0 km/h
1929 27-03-2010 01:57:03 8.5 C 6.23 g/m*3 8.5 C 0 km/h
1930 27-03-2010 02:09:03 8.5 C 6.06 g/m*3 8.5 C 0 km/h
1931 27-03-2010 02:21:04 8.2 C 6.11 g/m*3 8.2 C 0 km/h
1932 27-03-2010 02:33:04 8.1 C 5.99 g/m*3 8.1 C 0 km/h
1933 27-03-2010 02:45:04 8 C 6.04 g/m*3 8 C 0 km/h
1934 27-03-2010 02:57:04 8.3 C 6.15 g/m*3 8.3 C 0 km/h
1935 27-03-2010 03:09:04 8.4 C 6.19 g/m*3 8.4 C 0 km/h
1936 27-03-2010 03:21:04 8.1 C 6.07 g/m*3 8.1 C 0 km/h
1937 27-03-2010 03:33:04 7.9 C 6.16 g/m*3 7.9 C 0 km/h
1938 27-03-2010 03:45:04 8 C 6.2 g/m*3 8 C 0 km/h
1939 27-03-2010 03:57:04 8.1 C 6.07 g/m*3 8.1 C 0 km/h
1940 27-03-2010 04:09:04 8.1 C 6.07 g/m*3 8.1 C 0 km/h
1941 27-03-2010 04:21:04 8.2 C 6.03 g/m*3 8.2 C 0 km/h
1942 27-03-2010 04:33:04 8.2 C 6.03 g/m*3 8.2 C 0 km/h
1943 27-03-2010 04:45:04 8.2 C 5.95 g/m*3 8.2 C 0 km/h
1944 27-03-2010 04:57:04 8.2 C 5.95 g/m*3 8.2 C 0 km/h
1945 27-03-2010 05:09:05 8.1 C 5.91 g/m*3 8.1 C 0 km/h
1946 27-03-2010 05:21:05 8.1 C 5.99 g/m*3 8.1 C 0 km/h
1947 27-03-2010 05:33:05 8.1 C 5.99 g/m*3 8.1 C 0 km/h
1948 27-03-2010 05:45:05 8 C 5.95 g/m*3 8 C 0 km/h
1949 27-03-2010 05:57:05 8 C 5.87 g/m*3 8 C 0 km/h
1950 27-03-2010 06:09:05 8 C 5.79 g/m*3 8 C 0 km/h
Sensor: Nr:Datum:Temp:Abs-Feuchte:Windchill:Wind:
Aussen-T/F 1951 27-03-2010 06:21:05 8 C 5.7 g/m*3 8 C 0 km/h
1952 27-03-2010 06:33:02 8.1 C 5.74 g/m*3 8.1 C 0 km/h
1953 27-03-2010 06:45:02 8.1 C 5.74 g/m*3 8.1 C 0 km/h
1954 27-03-2010 06:57:02 8.2 C 5.69 g/m*3 8.2 C 0 km/h
1955 27-03-2010 07:09:01 8.3 C 5.65 g/m*3 8.3 C 0 km/h
1956 27-03-2010 07:21:02 8.4 C 5.68 g/m*3 8.4 C 0 km/h
1957 27-03-2010 07:33:02 8.5 C 5.72 g/m*3 8.5 C 0 km/h
1958 27-03-2010 07:45:02 8.5 C 5.64 g/m*3 8.5 C 0 km/h
1959 27-03-2010 07:57:02 8.5 C 5.72 g/m*3 8.5 C 0 km/h
1960 27-03-2010 08:09:02 8.5 C 5.72 g/m*3 8.5 C 0 km/h
1961 27-03-2010 08:21:02 8.7 C 5.79 g/m*3 8.7 C 0 km/h
1962 27-03-2010 08:33:02 8.9 C 5.69 g/m*3 8.9 C 0 km/h
1963 27-03-2010 08:45:01 9.3 C 5.75 g/m*3 9.3 C 0 km/h
1964 27-03-2010 08:57:01 9.6 C 5.68 g/m*3 9.6 C 0 km/h
1965 27-03-2010 09:09:02 10 C 5.54 g/m*3 10 C 0 km/h
1966 27-03-2010 09:21:01 9.8 C 5.57 g/m*3 9.8 C 0 km/h
1967 27-03-2010 09:33:02 9.5 C 5.55 g/m*3 9.5 C 0 km/h
1968 27-03-2010 09:45:02 9.7 C 5.62 g/m*3 9.7 C 0 km/h
1969 27-03-2010 09:57:02 9.7 C 5.72 g/m*3 9.7 C 0 km/h
1970 27-03-2010 10:09:02 9.7 C 5.62 g/m*3 9.7 C 0 km/h
1971 27-03-2010 10:21:02 9.8 C 5.66 g/m*3 9.8 C 0 km/h
1972 27-03-2010 10:33:02 10.1 C 5.2 g/m*3 10.1 C 0 km/h
1973 27-03-2010 10:45:01 10.6 C 5.17 g/m*3 10.6 C 0 km/h
1974 27-03-2010 10:57:01 11.1 C 5.14 g/m*3 11.1 C 0 km/h
1975 27-03-2010 11:09:02 11.5 C 4.96 g/m*3 11.5 C 0 km/h
Sensor: Nr:Datum:Temp:Abs-Feuchte:Windchill:Wind:
Aussen-T/F 1976 27-03-2010 11:21:01 11.3 C 4.79 g/m*3 11.3 C 0 km/h
1977 27-03-2010 11:33:02 11.3 C 5 g/m*3 11.3 C 0 km/h
1978 27-03-2010 11:45:02 11.7 C 4.92 g/m*3 11.7 C 0 km/h
1979 27-03-2010 11:57:02 11.8 C 4.95 g/m*3 11.8 C 0 km/h
1980 27-03-2010 12:09:02 11.9 C 4.87 g/m*3 11.9 C 0 km/h
1981 27-03-2010 12:21:01 11.8 C 4.74 g/m*3 11.8 C 0 km/h
1982 27-03-2010 12:33:02 11.9 C 4.98 g/m*3 11.9 C 0 km/h
1983 27-03-2010 12:45:03 11.6 C 5.3 g/m*3 11.6 C 0 km/h
1984 27-03-2010 12:57:03 10.8 C 5.73 g/m*3 10.8 C 0 km/h
1985 27-03-2010 13:09:02 10.7 C 5.89 g/m*3 10.7 C 0 km/h
1986 27-03-2010 13:21:02 11.4 C 5.85 g/m*3 11.4 C 0 km/h
1987 27-03-2010 13:33:02 11.3 C 5.61 g/m*3 11.3 C 0 km/h
1988 27-03-2010 13:45:02 11.4 C 5.34 g/m*3 11.4 C 0 km/h
1989 27-03-2010 13:57:02 12 C 5.12 g/m*3 12 C 0 km/h
1990 27-03-2010 14:09:02 11.8 C 5.16 g/m*3 11.8 C 0 km/h
1991 27-03-2010 14:21:02 11.2 C 4.97 g/m*3 11.2 C 0 km/h
1992 27-03-2010 14:33:01 11.1 C 5.04 g/m*3 11.1 C 0 km/h
1993 27-03-2010 14:45:02 10.9 C 5.07 g/m*3 10.9 C 0 km/h
1994 27-03-2010 14:57:03 11 C 5 g/m*3 11 C 0 km/h
1995 27-03-2010 15:09:01 11.2 C 4.97 g/m*3 11.2 C 0 km/h
1996 27-03-2010 15:21:01 11.2 C 4.87 g/m*3 11.2 C 0 km/h
1997 27-03-2010 15:33:02 11.8 C 4.95 g/m*3 11.8 C 0 km/h
1998 27-03-2010 15:45:02 12.5 C 4.84 g/m*3 12.5 C 0 km/h
1999 27-03-2010 15:57:02 12.1 C 4.72 g/m*3 12.1 C 0 km/h
2000 27-03-2010 16:09:02 11.2 C 4.87 g/m*3 11.2 C 0 km/h
Sensor: Nr:Datum:Temp:Abs-Feuchte:Windchill:Wind:
Aussen-T/F 2001 27-03-2010 16:21:02 10.8 C 5.04 g/m*3 10.8 C 0 km/h
2002 27-03-2010 16:33:02 10.8 C 5.04 g/m*3 10.8 C 0 km/h
2003 27-03-2010 16:45:02 10.7 C 5.11 g/m*3 10.7 C 0 km/h
2004 27-03-2010 16:57:02 10.7 C 5.11 g/m*3 10.7 C 0 km/h
2005 27-03-2010 17:09:03 11 C 5.1 g/m*3 11 C 0 km/h
2006 27-03-2010 17:21:02 11.6 C 5.09 g/m*3 11.6 C 0 km/h
2007 27-03-2010 17:33:02 11.2 C 5.17 g/m*3 11.2 C 0 km/h
2008 27-03-2010 17:45:01 11.3 C 5.2 g/m*3 11.3 C 0 km/h
2009 27-03-2010 17:57:01 11.8 C 5.05 g/m*3 11.8 C 0 km/h
2010 27-03-2010 18:09:02 11.4 C 5.13 g/m*3 11.4 C 0 km/h
2011 27-03-2010 18:21:01 11.4 C 5.13 g/m*3 11.4 C 0 km/h
2012 27-03-2010 18:33:01 11.3 C 5 g/m*3 11.3 C 0 km/h
2013 27-03-2010 18:45:01 10.5 C 5.14 g/m*3 10.5 C 0 km/h
2014 27-03-2010 18:57:01 10 C 5.17 g/m*3 10 C 0 km/h
2015 27-03-2010 19:09:01 9.5 C 5.19 g/m*3 9.5 C 0 km/h
2016 27-03-2010 19:21:02 9.2 C 5.27 g/m*3 9.2 C 0 km/h
2017 27-03-2010 19:33:01 8.9 C 5.34 g/m*3 8.9 C 0 km/h
2018 27-03-2010 19:45:02 8.7 C 5.45 g/m*3 8.7 C 0 km/h
2019 27-03-2010 19:57:02 8.5 C 5.55 g/m*3 8.5 C 0 km/h
2020 27-03-2010 20:09:02 8.3 C 5.56 g/m*3 8.3 C 0 km/h
2021 27-03-2010 20:21:02 8.2 C 5.61 g/m*3 8.2 C 0 km/h
2022 27-03-2010 20:33:01 7.9 C 5.67 g/m*3 7.9 C 0 km/h
2023 27-03-2010 20:45:02 7.7 C 5.76 g/m*3 7.7 C 0 km/h
2024 27-03-2010 20:57:02 7.5 C 5.76 g/m*3 7.5 C 0 km/h
2025 27-03-2010 21:09:01 7.4 C 5.81 g/m*3 7.4 C 0 km/h
Sensor: Nr:Datum:Temp:Abs-Feuchte:Windchill:Wind:
Aussen-T/F 2026 27-03-2010 21:21:01 7.4 C 5.96 g/m*3 7.4 C 0 km/h
2027 27-03-2010 21:33:02 7.2 C 5.97 g/m*3 7.2 C 0 km/h
2028 27-03-2010 21:45:02 7.2 C 6.04 g/m*3 7.2 C 0 km/h
2029 27-03-2010 21:57:02 7.1 C 6.08 g/m*3 7.1 C 0 km/h
2030 27-03-2010 22:09:02 7.2 C 6.12 g/m*3 7.2 C 0 km/h
2031 27-03-2010 22:21:02 7.1 C 6.16 g/m*3 7.1 C 0 km/h
2032 27-03-2010 22:33:02 7.2 C 6.2 g/m*3 7.2 C 0 km/h
2033 27-03-2010 22:45:02 7.4 C 6.28 g/m*3 7.4 C 0 km/h
2034 27-03-2010 22:57:02 7.4 C 6.2 g/m*3 7.4 C 0 km/h
2035 27-03-2010 23:09:03 7.7 C 6.16 g/m*3 7.7 C 0 km/h
2036 27-03-2010 23:21:02 7.8 C 6.04 g/m*3 7.8 C 0 km/h
2037 27-03-2010 23:33:03 8 C 5.87 g/m*3 8 C 0 km/h
2038 27-03-2010 23:45:02 7.7 C 6 g/m*3 7.7 C 0 km/h
2039 27-03-2010 23:57:02 7.7 C 6 g/m*3 7.7 C 0 km/h
2040 28-03-2010 00:09:02 7.7 C 6 g/m*3 7.7 C 0 km/h
2041 28-03-2010 00:21:02 7.4 C 5.96 g/m*3 7.4 C 0 km/h
2042 28-03-2010 00:33:02 7.5 C 6.08 g/m*3 7.5 C 0 km/h
2043 28-03-2010 00:45:02 7.7 C 6.08 g/m*3 7.7 C 0 km/h
2044 28-03-2010 00:57:02 7.7 C 6.08 g/m*3 7.7 C 0 km/h
2045 28-03-2010 01:09:02 7.9 C 6.08 g/m*3 7.9 C 0 km/h
2046 28-03-2010 01:21:02 8.2 C 5.95 g/m*3 8.2 C 0 km/h
2047 28-03-2010 01:33:01 8.4 C 5.85 g/m*3 8.4 C 0 km/h
2048 28-03-2010 01:45:02 8.4 C 5.85 g/m*3 8.4 C 0 km/h
2049 28-03-2010 01:57:02 8.1 C 5.82 g/m*3 8.1 C 0 km/h
2050 28-03-2010 02:09:01 7.9 C 5.91 g/m*3 7.9 C 0 km/h
Sensor: Nr:Datum:Temp:Abs-Feuchte:Windchill:Wind:
Aussen-T/F 2051 28-03-2010 02:21:02 8.1 C 5.99 g/m*3 8.1 C 0 km/h
2052 28-03-2010 02:33:01 8.4 C 6.02 g/m*3 8.4 C 0 km/h
2053 28-03-2010 02:45:01 8.3 C 5.9 g/m*3 8.3 C 0 km/h
2054 28-03-2010 02:57:01 8.2 C 5.95 g/m*3 8.2 C 0 km/h
2055 28-03-2010 04:09:02 8.2 C 6.03 g/m*3 8.2 C 0 km/h
2056 28-03-2010 04:21:01 8.1 C 5.99 g/m*3 8.1 C 0 km/h
2057 28-03-2010 04:33:01 8.2 C 6.11 g/m*3 8.2 C 0 km/h
2058 28-03-2010 04:45:01 8.2 C 6.11 g/m*3 8.2 C 0 km/h
2059 28-03-2010 04:57:01 8.2 C 6.11 g/m*3 8.2 C 0 km/h
2060 28-03-2010 05:09:01 8.2 C 6.03 g/m*3 8.2 C 0 km/h
2061 28-03-2010 05:21:02 8.2 C 6.11 g/m*3 8.2 C 0 km/h
2062 28-03-2010 05:33:01 8.1 C 6.24 g/m*3 8.1 C 0 km/h
2063 28-03-2010 05:45:01 8.1 C 6.32 g/m*3 8.1 C 0 km/h
2064 28-03-2010 05:57:01 8.1 C 6.32 g/m*3 8.1 C 0 km/h
2065 28-03-2010 06:09:01 8.2 C 6.28 g/m*3 8.2 C 0 km/h
2066 28-03-2010 06:21:02 8.4 C 6.36 g/m*3 8.4 C 0 km/h
2067 28-03-2010 06:33:01 8.4 C 6.28 g/m*3 8.4 C 0 km/h
2068 28-03-2010 06:45:02 8.4 C 6.36 g/m*3 8.4 C 0 km/h
2069 28-03-2010 06:57:02 8.3 C 6.32 g/m*3 8.3 C 0 km/h
2070 28-03-2010 07:09:01 8.2 C 6.28 g/m*3 8.2 C 0 km/h
2071 28-03-2010 07:21:01 8.2 C 6.28 g/m*3 8.2 C 0 km/h
2072 28-03-2010 07:33:01 8.2 C 6.11 g/m*3 8.2 C 0 km/h
2073 28-03-2010 07:45:01 8.2 C 6.11 g/m*3 8.2 C 0 km/h
2074 28-03-2010 07:57:02 8.3 C 6.15 g/m*3 8.3 C 0 km/h
2075 28-03-2010 08:09:01 8.6 C 6.27 g/m*3 8.6 C 0 km/h
Sensor: Nr:Datum:Temp:Abs-Feuchte:Windchill:Wind:
Aussen-T/F 2076 28-03-2010 08:21:01 8.7 C 6.23 g/m*3 8.7 C 0 km/h
2077 28-03-2010 08:33:02 8.9 C 6.22 g/m*3 8.9 C 0 km/h
2078 28-03-2010 08:45:01 9 C 6.08 g/m*3 9 C 0 km/h
2079 28-03-2010 08:57:01 9.1 C 6.03 g/m*3 9.1 C 0 km/h
2080 28-03-2010 09:09:02 9.1 C 5.94 g/m*3 9.1 C 0 km/h
2081 28-03-2010 09:21:01 9.2 C 5.98 g/m*3 9.2 C 0 km/h
2082 28-03-2010 09:33:02 9.8 C 5.94 g/m*3 9.8 C 0 km/h
2083 28-03-2010 09:45:01 10.2 C 5.9 g/m*3 10.2 C 0 km/h
2084 28-03-2010 09:57:01 10.4 C 5.88 g/m*3 10.4 C 0 km/h
2085 28-03-2010 10:09:02 10.2 C 5.71 g/m*3 10.2 C 0 km/h
2086 28-03-2010 10:21:01 10.1 C 5.77 g/m*3 10.1 C 0 km/h
2087 28-03-2010 10:33:01 10.5 C 5.82 g/m*3 10.5 C 0 km/h
2088 28-03-2010 10:45:01 10.7 C 5.8 g/m*3 10.7 C 0 km/h
2089 28-03-2010 10:57:01 10.7 C 5.8 g/m*3 10.7 C 0 km/h
2090 28-03-2010 11:09:01 11.2 C 5.47 g/m*3 11.2 C 0 km/h
2091 28-03-2010 11:21:01 10.9 C 5.37 g/m*3 10.9 C 0 km/h
2092 28-03-2010 11:33:01 10.9 C 5.57 g/m*3 10.9 C 0 km/h
2093 28-03-2010 11:45:01 11.7 C 5.54 g/m*3 11.7 C 0 km/h
2094 28-03-2010 11:57:01 11.3 C 5.41 g/m*3 11.3 C 0 km/h
2095 28-03-2010 12:09:01 11 C 5.31 g/m*3 11 C 0 km/h
2096 28-03-2010 12:21:02 10.8 C 5.63 g/m*3 10.8 C 0 km/h
2097 28-03-2010 12:33:01 11.8 C 5.79 g/m*3 11.8 C 0 km/h
2098 28-03-2010 12:45:02 12 C 5.44 g/m*3 12 C 0 km/h
2099 28-03-2010 12:57:02 11.6 C 5.4 g/m*3 11.6 C 0 km/h
2100 28-03-2010 13:09:01 11.6 C 5.51 g/m*3 11.6 C 0 km/h
Sensor: Nr:Datum:Temp:Abs-Feuchte:Windchill:Wind:
Aussen-T/F 2101 28-03-2010 13:21:02 12.3 C 5.21 g/m*3 12.3 C 0 km/h
2102 28-03-2010 13:33:01 11.9 C 5.3 g/m*3 11.9 C 0 km/h
2103 28-03-2010 13:45:02 11.7 C 5.23 g/m*3 11.7 C 0 km/h
2104 28-03-2010 13:57:02 11.5 C 5.37 g/m*3 11.5 C 0 km/h
2105 28-03-2010 14:09:01 11.7 C 5.44 g/m*3 11.7 C 0 km/h
2106 28-03-2010 14:21:01 12 C 5.22 g/m*3 12 C 0 km/h
2107 28-03-2010 14:33:02 11.9 C 5.3 g/m*3 11.9 C 0 km/h
2108 28-03-2010 14:45:01 10.2 C 6.19 g/m*3 10.2 C 0 km/h
2109 28-03-2010 14:57:01 9.3 C 6.47 g/m*3 9.3 C 0 km/h
2110 28-03-2010 15:09:01 10.1 C 6.81 g/m*3 10.1 C 0 km/h
2111 28-03-2010 15:21:01 11.3 C 6.43 g/m*3 11.3 C 0 km/h
2112 28-03-2010 15:33:02 11.7 C 6.48 g/m*3 11.7 C 0 km/h
2113 28-03-2010 15:45:01 13.1 C 6.5 g/m*3 13.1 C 0 km/h
2114 28-03-2010 15:57:01 13.7 C 6.16 g/m*3 13.7 C 0 km/h
2115 28-03-2010 16:09:02 13.7 C 5.68 g/m*3 13.7 C 0 km/h
2116 28-03-2010 16:21:01 13.4 C 4.88 g/m*3 13.4 C 0 km/h
2117 28-03-2010 16:33:01 13.1 C 4.91 g/m*3 13.1 C 0 km/h
2118 28-03-2010 16:45:01 12.6 C 5.09 g/m*3 12.6 C 0 km/h
2119 28-03-2010 16:57:01 11 C 6.51 g/m*3 11 C 0 km/h
2120 28-03-2010 17:09:02 11.1 C 7.15 g/m*3 11.1 C 0 km/h
2121 28-03-2010 17:21:01 11.4 C 6.88 g/m*3 11.4 C 0 km/h
2122 28-03-2010 17:33:01 11.6 C 6.86 g/m*3 11.6 C 0 km/h
2123 28-03-2010 17:45:01 11.7 C 7.01 g/m*3 11.7 C 0 km/h
2124 28-03-2010 17:57:01 11.7 C 6.07 g/m*3 11.7 C 0 km/h
2125 28-03-2010 18:09:01 11.6 C 6.03 g/m*3 11.6 C 0 km/h
Sensor: Nr:Datum:Temp:Abs-Feuchte:Windchill:Wind:
Aussen-T/F 2126 28-03-2010 18:21:02 11.5 C 5.78 g/m*3 11.5 C 0 km/h
2127 28-03-2010 18:33:01 11.4 C 5.85 g/m*3 11.4 C 0 km/h
2128 28-03-2010 18:45:01 11.3 C 5.92 g/m*3 11.3 C 0 km/h
2129 28-03-2010 18:57:01 11.3 C 6.12 g/m*3 11.3 C 0 km/h
2130 28-03-2010 19:09:01 11.2 C 6.08 g/m*3 11.2 C 0 km/h
2131 28-03-2010 19:21:02 11.1 C 6.25 g/m*3 11.1 C 0 km/h
2132 28-03-2010 19:33:01 10.9 C 6.37 g/m*3 10.9 C 0 km/h
2133 28-03-2010 19:45:02 10.3 C 6.61 g/m*3 10.3 C 0 km/h
2134 28-03-2010 19:57:02 10 C 6.77 g/m*3 10 C 0 km/h
2135 28-03-2010 20:09:01 9.9 C 6.91 g/m*3 9.9 C 0 km/h
2136 28-03-2010 20:21:01 9.8 C 6.96 g/m*3 9.8 C 0 km/h
2137 28-03-2010 20:33:01 9.8 C 6.96 g/m*3 9.8 C 0 km/h
2138 28-03-2010 20:45:01 9.9 C 6.91 g/m*3 9.9 C 0 km/h
2139 28-03-2010 20:57:02 9.9 C 6.91 g/m*3 9.9 C 0 km/h
2140 28-03-2010 21:09:01 9.9 C 6.91 g/m*3 9.9 C 0 km/h
2141 28-03-2010 21:21:01 9.9 C 6.82 g/m*3 9.9 C 0 km/h
2142 28-03-2010 21:33:02 9.9 C 6.82 g/m*3 9.9 C 0 km/h
2143 28-03-2010 21:45:01 9.8 C 6.87 g/m*3 9.8 C 0 km/h
2144 28-03-2010 21:57:01 9.8 C 6.87 g/m*3 9.8 C 0 km/h
2145 28-03-2010 22:10:04 9.7 C 6.91 g/m*3 9.7 C 0 km/h
2146 28-03-2010 22:22:04 9.6 C 6.78 g/m*3 9.6 C 0 km/h
2147 28-03-2010 22:34:04 9.5 C 6.74 g/m*3 9.5 C 0 km/h
2148 28-03-2010 22:46:04 9.4 C 6.87 g/m*3 9.4 C 0 km/h
2149 28-03-2010 22:58:04 9.4 C 6.87 g/m*3 9.4 C 0 km/h
2150 28-03-2010 23:10:04 9.5 C 6.92 g/m*3 9.5 C 0 km/h
Sensor: Nr:Datum:Temp:Abs-Feuchte:Windchill:Wind:
Aussen-T/F 2151 28-03-2010 23:22:04 9.3 C 6.83 g/m*3 9.3 C 0 km/h
2152 28-03-2010 23:34:04 9.4 C 6.96 g/m*3 9.4 C 0 km/h
2153 28-03-2010 23:46:04 9.7 C 6.91 g/m*3 9.7 C 0 km/h
2154 28-03-2010 23:58:04 9.8 C 6.87 g/m*3 9.8 C 0 km/h
2155 29-03-2010 00:10:04 10 C 6.86 g/m*3 10 C 0 km/h
2156 29-03-2010 00:22:04 10 C 6.77 g/m*3 10 C 0 km/h
2157 29-03-2010 00:34:04 9.8 C 6.87 g/m*3 9.8 C 0 km/h
2158 29-03-2010 00:46:04 9.8 C 6.87 g/m*3 9.8 C 0 km/h
2159 29-03-2010 00:58:04 9.8 C 6.87 g/m*3 9.8 C 0 km/h
2160 29-03-2010 01:10:04 9.8 C 7.05 g/m*3 9.8 C 0 km/h
2161 29-03-2010 01:22:04 9.7 C 7.1 g/m*3 9.7 C 0 km/h
2162 29-03-2010 01:34:04 9.6 C 7.15 g/m*3 9.6 C 0 km/h
2163 29-03-2010 01:46:05 9.6 C 7.15 g/m*3 9.6 C 0 km/h
2164 29-03-2010 01:58:05 9.6 C 7.24 g/m*3 9.6 C 0 km/h
2165 29-03-2010 02:10:05 9.5 C 7.28 g/m*3 9.5 C 0 km/h
2166 29-03-2010 02:22:05 9.3 C 7.28 g/m*3 9.3 C 0 km/h
2167 29-03-2010 02:34:05 9.3 C 7.46 g/m*3 9.3 C 0 km/h
2168 29-03-2010 02:46:05 9.3 C 7.55 g/m*3 9.3 C 0 km/h
2169 29-03-2010 02:58:05 9.3 C 7.64 g/m*3 9.3 C 0 km/h
2170 29-03-2010 03:10:05 9.3 C 7.73 g/m*3 9.3 C 0 km/h
2171 29-03-2010 03:22:05 9.4 C 7.87 g/m*3 9.4 C 0 km/h
2172 29-03-2010 03:34:05 10 C 7.99 g/m*3 10 C 0 km/h
2173 29-03-2010 03:46:05 10.4 C 8.1 g/m*3 10.4 C 0 km/h
2174 29-03-2010 03:58:05 10.6 C 8 g/m*3 10.6 C 0 km/h
2175 29-03-2010 04:10:05 11 C 8.01 g/m*3 11 C 0 km/h
Sensor: Nr:Datum:Temp:Abs-Feuchte:Windchill:Wind:
Aussen-T/F 2176 29-03-2010 04:22:05 11.1 C 7.96 g/m*3 11.1 C 0 km/h
2177 29-03-2010 04:34:05 11.3 C 7.96 g/m*3 11.3 C 0 km/h
2178 29-03-2010 04:46:05 11.5 C 7.95 g/m*3 11.5 C 0 km/h
2179 29-03-2010 04:58:05 11.5 C 7.95 g/m*3 11.5 C 0 km/h
2180 29-03-2010 05:10:05 11.5 C 7.95 g/m*3 11.5 C 0 km/h
2181 29-03-2010 05:22:05 11.5 C 7.95 g/m*3 11.5 C 0 km/h
2182 29-03-2010 05:34:05 11.5 C 8.06 g/m*3 11.5 C 0 km/h
2183 29-03-2010 05:46:05 11.4 C 8.01 g/m*3 11.4 C 0 km/h
2184 29-03-2010 05:58:05 11.5 C 8.06 g/m*3 11.5 C 0 km/h
2185 29-03-2010 06:10:05 11.5 C 8.06 g/m*3 11.5 C 0 km/h
2186 29-03-2010 06:22:06 11.5 C 8.06 g/m*3 11.5 C 0 km/h
2187 29-03-2010 06:34:06 11.5 C 7.95 g/m*3 11.5 C 0 km/h
2188 29-03-2010 06:46:01 11.4 C 7.9 g/m*3 11.4 C 0 km/h
2189 29-03-2010 06:58:01 11.4 C 8.11 g/m*3 11.4 C 0 km/h
2190 29-03-2010 07:10:02 11.2 C 8.11 g/m*3 11.2 C 0 km/h
2191 29-03-2010 07:22:02 10.9 C 8.26 g/m*3 10.9 C 0 km/h
2192 29-03-2010 07:34:02 10.7 C 8.35 g/m*3 10.7 C 0 km/h
2193 29-03-2010 07:46:02 10.6 C 8.49 g/m*3 10.6 C 0 km/h
2194 29-03-2010 07:58:02 10.6 C 8.59 g/m*3 10.6 C 0 km/h
2195 29-03-2010 08:10:02 10.7 C 8.55 g/m*3 10.7 C 0 km/h
2196 29-03-2010 08:22:01 10.8 C 8.5 g/m*3 10.8 C 0 km/h
2197 29-03-2010 08:34:02 11.2 C 8.41 g/m*3 11.2 C 0 km/h
2198 29-03-2010 08:46:02 11.4 C 8.11 g/m*3 11.4 C 0 km/h
2199 29-03-2010 08:58:02 11.6 C 8 g/m*3 11.6 C 0 km/h
2200 29-03-2010 09:10:02 11.8 C 7.89 g/m*3 11.8 C 0 km/h
Sensor: Nr:Datum:Temp:Abs-Feuchte:Windchill:Wind:
Aussen-T/F 2201 29-03-2010 09:22:01 11.9 C 7.84 g/m*3 11.9 C 0 km/h
2202 29-03-2010 09:34:02 12 C 7.78 g/m*3 12 C 0 km/h
2203 29-03-2010 09:46:01 12.1 C 7.72 g/m*3 12.1 C 0 km/h
2204 29-03-2010 09:58:01 12.2 C 7.77 g/m*3 12.2 C 0 km/h
2205 29-03-2010 10:10:02 12.4 C 7.87 g/m*3 12.4 C 0 km/h
2206 29-03-2010 10:22:02 12.6 C 7.85 g/m*3 12.6 C 0 km/h
2207 29-03-2010 10:34:02 12.7 C 7.9 g/m*3 12.7 C 0 km/h
2208 29-03-2010 10:46:02 12.5 C 7.7 g/m*3 12.5 C 0 km/h
2209 29-03-2010 10:58:02 13 C 7.83 g/m*3 13 C 0 km/h
2210 29-03-2010 11:10:02 13.1 C 7.87 g/m*3 13.1 C 0 km/h
2211 29-03-2010 11:22:02 13.3 C 7.86 g/m*3 13.3 C 0 km/h
2212 29-03-2010 11:34:01 13.5 C 7.84 g/m*3 13.5 C 0 km/h
2213 29-03-2010 11:46:02 13.9 C 7.91 g/m*3 13.9 C 0 km/h
2214 29-03-2010 11:58:02 14 C 7.72 g/m*3 14 C 0 km/h
2215 29-03-2010 12:10:01 14.4 C 7.66 g/m*3 14.4 C 0 km/h
2216 29-03-2010 12:22:02 15 C 7.57 g/m*3 15 C 0 km/h
2217 29-03-2010 12:34:01 15.3 C 7.44 g/m*3 15.3 C 0 km/h
2218 29-03-2010 12:46:02 14.9 C 7.52 g/m*3 14.9 C 0 km/h
2219 29-03-2010 12:58:02 14.9 C 7.39 g/m*3 14.9 C 0 km/h
2220 29-03-2010 13:10:02 15.3 C 7.18 g/m*3 15.3 C 0 km/h
2221 29-03-2010 13:22:02 14.8 C 7.09 g/m*3 14.8 C 0 km/h
2222 29-03-2010 13:34:03 14.6 C 7.38 g/m*3 14.6 C 0 km/h
2223 29-03-2010 13:46:02 14.4 C 7.54 g/m*3 14.4 C 0 km/h
2224 29-03-2010 13:58:02 13.8 C 8.1 g/m*3 13.8 C 0 km/h
2225 29-03-2010 14:10:01 14.2 C 8.91 g/m*3 14.2 C 0 km/h
Sensor: Nr:Datum:Temp:Abs-Feuchte:Windchill:Wind:
Aussen-T/F 2226 29-03-2010 14:22:02 14.7 C 8.69 g/m*3 14.7 C 0 km/h
2227 29-03-2010 14:34:02 14.2 C 7.82 g/m*3 14.2 C 0 km/h
2228 29-03-2010 14:46:02 13.1 C 8.33 g/m*3 13.1 C 0 km/h
2229 29-03-2010 14:58:02 12.7 C 8.13 g/m*3 12.7 C 0 km/h
2230 29-03-2010 15:10:02 13.2 C 8.38 g/m*3 13.2 C 0 km/h
2231 29-03-2010 15:22:02 12.8 C 8.4 g/m*3 12.8 C 0 km/h
2232 29-03-2010 15:34:02 12.8 C 8.62 g/m*3 12.8 C 0 km/h
2233 29-03-2010 15:46:02 12.7 C 8.68 g/m*3 12.7 C 0 km/h
2234 29-03-2010 15:58:02 13.4 C 8.6 g/m*3 13.4 C 0 km/h
2235 29-03-2010 16:10:02 14 C 8.2 g/m*3 14 C 0 km/h
2236 29-03-2010 16:22:02 14.2 C 7.69 g/m*3 14.2 C 0 km/h
2237 29-03-2010 16:34:02 14.3 C 7.62 g/m*3 14.3 C 0 km/h
2238 29-03-2010 16:46:02 14 C 7.96 g/m*3 14 C 0 km/h
2239 29-03-2010 16:58:02 13.8 C 8.22 g/m*3 13.8 C 0 km/h
2240 29-03-2010 17:10:02 12.2 C 8.31 g/m*3 12.2 C 0 km/h
2241 29-03-2010 17:22:03 12.2 C 8.96 g/m*3 12.2 C 0 km/h
2242 29-03-2010 17:34:02 12.6 C 9.4 g/m*3 12.6 C 0 km/h
2243 29-03-2010 17:46:02 14.2 C 10.14 g/m*3 14.2 C 0 km/h
2244 29-03-2010 17:58:02 14.5 C 9.45 g/m*3 14.5 C 0 km/h
2245 29-03-2010 18:10:02 14.7 C 9.44 g/m*3 14.7 C 0 km/h
2246 29-03-2010 18:22:02 14.9 C 8.92 g/m*3 14.9 C 0 km/h
2247 29-03-2010 18:34:02 14.8 C 8.87 g/m*3 14.8 C 0 km/h
2248 29-03-2010 18:46:02 14.5 C 8.83 g/m*3 14.5 C 0 km/h
2249 29-03-2010 18:58:02 14.4 C 9.02 g/m*3 14.4 C 0 km/h
2250 29-03-2010 19:10:01 14.2 C 8.91 g/m*3 14.2 C 0 km/h
Sensor: Nr:Datum:Temp:Abs-Feuchte:Windchill:Wind:
Aussen-T/F 2251 29-03-2010 19:22:02 13.7 C 8.76 g/m*3 13.7 C 0 km/h
2252 29-03-2010 19:34:01 13 C 8.73 g/m*3 13 C 0 km/h
2253 29-03-2010 19:46:02 12.2 C 8.52 g/m*3 12.2 C 0 km/h
2254 29-03-2010 19:58:02 11.7 C 8.37 g/m*3 11.7 C 0 km/h
2255 29-03-2010 20:10:01 11.2 C 8.21 g/m*3 11.2 C 0 km/h
2256 29-03-2010 20:22:01 10.8 C 8.2 g/m*3 10.8 C 0 km/h
2257 29-03-2010 20:34:02 10.6 C 8.2 g/m*3 10.6 C 0 km/h
2258 29-03-2010 20:46:02 10.5 C 8.15 g/m*3 10.5 C 0 km/h
2259 29-03-2010 20:58:02 10.4 C 8.1 g/m*3 10.4 C 0 km/h
2260 29-03-2010 21:10:01 10.3 C 8.04 g/m*3 10.3 C 0 km/h
2261 29-03-2010 21:22:02 10.2 C 7.99 g/m*3 10.2 C 0 km/h
2262 29-03-2010 21:34:02 10.3 C 8.04 g/m*3 10.3 C 0 km/h
2263 29-03-2010 21:47:02 10.3 C 8.04 g/m*3 10.3 C 0 km/h
2264 29-03-2010 21:59:02 10.2 C 7.99 g/m*3 10.2 C 0 km/h
2265 29-03-2010 22:11:02 10 C 7.89 g/m*3 10 C 0 km/h
2266 29-03-2010 22:23:03 10 C 7.89 g/m*3 10 C 0 km/h
2267 29-03-2010 22:35:03 9.9 C 7.94 g/m*3 9.9 C 0 km/h
2268 29-03-2010 22:47:03 9.8 C 7.89 g/m*3 9.8 C 0 km/h
2269 29-03-2010 22:59:03 9.9 C 8.03 g/m*3 9.9 C 0 km/h
2270 29-03-2010 23:11:03 9.9 C 7.94 g/m*3 9.9 C 0 km/h
2271 29-03-2010 23:23:03 9.9 C 7.94 g/m*3 9.9 C 0 km/h
2272 29-03-2010 23:35:03 10.1 C 7.85 g/m*3 10.1 C 0 km/h
2273 29-03-2010 23:47:03 10.1 C 7.66 g/m*3 10.1 C 0 km/h
2274 29-03-2010 23:59:03 10.2 C 7.71 g/m*3 10.2 C 0 km/h
2275 30-03-2010 00:11:03 10.2 C 7.61 g/m*3 10.2 C 0 km/h
Sensor: Nr:Datum:Temp:Abs-Feuchte:Windchill:Wind:
Aussen-T/F 2276 30-03-2010 00:23:03 10.3 C 7.66 g/m*3 10.3 C 0 km/h
2277 30-03-2010 00:35:03 10.6 C 7.71 g/m*3 10.6 C 0 km/h
2278 30-03-2010 00:47:03 10.7 C 7.66 g/m*3 10.7 C 0 km/h
2279 30-03-2010 00:59:03 11.1 C 7.66 g/m*3 11.1 C 0 km/h
2280 30-03-2010 01:11:03 11.3 C 7.65 g/m*3 11.3 C 0 km/h
2281 30-03-2010 01:23:03 11.3 C 7.65 g/m*3 11.3 C 0 km/h
2282 30-03-2010 01:35:03 11.3 C 7.55 g/m*3 11.3 C 0 km/h
2283 30-03-2010 01:47:03 11 C 7.41 g/m*3 11 C 0 km/h
2284 30-03-2010 01:59:03 11.1 C 7.35 g/m*3 11.1 C 0 km/h
2285 30-03-2010 02:11:03 11.3 C 7.24 g/m*3 11.3 C 0 km/h
2286 30-03-2010 02:23:03 11.3 C 7.24 g/m*3 11.3 C 0 km/h
2287 30-03-2010 02:35:03 11.1 C 7.25 g/m*3 11.1 C 0 km/h
2288 30-03-2010 02:47:04 11.7 C 7.22 g/m*3 11.7 C 0 km/h
2289 30-03-2010 02:59:04 11.6 C 7.17 g/m*3 11.6 C 0 km/h
2290 30-03-2010 03:11:04 11.3 C 7.14 g/m*3 11.3 C 0 km/h
2291 30-03-2010 03:23:04 11.3 C 7.24 g/m*3 11.3 C 0 km/h
2292 30-03-2010 03:35:04 10.9 C 7.16 g/m*3 10.9 C 0 km/h
2293 30-03-2010 03:47:04 10.8 C 7.22 g/m*3 10.8 C 0 km/h
2294 30-03-2010 03:59:04 11 C 7.21 g/m*3 11 C 0 km/h
2295 30-03-2010 04:11:04 11.4 C 7.29 g/m*3 11.4 C 0 km/h
2296 30-03-2010 04:23:04 11.4 C 7.19 g/m*3 11.4 C 0 km/h
2297 30-03-2010 04:35:04 11.5 C 7.13 g/m*3 11.5 C 0 km/h
2298 30-03-2010 04:47:04 11.4 C 7.08 g/m*3 11.4 C 0 km/h
2299 30-03-2010 04:59:04 11.3 C 7.14 g/m*3 11.3 C 0 km/h
2300 30-03-2010 05:11:04 11.4 C 7.29 g/m*3 11.4 C 0 km/h
Sensor: Nr:Datum:Temp:Abs-Feuchte:Windchill:Wind:
Aussen-T/F 2301 30-03-2010 05:23:04 11.1 C 7.05 g/m*3 11.1 C 0 km/h
2302 30-03-2010 05:35:04 11 C 7.01 g/m*3 11 C 0 km/h
2303 30-03-2010 05:47:04 10.7 C 7.07 g/m*3 10.7 C 0 km/h
2304 30-03-2010 05:59:04 10.5 C 6.98 g/m*3 10.5 C 0 km/h
2305 30-03-2010 06:11:04 10.5 C 7.08 g/m*3 10.5 C 0 km/h
2306 30-03-2010 06:23:04 10.3 C 7.09 g/m*3 10.3 C 0 km/h
2307 30-03-2010 06:35:04 10 C 6.95 g/m*3 10 C 0 km/h
2308 30-03-2010 06:47:04 9.8 C 7.14 g/m*3 9.8 C 0 km/h
2309 30-03-2010 06:59:04 9.8 C 7.24 g/m*3 9.8 C 0 km/h
2310 30-03-2010 07:11:01 10 C 7.14 g/m*3 10 C 0 km/h
2311 30-03-2010 07:23:02 10.2 C 7.04 g/m*3 10.2 C 0 km/h
2312 30-03-2010 07:35:02 10.5 C 6.89 g/m*3 10.5 C 0 km/h
2313 30-03-2010 07:47:02 10.6 C 6.83 g/m*3 10.6 C 0 km/h
2314 30-03-2010 07:59:02 10.7 C 6.88 g/m*3 10.7 C 0 km/h
2315 30-03-2010 08:11:02 10.7 C 6.88 g/m*3 10.7 C 0 km/h
2316 30-03-2010 08:23:02 11 C 6.91 g/m*3 11 C 0 km/h
2317 30-03-2010 08:35:02 11.1 C 6.85 g/m*3 11.1 C 0 km/h
2318 30-03-2010 08:47:01 11.4 C 6.67 g/m*3 11.4 C 0 km/h
2319 30-03-2010 08:59:01 11.4 C 6.77 g/m*3 11.4 C 0 km/h
2320 30-03-2010 09:11:02 11.8 C 6.95 g/m*3 11.8 C 0 km/h
2321 30-03-2010 09:23:01 12.2 C 6.69 g/m*3 12.2 C 0 km/h
2322 30-03-2010 09:35:02 12.6 C 6.75 g/m*3 12.6 C 0 km/h
2323 30-03-2010 09:47:02 12.9 C 6.54 g/m*3 12.9 C 0 km/h
2324 30-03-2010 09:59:02 13.1 C 6.39 g/m*3 13.1 C 0 km/h
2325 30-03-2010 10:11:02 13.2 C 6.43 g/m*3 13.2 C 0 km/h
Sensor: Nr:Datum:Temp:Abs-Feuchte:Windchill:Wind:
Aussen-T/F 2326 30-03-2010 10:23:01 13.1 C 5.93 g/m*3 13.1 C 0 km/h
2327 30-03-2010 10:35:02 14.2 C 6.11 g/m*3 14.2 C 0 km/h
2328 30-03-2010 10:47:02 14.4 C 5.07 g/m*3 14.4 C 0 km/h
2329 30-03-2010 10:59:02 14.1 C 4.85 g/m*3 14.1 C 0 km/h
2330 30-03-2010 11:11:02 14.1 C 4.98 g/m*3 14.1 C 0 km/h
2331 30-03-2010 11:23:01 15 C 4.74 g/m*3 15 C 0 km/h
2332 30-03-2010 11:35:02 15.2 C 4.67 g/m*3 15.2 C 0 km/h
2333 30-03-2010 11:47:02 15.3 C 4.57 g/m*3 15.3 C 0 km/h
2334 30-03-2010 11:59:02 15.8 C 4.71 g/m*3 15.8 C 0 km/h
2335 30-03-2010 12:11:02 16 C 4.63 g/m*3 16 C 0 km/h
2336 30-03-2010 12:23:02 16.2 C 4.55 g/m*3 16.2 C 0 km/h
2337 30-03-2010 12:35:02 16.6 C 4.66 g/m*3 16.6 C 0 km/h
2338 30-03-2010 12:47:02 16.7 C 4.55 g/m*3 16.7 C 0 km/h
2339 30-03-2010 12:59:02 17.2 C 4.69 g/m*3 17.2 C 0 km/h
2340 30-03-2010 13:11:02 17.4 C 4.59 g/m*3 17.4 C 0 km/h
2341 30-03-2010 13:23:02 17.3 C 4.71 g/m*3 17.3 C 0 km/h
2342 30-03-2010 13:35:02 17.7 C 4.83 g/m*3 17.7 C 0 km/h
2343 30-03-2010 13:47:02 18.1 C 4.79 g/m*3 18.1 C 0 km/h
2344 30-03-2010 13:59:02 18.2 C 4.66 g/m*3 18.2 C 0 km/h
2345 30-03-2010 14:11:02 18.5 C 4.9 g/m*3 18.5 C 0 km/h
2346 30-03-2010 14:23:02 18.9 C 4.7 g/m*3 18.9 C 0 km/h
2347 30-03-2010 14:35:01 18.3 C 4.53 g/m*3 18.3 C 0 km/h
2348 30-03-2010 14:47:02 18 C 4.61 g/m*3 18 C 0 km/h
2349 30-03-2010 14:59:02 17.7 C 4.68 g/m*3 17.7 C 0 km/h
2350 30-03-2010 15:11:01 17.9 C 4.58 g/m*3 17.9 C 0 km/h
Sensor: Nr:Datum:Temp:Abs-Feuchte:Windchill:Wind:
Aussen-T/F 2351 30-03-2010 15:23:01 17.7 C 4.68 g/m*3 17.7 C 0 km/h
2352 30-03-2010 15:35:02 18.6 C 4.62 g/m*3 18.6 C 0 km/h
2353 30-03-2010 15:47:02 18.7 C 4.48 g/m*3 18.7 C 0 km/h
2354 30-03-2010 15:59:03 18.2 C 4.51 g/m*3 18.2 C 0 km/h
2355 30-03-2010 16:11:02 18.7 C 4.64 g/m*3 18.7 C 0 km/h
2356 30-03-2010 16:23:02 17.5 C 5.22 g/m*3 17.5 C 0 km/h
2357 30-03-2010 16:35:02 16.4 C 5.58 g/m*3 16.4 C 0 km/h
2358 30-03-2010 16:47:01 15.9 C 5.55 g/m*3 15.9 C 0 km/h
2359 30-03-2010 16:59:01 15.6 C 5.45 g/m*3 15.6 C 0 km/h
2360 30-03-2010 17:11:02 14.9 C 5.48 g/m*3 14.9 C 0 km/h
2361 30-03-2010 17:23:01 14.4 C 5.44 g/m*3 14.4 C 0 km/h
2362 30-03-2010 17:35:02 14.2 C 5.49 g/m*3 14.2 C 0 km/h
2363 30-03-2010 17:47:02 14 C 5.43 g/m*3 14 C 0 km/h
2364 30-03-2010 17:59:02 13.8 C 5.48 g/m*3 13.8 C 0 km/h
2365 30-03-2010 18:11:02 13.6 C 5.65 g/m*3 13.6 C 0 km/h
2366 30-03-2010 18:23:02 13.3 C 5.89 g/m*3 13.3 C 0 km/h
2367 30-03-2010 18:35:02 12.9 C 6.2 g/m*3 12.9 C 0 km/h
2368 30-03-2010 18:47:02 12 C 6.39 g/m*3 12 C 0 km/h
2369 30-03-2010 18:59:02 11.6 C 6.65 g/m*3 11.6 C 0 km/h
2370 30-03-2010 19:11:02 11.5 C 6.82 g/m*3 11.5 C 0 km/h
2371 30-03-2010 19:23:02 11.1 C 6.65 g/m*3 11.1 C 0 km/h
2372 30-03-2010 19:35:02 11.3 C 6.73 g/m*3 11.3 C 0 km/h
2373 30-03-2010 19:47:01 11.4 C 6.67 g/m*3 11.4 C 0 km/h
2374 30-03-2010 19:59:01 11.3 C 6.43 g/m*3 11.3 C 0 km/h
2375 30-03-2010 20:11:02 10.9 C 6.47 g/m*3 10.9 C 0 km/h
Sensor: Nr:Datum:Temp:Abs-Feuchte:Windchill:Wind:
Aussen-T/F 2376 30-03-2010 20:23:01 10.5 C 6.4 g/m*3 10.5 C 0 km/h
2377 30-03-2010 20:35:01 10.6 C 6.44 g/m*3 10.6 C 0 km/h
2378 30-03-2010 20:47:01 10.7 C 6.38 g/m*3 10.7 C 0 km/h
2379 30-03-2010 20:59:01 10.7 C 6.29 g/m*3 10.7 C 0 km/h
2380 30-03-2010 21:11:02 10.4 C 6.36 g/m*3 10.4 C 0 km/h
2381 30-03-2010 21:23:01 10.1 C 6.24 g/m*3 10.1 C 0 km/h
2382 30-03-2010 21:35:01 10 C 6.3 g/m*3 10 C 0 km/h
2383 30-03-2010 21:47:01 9.8 C 6.31 g/m*3 9.8 C 0 km/h
2384 30-03-2010 21:59:01 9.7 C 6.27 g/m*3 9.7 C 0 km/h
2385 30-03-2010 22:11:02 9.4 C 6.24 g/m*3 9.4 C 0 km/h
2386 30-03-2010 22:23:02 9.3 C 6.29 g/m*3 9.3 C 0 km/h
2387 30-03-2010 22:36:04 9.6 C 6.32 g/m*3 9.6 C 0 km/h
2388 30-03-2010 22:48:05 9.8 C 6.12 g/m*3 9.8 C 0 km/h
2389 30-03-2010 23:00:05 10.2 C 5.8 g/m*3 10.2 C 0 km/h
2390 30-03-2010 23:12:05 10.6 C 5.76 g/m*3 10.6 C 0 km/h
2391 30-03-2010 23:24:05 7.9 C 5.83 g/m*3 7.9 C 0 km/h
2392 30-03-2010 23:36:05 7.4 C 5.49 g/m*3 7.4 C 0 km/h
2393 30-03-2010 23:48:05 7.3 C 5.37 g/m*3 7.3 C 0 km/h
2394 31-03-2010 00:00:05 7.1 C 5.07 g/m*3 7.1 C 0 km/h
2395 31-03-2010 00:12:05 7 C 4.88 g/m*3 7 C 0 km/h
2396 31-03-2010 00:24:05 6.9 C 4.93 g/m*3 6.9 C 0 km/h
2397 31-03-2010 00:36:05 6.6 C 4.83 g/m*3 6.6 C 0 km/h
2398 31-03-2010 00:48:05 6.6 C 4.76 g/m*3 6.6 C 0 km/h
2399 31-03-2010 01:00:05 6.3 C 4.74 g/m*3 6.3 C 0 km/h
2400 31-03-2010 01:12:05 6.2 C 4.71 g/m*3 6.2 C 0 km/h
Sensor: Nr:Datum:Temp:Abs-Feuchte:Windchill:Wind:
Aussen-T/F 2401 31-03-2010 01:24:05 6.3 C 4.74 g/m*3 6.3 C 0 km/h
2402 31-03-2010 01:36:05 6.2 C 4.63 g/m*3 6.2 C 0 km/h
2403 31-03-2010 01:48:05 6.1 C 4.6 g/m*3 6.1 C 0 km/h
2404 31-03-2010 02:00:05 6 C 4.57 g/m*3 6 C 0 km/h
2405 31-03-2010 02:12:05 6 C 4.65 g/m*3 6 C 0 km/h
2406 31-03-2010 02:24:05 6 C 4.65 g/m*3 6 C 0 km/h
2407 31-03-2010 02:36:05 6 C 4.65 g/m*3 6 C 0 km/h
2408 31-03-2010 02:48:05 5.9 C 4.69 g/m*3 5.9 C 0 km/h
2409 31-03-2010 03:00:06 5.7 C 4.7 g/m*3 5.7 C 0 km/h
2410 31-03-2010 03:12:06 5.8 C 4.73 g/m*3 5.8 C 0 km/h
2411 31-03-2010 03:24:06 5.8 C 4.8 g/m*3 5.8 C 0 km/h
2412 31-03-2010 03:36:06 5.8 C 4.8 g/m*3 5.8 C 0 km/h
2413 31-03-2010 03:48:06 5.5 C 4.78 g/m*3 5.5 C 0 km/h
2414 31-03-2010 04:00:06 5.5 C 4.85 g/m*3 5.5 C 0 km/h
2415 31-03-2010 04:12:06 5.3 C 4.85 g/m*3 5.3 C 0 km/h
2416 31-03-2010 04:24:06 5.3 C 4.99 g/m*3 5.3 C 0 km/h
2417 31-03-2010 04:36:06 5.6 C 5.16 g/m*3 5.6 C 0 km/h
2418 31-03-2010 04:48:06 5.8 C 5.16 g/m*3 5.8 C 0 km/h
2419 31-03-2010 05:00:06 5.7 C 5.12 g/m*3 5.7 C 0 km/h
2420 31-03-2010 05:12:06 6.1 C 5.11 g/m*3 6.1 C 0 km/h
2421 31-03-2010 05:24:06 6.5 C 4.95 g/m*3 6.5 C 0 km/h
2422 31-03-2010 05:36:06 6.6 C 4.91 g/m*3 6.6 C 0 km/h
2423 31-03-2010 05:48:06 7.1 C 4.76 g/m*3 7.1 C 0 km/h
2424 31-03-2010 06:00:06 7 C 4.65 g/m*3 7 C 0 km/h
2425 31-03-2010 06:12:06 7.1 C 4.68 g/m*3 7.1 C 0 km/h
Sensor: Nr:Datum:Temp:Abs-Feuchte:Windchill:Wind:
Aussen-T/F 2426 31-03-2010 06:24:06 7.3 C 4.58 g/m*3 7.3 C 0 km/h
2427 31-03-2010 06:36:06 7.3 C 4.5 g/m*3 7.3 C 0 km/h
2428 31-03-2010 06:48:06 7.3 C 4.5 g/m*3 7.3 C 0 km/h
2429 31-03-2010 07:00:07 7.3 C 4.42 g/m*3 7.3 C 0 km/h
2430 31-03-2010 07:12:04 7.3 C 4.42 g/m*3 7.3 C 0 km/h
2431 31-03-2010 07:24:03 7.4 C 4.21 g/m*3 7.4 C 0 km/h
2432 31-03-2010 07:36:04 7.4 C 4.06 g/m*3 7.4 C 0 km/h
2433 31-03-2010 07:48:02 7.5 C 4.08 g/m*3 7.5 C 0 km/h
2434 31-03-2010 08:00:02 7.4 C 4.14 g/m*3 7.4 C 0 km/h
2435 31-03-2010 08:12:02 7.5 C 4.24 g/m*3 7.5 C 0 km/h
2436 31-03-2010 08:24:01 7.5 C 4.24 g/m*3 7.5 C 0 km/h
2437 31-03-2010 08:36:02 7.5 C 4.24 g/m*3 7.5 C 0 km/h
2438 31-03-2010 08:48:02 7.4 C 4.14 g/m*3 7.4 C 0 km/h
2439 31-03-2010 09:00:02 7.6 C 4.27 g/m*3 7.6 C 0 km/h
2440 31-03-2010 09:12:02 7.8 C 4.41 g/m*3 7.8 C 0 km/h
2441 31-03-2010 09:24:02 7.2 C 4.71 g/m*3 7.2 C 0 km/h
2442 31-03-2010 09:36:02 7.4 C 4.85 g/m*3 7.4 C 0 km/h
2443 31-03-2010 09:48:01 7.8 C 4.9 g/m*3 7.8 C 0 km/h
2444 31-03-2010 10:00:01 6.8 C 5.05 g/m*3 6.8 C 0 km/h
2445 31-03-2010 10:12:02 6 C 5.3 g/m*3 6 C 0 km/h
2446 31-03-2010 10:24:02 6.5 C 5.55 g/m*3 6.5 C 0 km/h
2447 31-03-2010 10:36:01 7.4 C 5.33 g/m*3 7.4 C 0 km/h
2448 31-03-2010 10:48:02 8.5 C 4.7 g/m*3 8.5 C 0 km/h
2449 31-03-2010 11:00:02 9.4 C 4.16 g/m*3 9.4 C 0 km/h
2450 31-03-2010 11:12:01 10.1 C 4.26 g/m*3 10.1 C 0 km/h
Sensor: Nr:Datum:Temp:Abs-Feuchte:Windchill:Wind:
Aussen-T/F 2451 31-03-2010 11:24:02 10.1 C 3.78 g/m*3 10.1 C 0 km/h
2452 31-03-2010 11:36:01 10.2 C 3.81 g/m*3 10.2 C 0 km/h
2453 31-03-2010 11:48:02 10.4 C 3.76 g/m*3 10.4 C 0 km/h
2454 31-03-2010 12:00:02 10.8 C 3.85 g/m*3 10.8 C 0 km/h
2455 31-03-2010 12:12:02 10.7 C 3.54 g/m*3 10.7 C 0 km/h
2456 31-03-2010 12:24:02 10.2 C 3.52 g/m*3 10.2 C 0 km/h
2457 31-03-2010 12:36:02 10.3 C 3.93 g/m*3 10.3 C 0 km/h
2458 31-03-2010 12:48:02 10.6 C 3.71 g/m*3 10.6 C 0 km/h
2459 31-03-2010 13:00:03 10.9 C 3.48 g/m*3 10.9 C 0 km/h
2460 31-03-2010 13:12:01 11.6 C 3.22 g/m*3 11.6 C 0 km/h
2461 31-03-2010 13:24:01 11.4 C 3.08 g/m*3 11.4 C 0 km/h
2462 31-03-2010 13:36:02 11.8 C 3.16 g/m*3 11.8 C 0 km/h
2463 31-03-2010 13:48:02 11.8 C 3.16 g/m*3 11.8 C 0 km/h
2464 31-03-2010 14:00:02 11.6 C 3.22 g/m*3 11.6 C 0 km/h
2465 31-03-2010 14:12:02 11.5 C 3.1 g/m*3 11.5 C 0 km/h
2466 31-03-2010 14:24:02 11.8 C 3.05 g/m*3 11.8 C 0 km/h
2467 31-03-2010 14:36:02 12.3 C 3.04 g/m*3 12.3 C 0 km/h
2468 31-03-2010 14:48:02 11.9 C 3.18 g/m*3 11.9 C 0 km/h
2469 31-03-2010 15:00:02 11.2 C 3.45 g/m*3 11.2 C 0 km/h
2470 31-03-2010 15:12:02 11.9 C 4.13 g/m*3 11.9 C 0 km/h
2471 31-03-2010 15:24:02 11.7 C 3.56 g/m*3 11.7 C 0 km/h
2472 31-03-2010 15:36:02 8.6 C 5.41 g/m*3 8.6 C 0 km/h
2473 31-03-2010 15:48:01 9.3 C 6.02 g/m*3 9.3 C 0 km/h
2474 31-03-2010 16:00:01 11.2 C 5.17 g/m*3 11.2 C 0 km/h
2475 31-03-2010 16:12:01 12.2 C 4.21 g/m*3 12.2 C 0 km/h
Sensor: Nr:Datum:Temp:Abs-Feuchte:Windchill:Wind:
Aussen-T/F 2476 31-03-2010 16:24:01 12.7 C 4.01 g/m*3 12.7 C 0 km/h
2477 31-03-2010 16:36:01 13.6 C 3.77 g/m*3 13.6 C 0 km/h
2478 31-03-2010 16:48:01 13.4 C 3.25 g/m*3 13.4 C 0 km/h
2479 31-03-2010 17:00:01 13.4 C 3.14 g/m*3 13.4 C 0 km/h
2480 31-03-2010 17:12:01 13 C 2.84 g/m*3 13 C 0 km/h
2481 31-03-2010 17:24:02 12.5 C 2.86 g/m*3 12.5 C 0 km/h
2482 31-03-2010 17:36:01 13.3 C 2.66 g/m*3 13.3 C 0 km/h
2483 31-03-2010 17:48:02 12.5 C 3.3 g/m*3 12.5 C 0 km/h
2484 31-03-2010 18:00:02 11.4 C 4 g/m*3 11.4 C 0 km/h
2485 31-03-2010 18:12:02 11.9 C 3.71 g/m*3 11.9 C 0 km/h
2486 31-03-2010 18:24:02 12.2 C 3.45 g/m*3 12.2 C 0 km/h
2487 31-03-2010 18:36:02 10.3 C 3.35 g/m*3 10.3 C 0 km/h
2488 31-03-2010 18:48:02 9.3 C 4.58 g/m*3 9.3 C 0 km/h
2489 31-03-2010 19:00:02 9.6 C 4.12 g/m*3 9.6 C 0 km/h
2490 31-03-2010 19:12:02 8.4 C 4.58 g/m*3 8.4 C 0 km/h
2491 31-03-2010 19:24:02 8.1 C 4.74 g/m*3 8.1 C 0 km/h
2492 31-03-2010 19:36:01 8.2 C 4.44 g/m*3 8.2 C 0 km/h
2493 31-03-2010 19:48:02 7.9 C 4.19 g/m*3 7.9 C 0 km/h
2494 31-03-2010 20:00:02 7.5 C 4.08 g/m*3 7.5 C 0 km/h
2495 31-03-2010 20:12:01 7.3 C 4.03 g/m*3 7.3 C 0 km/h
2496 31-03-2010 20:24:02 7.1 C 3.98 g/m*3 7.1 C 0 km/h
2497 31-03-2010 20:36:02 7 C 3.95 g/m*3 7 C 0 km/h
2498 31-03-2010 20:48:02 6.9 C 4.16 g/m*3 6.9 C 0 km/h
2499 31-03-2010 21:00:03 7 C 4.26 g/m*3 7 C 0 km/h
2500 31-03-2010 21:12:02 6.2 C 4.85 g/m*3 6.2 C 0 km/h
Sensor: Nr:Datum:Temp:Abs-Feuchte:Windchill:Wind:
Aussen-T/F 2501 31-03-2010 21:24:02 5.7 C 4.98 g/m*3 5.7 C 0 km/h
2502 31-03-2010 21:36:02 5.6 C 4.95 g/m*3 5.6 C 0 km/h
2503 31-03-2010 21:48:02 5.5 C 4.92 g/m*3 5.5 C 0 km/h
2504 31-03-2010 22:00:02 5.6 C 4.74 g/m*3 5.6 C 0 km/h
2505 31-03-2010 22:12:01 5.3 C 4.78 g/m*3 5.3 C 0 km/h
2506 31-03-2010 22:25:03 5.3 C 4.71 g/m*3 5.3 C 0 km/h
2507 31-03-2010 22:37:03 5.2 C 4.68 g/m*3 5.2 C 0 km/h
2508 31-03-2010 22:49:03 5.1 C 4.65 g/m*3 5.1 C 0 km/h
2509 31-03-2010 23:01:03 5.1 C 4.65 g/m*3 5.1 C 0 km/h
2510 31-03-2010 23:13:03 5.2 C 4.54 g/m*3 5.2 C 0 km/h
2511 31-03-2010 23:25:03 5.1 C 4.51 g/m*3 5.1 C 0 km/h
2512 31-03-2010 23:37:03 5.5 C 4.28 g/m*3 5.5 C 0 km/h
2513 31-03-2010 23:49:03 5.5 C 4.21 g/m*3 5.5 C 0 km/h
2514 01-04-2010 00:01:03 5.6 C 4.1 g/m*3 5.6 C 0 km/h
2515 01-04-2010 00:13:03 5.6 C 3.96 g/m*3 5.6 C 0 km/h
2516 01-04-2010 00:25:03 5.7 C 3.77 g/m*3 5.7 C 0 km/h
2517 01-04-2010 00:37:03 5.6 C 3.75 g/m*3 5.6 C 0 km/h
2518 01-04-2010 00:49:03 5.5 C 3.65 g/m*3 5.5 C 0 km/h
2519 01-04-2010 01:01:03 5.3 C 3.6 g/m*3 5.3 C 0 km/h
2520 01-04-2010 01:13:03 5.3 C 3.6 g/m*3 5.3 C 0 km/h
2521 01-04-2010 01:25:03 5.2 C 3.51 g/m*3 5.2 C 0 km/h
2522 01-04-2010 01:37:04 5 C 3.53 g/m*3 5 C 0 km/h
2523 01-04-2010 01:49:04 4.9 C 3.58 g/m*3 4.9 C 0 km/h
2524 01-04-2010 02:01:04 4.8 C 3.62 g/m*3 4.8 C 0 km/h
2525 01-04-2010 02:13:04 5 C 3.53 g/m*3 5 C 0 km/h
Sensor: Nr:Datum:Temp:Abs-Feuchte:Windchill:Wind:
Aussen-T/F 2526 01-04-2010 02:25:04 5.1 C 3.49 g/m*3 5.1 C 0 km/h
2527 01-04-2010 02:37:04 5 C 3.47 g/m*3 5 C 0 km/h
2528 01-04-2010 02:49:04 4.6 C 3.44 g/m*3 4.6 C 0 km/h
2529 01-04-2010 03:01:04 4.4 C 3.46 g/m*3 4.4 C 0 km/h
2530 01-04-2010 03:13:04 4.7 C 3.46 g/m*3 4.7 C 0 km/h
2531 01-04-2010 03:25:04 4.7 C 3.46 g/m*3 4.7 C 0 km/h
2532 01-04-2010 03:37:04 4.4 C 3.33 g/m*3 4.4 C 0 km/h
2533 01-04-2010 03:49:04 4.2 C 3.35 g/m*3 4.2 C 0 km/h
2534 01-04-2010 04:01:04 4.2 C 3.41 g/m*3 4.2 C 0 km/h
2535 01-04-2010 04:13:04 3.8 C 3.45 g/m*3 3.8 C 0 km/h
2536 01-04-2010 04:25:04 3.9 C 3.54 g/m*3 3.9 C 0 km/h
2537 01-04-2010 04:37:04 3.8 C 3.45 g/m*3 3.8 C 0 km/h
2538 01-04-2010 04:49:04 3.8 C 3.45 g/m*3 3.8 C 0 km/h
2539 01-04-2010 05:01:04 3.5 C 3.44 g/m*3 3.5 C 0 km/h
2540 01-04-2010 05:13:04 3.6 C 3.53 g/m*3 3.6 C 0 km/h
2541 01-04-2010 05:25:04 3.6 C 3.53 g/m*3 3.6 C 0 km/h
2542 01-04-2010 05:37:04 3.5 C 3.5 g/m*3 3.5 C 0 km/h
2543 01-04-2010 05:49:05 3.5 C 3.57 g/m*3 3.5 C 0 km/h
2544 01-04-2010 06:01:05 3.6 C 3.53 g/m*3 3.6 C 0 km/h
2545 01-04-2010 06:13:05 3.5 C 3.5 g/m*3 3.5 C 0 km/h
2546 01-04-2010 06:25:05 3.5 C 3.5 g/m*3 3.5 C 0 km/h
2547 01-04-2010 06:37:05 3.5 C 3.5 g/m*3 3.5 C 0 km/h
2548 01-04-2010 06:49:05 3.2 C 3.56 g/m*3 3.2 C 0 km/h
2549 01-04-2010 07:01:03 3.5 C 3.69 g/m*3 3.5 C 0 km/h
2550 01-04-2010 07:13:03 3.5 C 3.69 g/m*3 3.5 C 0 km/h
Sensor: Nr:Datum:Temp:Abs-Feuchte:Windchill:Wind:
Aussen-T/F 2551 01-04-2010 07:25:03 3.3 C 3.64 g/m*3 3.3 C 0 km/h
2552 01-04-2010 07:37:02 3.3 C 3.64 g/m*3 3.3 C 0 km/h
2553 01-04-2010 07:49:02 3.4 C 3.66 g/m*3 3.4 C 0 km/h
2554 01-04-2010 08:01:01 3.4 C 3.66 g/m*3 3.4 C 0 km/h
2555 01-04-2010 08:13:01 3.5 C 3.69 g/m*3 3.5 C 0 km/h
2556 01-04-2010 08:25:02 3.5 C 3.63 g/m*3 3.5 C 0 km/h
2557 01-04-2010 08:37:01 3.5 C 3.69 g/m*3 3.5 C 0 km/h
2558 01-04-2010 08:49:02 3.8 C 3.7 g/m*3 3.8 C 0 km/h
2559 01-04-2010 09:01:02 3.9 C 3.73 g/m*3 3.9 C 0 km/h
2560 01-04-2010 09:13:02 4.2 C 3.67 g/m*3 4.2 C 0 km/h
2561 01-04-2010 09:25:02 4.5 C 3.68 g/m*3 4.5 C 0 km/h
2562 01-04-2010 09:37:03 5.2 C 3.72 g/m*3 5.2 C 0 km/h
2563 01-04-2010 09:49:02 5.2 C 3.65 g/m*3 5.2 C 0 km/h
2564 01-04-2010 10:01:02 5.1 C 3.69 g/m*3 5.1 C 0 km/h
2565 01-04-2010 10:13:02 5.2 C 3.72 g/m*3 5.2 C 0 km/h
2566 01-04-2010 10:25:02 5.3 C 3.67 g/m*3 5.3 C 0 km/h
2567 01-04-2010 10:37:02 5.6 C 3.68 g/m*3 5.6 C 0 km/h
2568 01-04-2010 10:49:02 6.1 C 3.65 g/m*3 6.1 C 0 km/h
2569 01-04-2010 11:01:02 6.7 C 3.57 g/m*3 6.7 C 0 km/h
2570 01-04-2010 11:13:02 6.9 C 3.46 g/m*3 6.9 C 0 km/h
2571 01-04-2010 11:25:02 6.9 C 3.31 g/m*3 6.9 C 0 km/h
2572 01-04-2010 11:37:02 7.2 C 3.45 g/m*3 7.2 C 0 km/h
2573 01-04-2010 11:49:02 7.5 C 3.52 g/m*3 7.5 C 0 km/h
2574 01-04-2010 12:01:02 8 C 3.39 g/m*3 8 C 0 km/h
2575 01-04-2010 12:13:03 7.9 C 3.29 g/m*3 7.9 C 0 km/h
Sensor: Nr:Datum:Temp:Abs-Feuchte:Windchill:Wind:
Aussen-T/F 2576 01-04-2010 12:25:02 7.7 C 3.32 g/m*3 7.7 C 0 km/h
2577 01-04-2010 12:37:02 8 C 3.22 g/m*3 8 C 0 km/h
2578 01-04-2010 12:49:02 9.1 C 3.28 g/m*3 9.1 C 0 km/h
2579 01-04-2010 13:01:02 8.7 C 2.94 g/m*3 8.7 C 0 km/h
2580 01-04-2010 13:13:02 8.5 C 2.73 g/m*3 8.5 C 0 km/h
2581 01-04-2010 13:25:03 8.8 C 2.96 g/m*3 8.8 C 0 km/h
2582 01-04-2010 13:37:02 9.3 C 2.79 g/m*3 9.3 C 0 km/h
2583 01-04-2010 13:49:02 9 C 2.73 g/m*3 9 C 0 km/h
2584 01-04-2010 14:01:02 8.8 C 2.7 g/m*3 8.8 C 0 km/h
2585 01-04-2010 14:13:02 8.9 C 2.8 g/m*3 8.9 C 0 km/h
2586 01-04-2010 14:25:02 10.2 C 2.66 g/m*3 10.2 C 0 km/h
2587 01-04-2010 14:37:02 11 C 2.6 g/m*3 11 C 0 km/h
2588 01-04-2010 14:49:02 8.2 C 3.43 g/m*3 8.2 C 0 km/h
2589 01-04-2010 15:01:01 8.7 C 3.81 g/m*3 8.7 C 0 km/h
2590 01-04-2010 15:13:01 9.7 C 3.69 g/m*3 9.7 C 0 km/h
2591 01-04-2010 15:25:02 10.7 C 3.54 g/m*3 10.7 C 0 km/h
2592 01-04-2010 15:37:01 10.6 C 3.32 g/m*3 10.6 C 0 km/h
2593 01-04-2010 15:49:02 10.5 C 2.91 g/m*3 10.5 C 0 km/h
2594 01-04-2010 16:01:01 10.4 C 2.89 g/m*3 10.4 C 0 km/h
2595 01-04-2010 16:13:01 10.8 C 2.97 g/m*3 10.8 C 0 km/h
2596 01-04-2010 16:25:01 10.4 C 2.89 g/m*3 10.4 C 0 km/h
2597 01-04-2010 16:37:02 10.4 C 2.99 g/m*3 10.4 C 0 km/h
2598 01-04-2010 16:49:02 11 C 3.1 g/m*3 11 C 0 km/h
2599 01-04-2010 17:01:02 11 C 2.8 g/m*3 11 C 0 km/h
2600 01-04-2010 17:13:02 10.7 C 2.75 g/m*3 10.7 C 0 km/h
Sensor: Nr:Datum:Temp:Abs-Feuchte:Windchill:Wind:
Aussen-T/F 2601 01-04-2010 17:25:02 9.9 C 2.61 g/m*3 9.9 C 0 km/h
2602 01-04-2010 17:37:02 9.2 C 3.04 g/m*3 9.2 C 0 km/h
2603 01-04-2010 17:49:02 8.3 C 3.54 g/m*3 8.3 C 0 km/h
2604 01-04-2010 18:01:02 8.1 C 3.41 g/m*3 8.1 C 0 km/h
2605 01-04-2010 18:13:02 9.8 C 3.25 g/m*3 9.8 C 0 km/h
2606 01-04-2010 18:25:02 8.4 C 3.31 g/m*3 8.4 C 0 km/h
2607 01-04-2010 18:37:02 7.8 C 3.43 g/m*3 7.8 C 0 km/h
2608 01-04-2010 18:49:02 5.4 C 3.28 g/m*3 5.4 C 0 km/h
2609 01-04-2010 19:01:02 5.8 C 5.52 g/m*3 5.8 C 0 km/h
2610 01-04-2010 19:13:03 6.4 C 5.51 g/m*3 6.4 C 0 km/h
2611 01-04-2010 19:25:02 6.7 C 5.24 g/m*3 6.7 C 0 km/h
2612 01-04-2010 19:37:02 6.5 C 4.8 g/m*3 6.5 C 0 km/h
2613 01-04-2010 19:49:01 5.8 C 4.58 g/m*3 5.8 C 0 km/h
2614 01-04-2010 20:01:02 5.3 C 4.44 g/m*3 5.3 C 0 km/h
2615 01-04-2010 20:13:02 5 C 4.35 g/m*3 5 C 0 km/h
2616 01-04-2010 20:25:01 4.7 C 4.53 g/m*3 4.7 C 0 km/h
2617 01-04-2010 20:37:01 4.5 C 4.54 g/m*3 4.5 C 0 km/h
2618 01-04-2010 20:49:01 4.2 C 4.51 g/m*3 4.2 C 0 km/h
2619 01-04-2010 21:01:02 4.1 C 4.48 g/m*3 4.1 C 0 km/h
2620 01-04-2010 21:13:02 3.9 C 4.48 g/m*3 3.9 C 0 km/h
2621 01-04-2010 21:25:01 3.7 C 4.42 g/m*3 3.7 C 0 km/h
2622 01-04-2010 21:37:01 3.6 C 4.46 g/m*3 3.6 C 0 km/h
2623 01-04-2010 21:49:01 3.5 C 4.43 g/m*3 3.5 C 0 km/h
2624 01-04-2010 22:01:02 3.2 C 4.46 g/m*3 3.2 C 0 km/h
2625 01-04-2010 22:13:02 3.2 C 4.46 g/m*3 3.2 C 0 km/h
Sensor: Nr:Datum:Temp:Abs-Feuchte:Windchill:Wind:
Aussen-T/F 2626 01-04-2010 22:25:01 3.2 C 4.46 g/m*3 3.2 C 0 km/h
2627 01-04-2010 22:37:02 3.1 C 4.43 g/m*3 3.1 C 0 km/h
2628 01-04-2010 22:50:02 3 C 4.46 g/m*3 3 C 0 km/h
2629 01-04-2010 23:02:02 2.8 C 4.46 g/m*3 2.8 C 0 km/h
2630 01-04-2010 23:14:02 2.6 C 4.46 g/m*3 2.6 C 0 km/h
2631 01-04-2010 23:26:02 2.5 C 4.48 g/m*3 2.5 C 0 km/h
2632 01-04-2010 23:38:02 2.4 C 4.45 g/m*3 2.4 C 0 km/h
2633 01-04-2010 23:50:02 2.3 C 4.42 g/m*3 2.3 C 0 km/h
2634 02-04-2010 00:02:02 2.3 C 4.48 g/m*3 2.3 C 0 km/h
2635 02-04-2010 00:14:02 2.1 C 4.42 g/m*3 2.1 C 0 km/h
2636 02-04-2010 00:26:02 1.9 C 4.42 g/m*3 1.9 C 0 km/h
2637 02-04-2010 00:38:02 1.8 C 4.44 g/m*3 1.8 C 0 km/h
2638 02-04-2010 00:50:02 1.6 C 4.38 g/m*3 1.6 C 0 km/h
2639 02-04-2010 01:02:02 1.4 C 4.37 g/m*3 1.4 C 0 km/h
2640 02-04-2010 01:14:02 1.2 C 4.31 g/m*3 1.2 C 0 km/h
2641 02-04-2010 01:26:02 1.1 C 4.29 g/m*3 1.1 C 0 km/h
2642 02-04-2010 01:38:02 0.9 C 4.28 g/m*3 0.9 C 0 km/h
2643 02-04-2010 01:50:02 0.7 C 4.22 g/m*3 0.7 C 0 km/h
2644 02-04-2010 02:02:02 0.6 C 4.19 g/m*3 0.6 C 0 km/h
2645 02-04-2010 02:14:02 0.6 C 4.24 g/m*3 0.6 C 0 km/h
2646 02-04-2010 02:26:02 0.5 C 4.26 g/m*3 0.5 C 0 km/h
2647 02-04-2010 02:38:03 0.4 C 4.23 g/m*3 0.4 C 0 km/h
2648 02-04-2010 02:50:03 0.1 C 4.15 g/m*3 0.1 C 0 km/h
2649 02-04-2010 03:02:03 0.1 C 4.15 g/m*3 0.1 C 0 km/h
2650 02-04-2010 03:14:03 -0.1 C 4.14 g/m*3 -0.1 C 0 km/h
Sensor: Nr:Datum:Temp:Abs-Feuchte:Windchill:Wind:
Aussen-T/F 2651 02-04-2010 03:26:03 -0.1 C 4.14 g/m*3 -0.1 C 0 km/h
2652 02-04-2010 03:38:03 -0.2 C 4.16 g/m*3 -0.2 C 0 km/h
2653 02-04-2010 03:50:03 -0.3 C 4.13 g/m*3 -0.3 C 0 km/h
2654 02-04-2010 04:02:03 -0.3 C 4.13 g/m*3 -0.3 C 0 km/h
2655 02-04-2010 04:14:03 -0.5 C 4.07 g/m*3 -0.5 C 0 km/h
2656 02-04-2010 04:26:03 -0.4 C 4.1 g/m*3 -0.4 C 0 km/h
2657 02-04-2010 04:38:03 -0.5 C 4.12 g/m*3 -0.5 C 0 km/h
2658 02-04-2010 04:50:03 -0.8 C 3.99 g/m*3 -0.8 C 0 km/h
2659 02-04-2010 05:02:03 -0.9 C 3.96 g/m*3 -0.9 C 0 km/h
2660 02-04-2010 05:14:03 -0.9 C 4.01 g/m*3 -0.9 C 0 km/h
2661 02-04-2010 05:26:03 -1 C 3.98 g/m*3 -1 C 0 km/h
2662 02-04-2010 05:38:03 -1 C 3.98 g/m*3 -1 C 0 km/h
2663 02-04-2010 05:50:03 -0.9 C 4.05 g/m*3 -0.9 C 0 km/h
2664 02-04-2010 06:02:03 -1 C 4.02 g/m*3 -1 C 0 km/h
2665 02-04-2010 06:14:03 -1 C 4.07 g/m*3 -1 C 0 km/h
2666 02-04-2010 06:26:03 -1 C 4.07 g/m*3 -1 C 0 km/h
2667 02-04-2010 06:38:04 -1 C 4.11 g/m*3 -1 C 0 km/h
2668 02-04-2010 06:50:04 -1 C 4.11 g/m*3 -1 C 0 km/h
2669 02-04-2010 07:02:04 -1 C 4.11 g/m*3 -1 C 0 km/h
2670 02-04-2010 07:14:04 -0.9 C 4.19 g/m*3 -0.9 C 0 km/h
2671 02-04-2010 07:26:04 -0.9 C 4.19 g/m*3 -0.9 C 0 km/h
2672 02-04-2010 07:38:04 -0.8 C 4.22 g/m*3 -0.8 C 0 km/h
2673 02-04-2010 07:50:04 -0.9 C 4.19 g/m*3 -0.9 C 0 km/h
2674 02-04-2010 08:02:04 -0.4 C 4.34 g/m*3 -0.4 C 0 km/h
2675 02-04-2010 08:14:04 -0.3 C 4.41 g/m*3 -0.3 C 0 km/h
Sensor: Nr:Datum:Temp:Abs-Feuchte:Windchill:Wind:
Aussen-T/F 2676 02-04-2010 08:26:04 -0.1 C 4.43 g/m*3 -0.1 C 0 km/h
2677 02-04-2010 08:38:04 0.3 C 4.55 g/m*3 0.3 C 0 km/h
2678 02-04-2010 08:50:04 0.2 C 4.52 g/m*3 0.2 C 0 km/h
2679 02-04-2010 09:02:04 0.3 C 4.5 g/m*3 0.3 C 0 km/h
2680 02-04-2010 09:14:04 0.7 C 4.58 g/m*3 0.7 C 0 km/h
2681 02-04-2010 09:26:02 1.2 C 4.68 g/m*3 1.2 C 0 km/h
2682 02-04-2010 09:38:02 1.5 C 4.73 g/m*3 1.5 C 0 km/h
2683 02-04-2010 09:50:01 1.8 C 4.77 g/m*3 1.8 C 0 km/h
2684 02-04-2010 10:02:02 2.2 C 4.79 g/m*3 2.2 C 0 km/h
2685 02-04-2010 10:14:02 2.7 C 4.89 g/m*3 2.7 C 0 km/h
2686 02-04-2010 10:26:02 3.3 C 4.97 g/m*3 3.3 C 0 km/h
2687 02-04-2010 10:38:01 4.2 C 5.22 g/m*3 4.2 C 0 km/h
2688 02-04-2010 10:50:01 5 C 5.37 g/m*3 5 C 0 km/h
2689 02-04-2010 11:02:01 5.7 C 5.34 g/m*3 5.7 C 0 km/h
2690 02-04-2010 11:14:01 6.9 C 5.62 g/m*3 6.9 C 0 km/h
2691 02-04-2010 11:26:02 8.1 C 4.83 g/m*3 8.1 C 0 km/h
2692 02-04-2010 11:38:01 9 C 4.67 g/m*3 9 C 0 km/h
2693 02-04-2010 11:50:02 9.9 C 4.67 g/m*3 9.9 C 0 km/h
2694 02-04-2010 12:02:02 10 C 4.23 g/m*3 10 C 0 km/h
2695 02-04-2010 12:14:02 10.3 C 4.21 g/m*3 10.3 C 0 km/h
2696 02-04-2010 12:26:02 10.5 C 4.07 g/m*3 10.5 C 0 km/h
2697 02-04-2010 12:38:02 10.9 C 4.08 g/m*3 10.9 C 0 km/h
2698 02-04-2010 12:50:02 11.4 C 4 g/m*3 11.4 C 0 km/h
2699 02-04-2010 13:02:02 11.3 C 3.88 g/m*3 11.3 C 0 km/h
2700 02-04-2010 13:14:02 11.7 C 3.66 g/m*3 11.7 C 0 km/h
Sensor: Nr:Datum:Temp:Abs-Feuchte:Windchill:Wind:
Aussen-T/F 2701 02-04-2010 13:26:02 11.5 C 3.41 g/m*3 11.5 C 0 km/h
2702 02-04-2010 13:38:02 11.7 C 3.45 g/m*3 11.7 C 0 km/h
2703 02-04-2010 13:50:01 12.5 C 3.52 g/m*3 12.5 C 0 km/h
2704 02-04-2010 14:02:02 12.5 C 3.41 g/m*3 12.5 C 0 km/h
2705 02-04-2010 14:14:02 12.1 C 3.32 g/m*3 12.1 C 0 km/h
2706 02-04-2010 14:26:01 12.8 C 3.36 g/m*3 12.8 C 0 km/h
2707 02-04-2010 14:38:02 12.7 C 3.23 g/m*3 12.7 C 0 km/h
2708 02-04-2010 14:50:02 13.6 C 3.18 g/m*3 13.6 C 0 km/h
2709 02-04-2010 15:02:02 12.7 C 3.01 g/m*3 12.7 C 0 km/h
2710 02-04-2010 15:14:02 12.5 C 3.08 g/m*3 12.5 C 0 km/h
2711 02-04-2010 15:26:01 13.6 C 3.06 g/m*3 13.6 C 0 km/h
2712 02-04-2010 15:38:02 12.8 C 3.14 g/m*3 12.8 C 0 km/h
2713 02-04-2010 15:50:02 14.4 C 3.21 g/m*3 14.4 C 0 km/h
2714 02-04-2010 16:02:02 13.7 C 2.72 g/m*3 13.7 C 0 km/h
2715 02-04-2010 16:14:02 14.5 C 2.86 g/m*3 14.5 C 0 km/h
2716 02-04-2010 16:26:01 14.8 C 2.53 g/m*3 14.8 C 0 km/h
2717 02-04-2010 16:38:02 15.6 C 2.66 g/m*3 15.6 C 0 km/h
2718 02-04-2010 16:50:02 14.6 C 2.5 g/m*3 14.6 C 0 km/h
2719 02-04-2010 17:02:02 15.2 C 2.6 g/m*3 15.2 C 0 km/h
2720 02-04-2010 17:14:02 16.6 C 2.83 g/m*3 16.6 C 0 km/h
2721 02-04-2010 17:26:02 15.9 C 2.71 g/m*3 15.9 C 0 km/h
2722 02-04-2010 17:38:02 16 C 2.72 g/m*3 16 C 0 km/h
2723 02-04-2010 17:50:02 15.1 C 2.58 g/m*3 15.1 C 0 km/h
2724 02-04-2010 18:02:02 13.8 C 2.38 g/m*3 13.8 C 0 km/h
2725 02-04-2010 18:14:02 13.3 C 2.31 g/m*3 13.3 C 0 km/h
Sensor: Nr:Datum:Temp:Abs-Feuchte:Windchill:Wind:
Aussen-T/F 2726 02-04-2010 18:26:02 13.1 C 2.28 g/m*3 13.1 C 0 km/h
2727 02-04-2010 18:38:02 12.8 C 2.24 g/m*3 12.8 C 0 km/h
2728 02-04-2010 18:50:02 12.3 C 2.39 g/m*3 12.3 C 0 km/h
2729 02-04-2010 19:02:01 12.2 C 2.7 g/m*3 12.2 C 0 km/h
2730 02-04-2010 19:14:01 12 C 2.77 g/m*3 12 C 0 km/h
2731 02-04-2010 19:26:02 11.8 C 2.84 g/m*3 11.8 C 0 km/h
2732 02-04-2010 19:38:01 11.6 C 3.01 g/m*3 11.6 C 0 km/h
2733 02-04-2010 19:50:02 11.4 C 2.98 g/m*3 11.4 C 0 km/h
2734 02-04-2010 20:02:01 11.3 C 3.06 g/m*3 11.3 C 0 km/h
2735 02-04-2010 20:14:01 11.1 C 3.02 g/m*3 11.1 C 0 km/h
2736 02-04-2010 20:26:01 10.8 C 3.06 g/m*3 10.8 C 0 km/h
2737 02-04-2010 20:38:02 10.7 C 3.24 g/m*3 10.7 C 0 km/h
2738 02-04-2010 20:50:02 10.7 C 3.04 g/m*3 10.7 C 0 km/h
2739 02-04-2010 21:02:02 10.7 C 3.14 g/m*3 10.7 C 0 km/h
2740 02-04-2010 21:14:02 10.5 C 3.3 g/m*3 10.5 C 0 km/h
2741 02-04-2010 21:26:02 10.3 C 3.26 g/m*3 10.3 C 0 km/h
2742 02-04-2010 21:38:02 10.3 C 3.35 g/m*3 10.3 C 0 km/h
2743 02-04-2010 21:50:01 10 C 3.38 g/m*3 10 C 0 km/h
2744 02-04-2010 22:02:01 9.7 C 3.5 g/m*3 9.7 C 0 km/h
2745 02-04-2010 22:14:01 9.5 C 3.64 g/m*3 9.5 C 0 km/h
2746 02-04-2010 22:26:02 9.6 C 3.66 g/m*3 9.6 C 0 km/h
2747 02-04-2010 22:38:01 9.8 C 3.71 g/m*3 9.8 C 0 km/h
2748 02-04-2010 22:50:03 9.9 C 3.83 g/m*3 9.9 C 0 km/h
2749 02-04-2010 23:02:02 9.4 C 4.25 g/m*3 9.4 C 0 km/h
2750 02-04-2010 23:14:02 9 C 4.76 g/m*3 9 C 0 km/h
Sensor: Nr:Datum:Temp:Abs-Feuchte:Windchill:Wind:
Aussen-T/F 2751 02-04-2010 23:26:02 8.7 C 4.84 g/m*3 8.7 C 0 km/h
2752 02-04-2010 23:38:02 8.3 C 5.06 g/m*3 8.3 C 0 km/h
2753 02-04-2010 23:50:02 8.1 C 5.33 g/m*3 8.1 C 0 km/h
2754 03-04-2010 00:02:02 8 C 5.37 g/m*3 8 C 0 km/h
2755 03-04-2010 00:14:02 7.6 C 5.8 g/m*3 7.6 C 0 km/h
2756 03-04-2010 00:26:02 7.4 C 6.12 g/m*3 7.4 C 0 km/h
2757 03-04-2010 00:38:02 7.4 C 6.28 g/m*3 7.4 C 0 km/h
2758 03-04-2010 00:50:02 7.4 C 6.36 g/m*3 7.4 C 0 km/h
2759 03-04-2010 01:02:01 7.3 C 6.32 g/m*3 7.3 C 0 km/h
2760 03-04-2010 01:14:01 7.2 C 6.28 g/m*3 7.2 C 0 km/h
2761 03-04-2010 01:26:02 7.4 C 6.36 g/m*3 7.4 C 0 km/h
2762 03-04-2010 01:38:02 7.3 C 6.24 g/m*3 7.3 C 0 km/h
2763 03-04-2010 01:50:02 7.3 C 6.24 g/m*3 7.3 C 0 km/h
2764 03-04-2010 02:02:03 7.3 C 6.24 g/m*3 7.3 C 0 km/h
2765 03-04-2010 02:14:03 7 C 6.04 g/m*3 7 C 0 km/h
2766 03-04-2010 02:26:02 7.1 C 6.16 g/m*3 7.1 C 0 km/h
2767 03-04-2010 02:38:02 7.3 C 6.16 g/m*3 7.3 C 0 km/h
2768 03-04-2010 02:50:01 7.4 C 6.12 g/m*3 7.4 C 0 km/h
2769 03-04-2010 03:02:01 7.5 C 6.08 g/m*3 7.5 C 0 km/h
2770 03-04-2010 03:14:02 7.7 C 6 g/m*3 7.7 C 0 km/h
2771 03-04-2010 03:26:02 7.6 C 5.88 g/m*3 7.6 C 0 km/h
2772 03-04-2010 03:38:02 7.5 C 5.84 g/m*3 7.5 C 0 km/h
2773 03-04-2010 03:50:02 7.2 C 5.81 g/m*3 7.2 C 0 km/h
2774 03-04-2010 04:02:01 7.3 C 5.93 g/m*3 7.3 C 0 km/h
2775 03-04-2010 04:14:01 7.1 C 5.93 g/m*3 7.1 C 0 km/h
Sensor: Nr:Datum:Temp:Abs-Feuchte:Windchill:Wind:
Aussen-T/F 2776 03-04-2010 04:26:01 7 C 5.89 g/m*3 7 C 0 km/h
2777 03-04-2010 04:38:02 7 C 5.89 g/m*3 7 C 0 km/h
2778 03-04-2010 04:50:01 7.1 C 5.93 g/m*3 7.1 C 0 km/h
2779 03-04-2010 05:02:02 6.9 C 5.93 g/m*3 6.9 C 0 km/h
2780 03-04-2010 05:14:02 6.9 C 5.93 g/m*3 6.9 C 0 km/h
2781 03-04-2010 05:26:01 6.8 C 5.81 g/m*3 6.8 C 0 km/h
2782 03-04-2010 05:38:02 6.5 C 5.7 g/m*3 6.5 C 0 km/h
2783 03-04-2010 05:50:01 6.3 C 5.7 g/m*3 6.3 C 0 km/h
2784 03-04-2010 06:02:02 6.1 C 5.7 g/m*3 6.1 C 0 km/h
2785 03-04-2010 06:14:02 6.4 C 5.81 g/m*3 6.4 C 0 km/h
2786 03-04-2010 06:26:01 6.5 C 5.85 g/m*3 6.5 C 0 km/h
2787 03-04-2010 06:38:01 6.6 C 5.89 g/m*3 6.6 C 0 km/h
2788 03-04-2010 06:50:01 6.8 C 5.97 g/m*3 6.8 C 0 km/h
2789 03-04-2010 07:02:01 6.6 C 5.81 g/m*3 6.6 C 0 km/h
2790 03-04-2010 07:14:02 6.4 C 5.81 g/m*3 6.4 C 0 km/h
2791 03-04-2010 07:26:01 6.4 C 5.81 g/m*3 6.4 C 0 km/h
2792 03-04-2010 07:38:01 6.6 C 5.89 g/m*3 6.6 C 0 km/h
2793 03-04-2010 07:50:01 6.7 C 5.85 g/m*3 6.7 C 0 km/h
2794 03-04-2010 08:02:01 7.1 C 5.85 g/m*3 7.1 C 0 km/h
2795 03-04-2010 08:14:01 7.5 C 5.76 g/m*3 7.5 C 0 km/h
2796 03-04-2010 08:26:01 7.8 C 5.71 g/m*3 7.8 C 0 km/h
2797 03-04-2010 08:38:01 8 C 5.54 g/m*3 8 C 0 km/h
2798 03-04-2010 08:50:01 8.6 C 5.59 g/m*3 8.6 C 0 km/h
2799 03-04-2010 09:02:01 8.9 C 5.43 g/m*3 8.9 C 0 km/h
2800 03-04-2010 09:14:01 9.2 C 5.45 g/m*3 9.2 C 0 km/h
Sensor: Nr:Datum:Temp:Abs-Feuchte:Windchill:Wind:
Aussen-T/F 2801 03-04-2010 09:26:01 9.4 C 5.43 g/m*3 9.4 C 0 km/h
2802 03-04-2010 09:38:01 9.9 C 5.51 g/m*3 9.9 C 0 km/h
2803 03-04-2010 09:50:01 10.2 C 5.42 g/m*3 10.2 C 0 km/h
2804 03-04-2010 10:02:01 10.3 C 5.27 g/m*3 10.3 C 0 km/h
2805 03-04-2010 10:14:01 10.4 C 5.3 g/m*3 10.4 C 0 km/h
2806 03-04-2010 10:26:01 10.6 C 5.27 g/m*3 10.6 C 0 km/h
2807 03-04-2010 10:38:01 10.9 C 5.27 g/m*3 10.9 C 0 km/h
2808 03-04-2010 10:50:01 10.9 C 5.17 g/m*3 10.9 C 0 km/h
2809 03-04-2010 11:02:01 11.2 C 4.87 g/m*3 11.2 C 0 km/h
2810 03-04-2010 11:14:01 11.4 C 4.93 g/m*3 11.4 C 0 km/h
2811 03-04-2010 11:26:02 11.9 C 5.19 g/m*3 11.9 C 0 km/h
2812 03-04-2010 11:38:01 11.9 C 4.98 g/m*3 11.9 C 0 km/h
2813 03-04-2010 11:50:02 12.2 C 4.86 g/m*3 12.2 C 0 km/h
2814 03-04-2010 12:02:01 11.9 C 4.77 g/m*3 11.9 C 0 km/h
2815 03-04-2010 12:14:01 11.9 C 4.77 g/m*3 11.9 C 0 km/h
2816 03-04-2010 12:26:02 11.8 C 4.84 g/m*3 11.8 C 0 km/h
2817 03-04-2010 12:38:01 12.2 C 4.75 g/m*3 12.2 C 0 km/h
2818 03-04-2010 12:50:02 12.2 C 4.64 g/m*3 12.2 C 0 km/h
2819 03-04-2010 13:02:01 11.5 C 4.85 g/m*3 11.5 C 0 km/h
2820 03-04-2010 13:14:01 10.9 C 5.17 g/m*3 10.9 C 0 km/h
2821 03-04-2010 13:26:01 11.7 C 5.12 g/m*3 11.7 C 0 km/h
2822 03-04-2010 13:38:02 12.4 C 4.92 g/m*3 12.4 C 0 km/h
2823 03-04-2010 13:50:01 12.3 C 4.78 g/m*3 12.3 C 0 km/h
2824 03-04-2010 14:02:01 11.9 C 4.66 g/m*3 11.9 C 0 km/h
2825 03-04-2010 14:14:01 12.3 C 4.45 g/m*3 12.3 C 0 km/h
Sensor: Nr:Datum:Temp:Abs-Feuchte:Windchill:Wind:
Aussen-T/F 2826 03-04-2010 14:26:01 12.5 C 4.4 g/m*3 12.5 C 0 km/h
2827 03-04-2010 14:38:02 12.5 C 4.29 g/m*3 12.5 C 0 km/h
2828 03-04-2010 14:50:01 12.5 C 4.18 g/m*3 12.5 C 0 km/h
2829 03-04-2010 15:02:02 12.7 C 4.34 g/m*3 12.7 C 0 km/h
2830 03-04-2010 15:14:02 12.7 C 4.45 g/m*3 12.7 C 0 km/h
2831 03-04-2010 15:26:01 12.2 C 4.64 g/m*3 12.2 C 0 km/h
2832 03-04-2010 15:38:01 12.3 C 4.99 g/m*3 12.3 C 0 km/h
2833 03-04-2010 15:50:01 12.9 C 4.62 g/m*3 12.9 C 0 km/h
2834 03-04-2010 16:02:01 13.1 C 4.34 g/m*3 13.1 C 0 km/h
2835 03-04-2010 16:14:02 13.4 C 4.3 g/m*3 13.4 C 0 km/h
2836 03-04-2010 16:26:01 13.4 C 4.3 g/m*3 13.4 C 0 km/h
2837 03-04-2010 16:38:01 13.1 C 4.34 g/m*3 13.1 C 0 km/h
2838 03-04-2010 16:50:01 13.3 C 4.51 g/m*3 13.3 C 0 km/h
2839 03-04-2010 17:02:01 13.2 C 4.59 g/m*3 13.2 C 0 km/h
2840 03-04-2010 17:14:01 13.5 C 4.44 g/m*3 13.5 C 0 km/h
2841 03-04-2010 17:26:02 13.2 C 4.59 g/m*3 13.2 C 0 km/h
2842 03-04-2010 17:38:01 12.9 C 4.62 g/m*3 12.9 C 0 km/h
2843 03-04-2010 17:50:02 13.3 C 4.74 g/m*3 13.3 C 0 km/h
2844 03-04-2010 18:02:01 12.9 C 4.62 g/m*3 12.9 C 0 km/h
2845 03-04-2010 18:14:01 12 C 4.58 g/m*3 12 C 0 km/h
2846 03-04-2010 18:26:02 12.1 C 4.72 g/m*3 12.1 C 0 km/h
2847 03-04-2010 18:38:01 11.9 C 4.87 g/m*3 11.9 C 0 km/h
2848 03-04-2010 18:50:02 11.7 C 4.92 g/m*3 11.7 C 0 km/h
2849 03-04-2010 19:02:01 11.4 C 4.82 g/m*3 11.4 C 0 km/h
2850 03-04-2010 19:14:01 11.4 C 4.93 g/m*3 11.4 C 0 km/h
Sensor: Nr:Datum:Temp:Abs-Feuchte:Windchill:Wind:
Aussen-T/F 2851 03-04-2010 19:26:01 11.2 C 4.87 g/m*3 11.2 C 0 km/h
2852 03-04-2010 19:38:02 11.1 C 4.94 g/m*3 11.1 C 0 km/h
2853 03-04-2010 19:50:01 10.7 C 5.01 g/m*3 10.7 C 0 km/h
2854 03-04-2010 20:02:02 10.7 C 5.11 g/m*3 10.7 C 0 km/h
2855 03-04-2010 20:14:02 10.5 C 5.14 g/m*3 10.5 C 0 km/h
2856 03-04-2010 20:26:01 10.5 C 5.14 g/m*3 10.5 C 0 km/h
2857 03-04-2010 20:38:02 10.4 C 5.2 g/m*3 10.4 C 0 km/h
2858 03-04-2010 20:50:01 10.3 C 5.27 g/m*3 10.3 C 0 km/h
2859 03-04-2010 21:02:02 10.3 C 5.36 g/m*3 10.3 C 0 km/h
2860 03-04-2010 21:14:02 10.3 C 5.27 g/m*3 10.3 C 0 km/h
2861 03-04-2010 21:26:01 10.2 C 5.33 g/m*3 10.2 C 0 km/h
2862 03-04-2010 21:38:01 10.1 C 5.39 g/m*3 10.1 C 0 km/h
2863 03-04-2010 21:50:01 9.9 C 5.42 g/m*3 9.9 C 0 km/h
2864 03-04-2010 22:02:02 9.7 C 5.44 g/m*3 9.7 C 0 km/h
2865 03-04-2010 22:14:02 9.5 C 5.46 g/m*3 9.5 C 0 km/h
2866 03-04-2010 22:27:04 9.4 C 5.43 g/m*3 9.4 C 0 km/h
2867 03-04-2010 22:39:04 9.3 C 5.48 g/m*3 9.3 C 0 km/h
2868 03-04-2010 22:51:04 9.2 C 5.45 g/m*3 9.2 C 0 km/h
2869 03-04-2010 23:03:04 9.1 C 5.41 g/m*3 9.1 C 0 km/h
2870 03-04-2010 23:15:04 9.2 C 5.54 g/m*3 9.2 C 0 km/h
2871 03-04-2010 23:27:05 9.2 C 5.54 g/m*3 9.2 C 0 km/h
2872 03-04-2010 23:39:05 9.3 C 5.48 g/m*3 9.3 C 0 km/h
2873 03-04-2010 23:51:05 9 C 5.38 g/m*3 9 C 0 km/h
2874 04-04-2010 00:03:05 8.6 C 5.5 g/m*3 8.6 C 0 km/h
2875 04-04-2010 00:15:05 8.9 C 5.61 g/m*3 8.9 C 0 km/h
Sensor: Nr:Datum:Temp:Abs-Feuchte:Windchill:Wind:
Aussen-T/F 2876 04-04-2010 00:27:05 8.9 C 5.61 g/m*3 8.9 C 0 km/h
2877 04-04-2010 00:39:05 8.9 C 5.61 g/m*3 8.9 C 0 km/h
2878 04-04-2010 00:51:05 8.9 C 5.61 g/m*3 8.9 C 0 km/h
2879 04-04-2010 01:03:05 8.9 C 5.61 g/m*3 8.9 C 0 km/h
2880 04-04-2010 01:15:05 9 C 5.55 g/m*3 9 C 0 km/h
2881 04-04-2010 01:27:05 9 C 5.55 g/m*3 9 C 0 km/h
2882 04-04-2010 01:39:05 9 C 5.55 g/m*3 9 C 0 km/h
2883 04-04-2010 01:51:05 8.7 C 5.53 g/m*3 8.7 C 0 km/h
2884 04-04-2010 02:03:05 7.9 C 5.59 g/m*3 7.9 C 0 km/h
2885 04-04-2010 02:15:05 8.1 C 5.66 g/m*3 8.1 C 0 km/h
2886 04-04-2010 02:27:05 8 C 5.62 g/m*3 8 C 0 km/h
2887 04-04-2010 02:39:05 7.5 C 5.6 g/m*3 7.5 C 0 km/h
2888 04-04-2010 02:51:05 7.2 C 5.49 g/m*3 7.2 C 0 km/h
2889 04-04-2010 03:03:05 7 C 5.58 g/m*3 7 C 0 km/h
2890 04-04-2010 03:15:05 6.9 C 5.7 g/m*3 6.9 C 0 km/h
2891 04-04-2010 03:27:05 6.9 C 5.7 g/m*3 6.9 C 0 km/h
2892 04-04-2010 03:39:05 6.8 C 5.66 g/m*3 6.8 C 0 km/h
2893 04-04-2010 03:51:06 7.1 C 5.69 g/m*3 7.1 C 0 km/h
2894 04-04-2010 04:03:06 7.3 C 5.69 g/m*3 7.3 C 0 km/h
2895 04-04-2010 04:15:06 7.2 C 5.65 g/m*3 7.2 C 0 km/h
2896 04-04-2010 04:27:06 7.2 C 5.65 g/m*3 7.2 C 0 km/h
2897 04-04-2010 04:39:06 7.3 C 5.69 g/m*3 7.3 C 0 km/h
2898 04-04-2010 04:51:06 7.4 C 5.65 g/m*3 7.4 C 0 km/h
2899 04-04-2010 05:03:06 7.6 C 5.48 g/m*3 7.6 C 0 km/h
2900 04-04-2010 05:15:06 7.3 C 5.37 g/m*3 7.3 C 0 km/h
Sensor: Nr:Datum:Temp:Abs-Feuchte:Windchill:Wind:
Aussen-T/F 2901 04-04-2010 05:27:06 6.9 C 5.31 g/m*3 6.9 C 0 km/h
2902 04-04-2010 05:39:06 6.5 C 5.32 g/m*3 6.5 C 0 km/h
2903 04-04-2010 05:51:06 6.3 C 5.26 g/m*3 6.3 C 0 km/h
2904 04-04-2010 06:03:06 6.2 C 5.22 g/m*3 6.2 C 0 km/h
2905 04-04-2010 06:15:06 6.4 C 5.29 g/m*3 6.4 C 0 km/h
2906 04-04-2010 06:27:06 6.4 C 5.29 g/m*3 6.4 C 0 km/h
2907 04-04-2010 06:39:06 6.1 C 5.19 g/m*3 6.1 C 0 km/h
2908 04-04-2010 06:51:06 6.4 C 5.29 g/m*3 6.4 C 0 km/h
2909 04-04-2010 07:03:06 7 C 5.19 g/m*3 7 C 0 km/h
2910 04-04-2010 07:15:04 7.3 C 4.98 g/m*3 7.3 C 0 km/h
2911 04-04-2010 07:27:05 7.5 C 4.8 g/m*3 7.5 C 0 km/h
2912 04-04-2010 07:39:03 7.3 C 4.74 g/m*3 7.3 C 0 km/h
2913 04-04-2010 07:51:02 7.3 C 4.74 g/m*3 7.3 C 0 km/h
2914 04-04-2010 08:03:01 7.1 C 4.76 g/m*3 7.1 C 0 km/h
2915 04-04-2010 08:15:02 7.4 C 4.93 g/m*3 7.4 C 0 km/h
2916 04-04-2010 08:27:03 7.6 C 4.91 g/m*3 7.6 C 0 km/h
2917 04-04-2010 08:39:01 8.1 C 4.83 g/m*3 8.1 C 0 km/h
2918 04-04-2010 08:51:02 8.1 C 4.83 g/m*3 8.1 C 0 km/h
2919 04-04-2010 09:03:01 8.6 C 4.73 g/m*3 8.6 C 0 km/h
2920 04-04-2010 09:15:01 9.2 C 4.55 g/m*3 9.2 C 0 km/h
2921 04-04-2010 09:27:01 9.7 C 4.52 g/m*3 9.7 C 0 km/h
2922 04-04-2010 09:39:02 10.2 C 4.38 g/m*3 10.2 C 0 km/h
2923 04-04-2010 09:51:02 9.9 C 4.29 g/m*3 9.9 C 0 km/h
2924 04-04-2010 10:03:02 10.4 C 4.34 g/m*3 10.4 C 0 km/h
2925 04-04-2010 10:15:02 10.7 C 4.22 g/m*3 10.7 C 0 km/h
Sensor: Nr:Datum:Temp:Abs-Feuchte:Windchill:Wind:
Aussen-T/F 2926 04-04-2010 10:27:02 10.7 C 4.22 g/m*3 10.7 C 0 km/h
2927 04-04-2010 10:39:02 10.8 C 4.35 g/m*3 10.8 C 0 km/h
2928 04-04-2010 10:51:02 11 C 4.3 g/m*3 11 C 0 km/h
2929 04-04-2010 11:03:02 11.4 C 4.31 g/m*3 11.4 C 0 km/h
2930 04-04-2010 11:15:02 11.7 C 4.29 g/m*3 11.7 C 0 km/h
2931 04-04-2010 11:27:02 11.9 C 4.34 g/m*3 11.9 C 0 km/h
2932 04-04-2010 11:39:02 11.8 C 4.32 g/m*3 11.8 C 0 km/h
2933 04-04-2010 11:51:02 11.1 C 4.33 g/m*3 11.1 C 0 km/h
2934 04-04-2010 12:03:02 11.5 C 4.13 g/m*3 11.5 C 0 km/h
2935 04-04-2010 12:15:02 12.2 C 4.21 g/m*3 12.2 C 0 km/h
2936 04-04-2010 12:27:02 12.3 C 4.02 g/m*3 12.3 C 0 km/h
2937 04-04-2010 12:39:02 12.4 C 4.04 g/m*3 12.4 C 0 km/h
2938 04-04-2010 12:51:02 12.5 C 3.96 g/m*3 12.5 C 0 km/h
2939 04-04-2010 13:03:02 11.8 C 4.21 g/m*3 11.8 C 0 km/h
2940 04-04-2010 13:15:03 10.2 C 5.52 g/m*3 10.2 C 0 km/h
2941 04-04-2010 13:27:03 11.1 C 5.44 g/m*3 11.1 C 0 km/h
2942 04-04-2010 13:39:02 11.6 C 5.09 g/m*3 11.6 C 0 km/h
2943 04-04-2010 13:51:01 11.8 C 4.84 g/m*3 11.8 C 0 km/h
2944 04-04-2010 14:03:02 12.1 C 4.61 g/m*3 12.1 C 0 km/h
2945 04-04-2010 14:15:01 11.8 C 4.53 g/m*3 11.8 C 0 km/h
2946 04-04-2010 14:27:01 11.9 C 4.55 g/m*3 11.9 C 0 km/h
2947 04-04-2010 14:39:01 12.2 C 4.75 g/m*3 12.2 C 0 km/h
2948 04-04-2010 14:51:01 11.5 C 4.65 g/m*3 11.5 C 0 km/h
2949 04-04-2010 15:03:02 11.4 C 4.82 g/m*3 11.4 C 0 km/h
2950 04-04-2010 15:15:01 11.5 C 4.85 g/m*3 11.5 C 0 km/h
Sensor: Nr:Datum:Temp:Abs-Feuchte:Windchill:Wind:
Aussen-T/F 2951 04-04-2010 15:27:01 11.7 C 4.92 g/m*3 11.7 C 0 km/h
2952 04-04-2010 15:39:02 11.4 C 5.13 g/m*3 11.4 C 0 km/h
2953 04-04-2010 15:51:02 11.2 C 5.07 g/m*3 11.2 C 0 km/h
2954 04-04-2010 16:03:02 11 C 5 g/m*3 11 C 0 km/h
2955 04-04-2010 16:15:01 11.1 C 5.14 g/m*3 11.1 C 0 km/h
2956 04-04-2010 16:27:01 11.4 C 5.13 g/m*3 11.4 C 0 km/h
2957 04-04-2010 16:39:02 11.4 C 5.13 g/m*3 11.4 C 0 km/h
2958 04-04-2010 16:51:02 12.6 C 4.98 g/m*3 12.6 C 0 km/h
2959 04-04-2010 17:03:02 12.2 C 4.96 g/m*3 12.2 C 0 km/h
2960 04-04-2010 17:15:02 11.6 C 4.78 g/m*3 11.6 C 0 km/h
2961 04-04-2010 17:27:02 11.3 C 4.9 g/m*3 11.3 C 0 km/h
2962 04-04-2010 17:39:02 11.1 C 4.94 g/m*3 11.1 C 0 km/h
2963 04-04-2010 17:51:01 10.7 C 5.3 g/m*3 10.7 C 0 km/h
2964 04-04-2010 18:03:02 9.7 C 6.08 g/m*3 9.7 C 0 km/h
2965 04-04-2010 18:15:02 8.7 C 6.14 g/m*3 8.7 C 0 km/h
2966 04-04-2010 18:27:02 8.5 C 6.32 g/m*3 8.5 C 0 km/h
2967 04-04-2010 18:39:01 8.2 C 5.95 g/m*3 8.2 C 0 km/h
2968 04-04-2010 18:51:02 7.8 C 5.96 g/m*3 7.8 C 0 km/h
2969 04-04-2010 19:03:01 7.8 C 6.12 g/m*3 7.8 C 0 km/h
2970 04-04-2010 19:15:02 7.8 C 6.12 g/m*3 7.8 C 0 km/h
2971 04-04-2010 19:27:03 7.8 C 6.04 g/m*3 7.8 C 0 km/h
2972 04-04-2010 19:39:01 8.1 C 5.82 g/m*3 8.1 C 0 km/h
2973 04-04-2010 19:51:02 7.8 C 5.3 g/m*3 7.8 C 0 km/h
2974 04-04-2010 20:03:02 7.8 C 5.14 g/m*3 7.8 C 0 km/h
2975 04-04-2010 20:15:02 7.7 C 5.35 g/m*3 7.7 C 0 km/h
Sensor: Nr:Datum:Temp:Abs-Feuchte:Windchill:Wind:
Aussen-T/F 2976 04-04-2010 20:27:02 7.6 C 5.48 g/m*3 7.6 C 0 km/h
2977 04-04-2010 20:39:03 7.5 C 5.44 g/m*3 7.5 C 0 km/h
2978 04-04-2010 20:51:02 7.6 C 5.56 g/m*3 7.6 C 0 km/h
2979 04-04-2010 21:03:02 7.7 C 5.51 g/m*3 7.7 C 0 km/h
2980 04-04-2010 21:15:01 7.8 C 5.55 g/m*3 7.8 C 0 km/h
2981 04-04-2010 21:27:01 7.7 C 5.51 g/m*3 7.7 C 0 km/h
2982 04-04-2010 21:39:02 7.8 C 5.47 g/m*3 7.8 C 0 km/h
2983 04-04-2010 21:51:02 7.8 C 5.39 g/m*3 7.8 C 0 km/h
2984 04-04-2010 22:03:02 7.8 C 5.39 g/m*3 7.8 C 0 km/h
2985 04-04-2010 22:15:02 7.7 C 5.35 g/m*3 7.7 C 0 km/h
2986 04-04-2010 22:27:02 7.5 C 5.36 g/m*3 7.5 C 0 km/h
2987 04-04-2010 22:39:02 7.4 C 5.41 g/m*3 7.4 C 0 km/h
2988 04-04-2010 22:51:02 7.2 C 5.42 g/m*3 7.2 C 0 km/h
2989 04-04-2010 23:03:01 7.1 C 5.46 g/m*3 7.1 C 0 km/h
2990 04-04-2010 23:16:03 6.9 C 5.47 g/m*3 6.9 C 0 km/h
2991 04-04-2010 23:28:03 6.9 C 5.62 g/m*3 6.9 C 0 km/h
2992 04-04-2010 23:40:03 6.9 C 5.62 g/m*3 6.9 C 0 km/h
2993 04-04-2010 23:52:03 7 C 5.66 g/m*3 7 C 0 km/h
2994 05-04-2010 00:04:03 7 C 5.66 g/m*3 7 C 0 km/h
2995 05-04-2010 00:16:03 6.9 C 5.7 g/m*3 6.9 C 0 km/h
2996 05-04-2010 00:28:03 6.7 C 5.62 g/m*3 6.7 C 0 km/h
2997 05-04-2010 00:40:03 6.8 C 5.74 g/m*3 6.8 C 0 km/h
2998 05-04-2010 00:52:03 6.9 C 5.77 g/m*3 6.9 C 0 km/h
2999 05-04-2010 01:04:03 7 C 5.73 g/m*3 7 C 0 km/h
3000 05-04-2010 01:16:03 6.9 C 5.7 g/m*3 6.9 C 0 km/h
Sensor: Nr:Datum:Temp:Abs-Feuchte:Windchill:Wind:
Aussen-T/F 3001 05-04-2010 01:28:03 7 C 5.58 g/m*3 7 C 0 km/h
3002 05-04-2010 01:40:03 7 C 5.5 g/m*3 7 C 0 km/h
3003 05-04-2010 01:52:03 7 C 5.42 g/m*3 7 C 0 km/h
3004 05-04-2010 02:04:03 7 C 5.5 g/m*3 7 C 0 km/h
3005 05-04-2010 02:16:03 7 C 5.42 g/m*3 7 C 0 km/h
3006 05-04-2010 02:28:03 7 C 5.27 g/m*3 7 C 0 km/h
3007 05-04-2010 02:40:03 7 C 5.27 g/m*3 7 C 0 km/h
3008 05-04-2010 02:52:03 6.9 C 5.31 g/m*3 6.9 C 0 km/h
3009 05-04-2010 03:04:03 6.9 C 5.31 g/m*3 6.9 C 0 km/h
3010 05-04-2010 03:16:04 6.9 C 5.23 g/m*3 6.9 C 0 km/h
3011 05-04-2010 03:28:04 6.8 C 5.2 g/m*3 6.8 C 0 km/h
3012 05-04-2010 03:40:04 6.6 C 5.28 g/m*3 6.6 C 0 km/h
3013 05-04-2010 03:52:04 6.5 C 5.32 g/m*3 6.5 C 0 km/h
3014 05-04-2010 04:04:04 6.5 C 5.32 g/m*3 6.5 C 0 km/h
3015 05-04-2010 04:16:04 6.6 C 5.36 g/m*3 6.6 C 0 km/h
3016 05-04-2010 04:28:04 6.5 C 5.32 g/m*3 6.5 C 0 km/h
3017 05-04-2010 04:40:04 6.3 C 5.33 g/m*3 6.3 C 0 km/h
3018 05-04-2010 04:52:04 6 C 5.37 g/m*3 6 C 0 km/h
3019 05-04-2010 05:04:04 6 C 5.37 g/m*3 6 C 0 km/h
3020 05-04-2010 05:16:04 6.2 C 5.44 g/m*3 6.2 C 0 km/h
3021 05-04-2010 05:28:04 6.3 C 5.48 g/m*3 6.3 C 0 km/h
3022 05-04-2010 05:40:04 6.5 C 5.55 g/m*3 6.5 C 0 km/h
3023 05-04-2010 05:52:04 6.3 C 5.48 g/m*3 6.3 C 0 km/h
3024 05-04-2010 06:04:04 6.1 C 5.48 g/m*3 6.1 C 0 km/h
3025 05-04-2010 06:16:04 5.8 C 5.52 g/m*3 5.8 C 0 km/h
Sensor: Nr:Datum:Temp:Abs-Feuchte:Windchill:Wind:
Aussen-T/F 3026 05-04-2010 06:28:04 5.6 C 5.51 g/m*3 5.6 C 0 km/h
3027 05-04-2010 06:40:04 5.4 C 5.51 g/m*3 5.4 C 0 km/h
3028 05-04-2010 06:52:04 5.2 C 5.44 g/m*3 5.2 C 0 km/h
3029 05-04-2010 07:04:04 5.1 C 5.34 g/m*3 5.1 C 0 km/h
3030 05-04-2010 07:16:04 5 C 5.23 g/m*3 5 C 0 km/h
3031 05-04-2010 07:28:04 4.9 C 5.27 g/m*3 4.9 C 0 km/h
3032 05-04-2010 07:40:05 4.8 C 5.23 g/m*3 4.8 C 0 km/h
3033 05-04-2010 07:52:05 4.9 C 5.27 g/m*3 4.9 C 0 km/h
3034 05-04-2010 08:04:05 4.9 C 5.33 g/m*3 4.9 C 0 km/h
3035 05-04-2010 08:16:05 5 C 5.23 g/m*3 5 C 0 km/h
3036 05-04-2010 08:28:05 5.1 C 5.2 g/m*3 5.1 C 0 km/h
3037 05-04-2010 08:40:03 5.2 C 5.1 g/m*3 5.2 C 0 km/h
3038 05-04-2010 08:52:02 5.5 C 5.13 g/m*3 5.5 C 0 km/h
3039 05-04-2010 09:04:02 5.7 C 5.12 g/m*3 5.7 C 0 km/h
3040 05-04-2010 09:16:01 5.8 C 5.09 g/m*3 5.8 C 0 km/h
3041 05-04-2010 09:28:01 5.9 C 5.12 g/m*3 5.9 C 0 km/h
3042 05-04-2010 09:40:02 6.4 C 5.07 g/m*3 6.4 C 0 km/h
3043 05-04-2010 09:52:02 6.6 C 4.91 g/m*3 6.6 C 0 km/h
3044 05-04-2010 10:04:02 6.9 C 4.93 g/m*3 6.9 C 0 km/h
3045 05-04-2010 10:16:02 7.3 C 4.98 g/m*3 7.3 C 0 km/h
3046 05-04-2010 10:28:02 7.6 C 4.83 g/m*3 7.6 C 0 km/h
3047 05-04-2010 10:40:02 8 C 4.8 g/m*3 8 C 0 km/h
3048 05-04-2010 10:52:02 8.4 C 4.75 g/m*3 8.4 C 0 km/h
3049 05-04-2010 11:04:02 8.7 C 4.67 g/m*3 8.7 C 0 km/h
3050 05-04-2010 11:16:01 9.1 C 4.7 g/m*3 9.1 C 0 km/h
Sensor: Nr:Datum:Temp:Abs-Feuchte:Windchill:Wind:
Aussen-T/F 3051 05-04-2010 11:28:01 9.5 C 4.64 g/m*3 9.5 C 0 km/h
3052 05-04-2010 11:40:02 9.9 C 4.76 g/m*3 9.9 C 0 km/h
3053 05-04-2010 11:52:02 10.4 C 4.63 g/m*3 10.4 C 0 km/h
3054 05-04-2010 12:04:02 10.6 C 4.39 g/m*3 10.6 C 0 km/h
3055 05-04-2010 12:16:01 10.7 C 4.32 g/m*3 10.7 C 0 km/h
3056 05-04-2010 12:28:01 11.3 C 4.08 g/m*3 11.3 C 0 km/h
3057 05-04-2010 12:40:02 11.5 C 3.93 g/m*3 11.5 C 0 km/h
3058 05-04-2010 12:52:02 11.4 C 4 g/m*3 11.4 C 0 km/h
3059 05-04-2010 13:04:02 11.7 C 3.97 g/m*3 11.7 C 0 km/h
3060 05-04-2010 13:16:02 11.7 C 3.97 g/m*3 11.7 C 0 km/h
3061 05-04-2010 13:28:02 11.9 C 3.92 g/m*3 11.9 C 0 km/h
3062 05-04-2010 13:40:02 12.4 C 3.82 g/m*3 12.4 C 0 km/h
3063 05-04-2010 13:52:02 12.3 C 3.26 g/m*3 12.3 C 0 km/h
3064 05-04-2010 14:04:02 12.3 C 3.26 g/m*3 12.3 C 0 km/h
3065 05-04-2010 14:16:02 12.8 C 3.36 g/m*3 12.8 C 0 km/h
3066 05-04-2010 14:28:02 12.8 C 3.25 g/m*3 12.8 C 0 km/h
3067 05-04-2010 14:40:02 12.6 C 3.32 g/m*3 12.6 C 0 km/h
3068 05-04-2010 14:52:01 12.8 C 3.25 g/m*3 12.8 C 0 km/h
3069 05-04-2010 15:04:02 13.1 C 2.97 g/m*3 13.1 C 0 km/h
3070 05-04-2010 15:16:02 13.6 C 2.94 g/m*3 13.6 C 0 km/h
3071 05-04-2010 15:28:02 13.6 C 2.71 g/m*3 13.6 C 0 km/h
3072 05-04-2010 15:40:02 13.9 C 2.64 g/m*3 13.9 C 0 km/h
3073 05-04-2010 15:52:02 14.5 C 2.49 g/m*3 14.5 C 0 km/h
3074 05-04-2010 16:04:01 14.6 C 2.5 g/m*3 14.6 C 0 km/h
3075 05-04-2010 16:16:02 14.1 C 2.43 g/m*3 14.1 C 0 km/h
Sensor: Nr:Datum:Temp:Abs-Feuchte:Windchill:Wind:
Aussen-T/F 3076 05-04-2010 16:28:03 15.4 C 2.63 g/m*3 15.4 C 0 km/h
3077 05-04-2010 16:40:01 13.8 C 2.38 g/m*3 13.8 C 0 km/h
3078 05-04-2010 16:52:02 13.8 C 2.38 g/m*3 13.8 C 0 km/h
3079 05-04-2010 17:04:01 14.8 C 2.53 g/m*3 14.8 C 0 km/h
3080 05-04-2010 17:16:01 15.7 C 2.68 g/m*3 15.7 C 0 km/h
3081 05-04-2010 17:28:01 15.8 C 2.69 g/m*3 15.8 C 0 km/h
3082 05-04-2010 17:40:02 15 C 2.56 g/m*3 15 C 0 km/h
3083 05-04-2010 17:52:02 13.8 C 2.38 g/m*3 13.8 C 0 km/h
3084 05-04-2010 18:04:02 13.1 C 2.62 g/m*3 13.1 C 0 km/h
3085 05-04-2010 18:16:01 12.8 C 2.8 g/m*3 12.8 C 0 km/h
3086 05-04-2010 18:28:01 12.5 C 2.97 g/m*3 12.5 C 0 km/h
3087 05-04-2010 18:40:02 12.6 C 2.88 g/m*3 12.6 C 0 km/h
3088 05-04-2010 18:52:02 12.3 C 2.93 g/m*3 12.3 C 0 km/h
3089 05-04-2010 19:04:02 12.1 C 3 g/m*3 12.1 C 0 km/h
3090 05-04-2010 19:16:02 12 C 2.98 g/m*3 12 C 0 km/h
3091 05-04-2010 19:28:02 11.9 C 3.07 g/m*3 11.9 C 0 km/h
3092 05-04-2010 19:40:02 11.8 C 3.16 g/m*3 11.8 C 0 km/h
3093 05-04-2010 19:52:02 11.8 C 3.16 g/m*3 11.8 C 0 km/h
3094 05-04-2010 20:04:02 11.7 C 3.24 g/m*3 11.7 C 0 km/h
3095 05-04-2010 20:16:02 11.6 C 3.22 g/m*3 11.6 C 0 km/h
3096 05-04-2010 20:28:02 11.4 C 3.39 g/m*3 11.4 C 0 km/h
3097 05-04-2010 20:40:02 11.3 C 3.37 g/m*3 11.3 C 0 km/h
3098 05-04-2010 20:52:01 11 C 3.4 g/m*3 11 C 0 km/h
3099 05-04-2010 21:04:01 10.8 C 3.56 g/m*3 10.8 C 0 km/h
3100 05-04-2010 21:16:02 10.6 C 3.61 g/m*3 10.6 C 0 km/h
Sensor: Nr:Datum:Temp:Abs-Feuchte:Windchill:Wind:
Aussen-T/F 3101 05-04-2010 21:28:02 10.2 C 3.62 g/m*3 10.2 C 0 km/h
3102 05-04-2010 21:40:01 9.7 C 3.69 g/m*3 9.7 C 0 km/h
3103 05-04-2010 21:52:01 9.1 C 3.64 g/m*3 9.1 C 0 km/h
3104 05-04-2010 22:04:01 8.8 C 3.57 g/m*3 8.8 C 0 km/h
3105 05-04-2010 22:16:02 8.8 C 3.57 g/m*3 8.8 C 0 km/h
3106 05-04-2010 22:28:02 8.4 C 3.56 g/m*3 8.4 C 0 km/h
3107 05-04-2010 22:41:02 8.1 C 3.58 g/m*3 8.1 C 0 km/h
3108 05-04-2010 22:53:02 8 C 3.64 g/m*3 8 C 0 km/h
3109 05-04-2010 23:05:02 7.6 C 3.87 g/m*3 7.6 C 0 km/h
3110 05-04-2010 23:17:02 7.3 C 3.87 g/m*3 7.3 C 0 km/h
3111 05-04-2010 23:29:02 7 C 3.87 g/m*3 7 C 0 km/h
3112 05-04-2010 23:41:02 7 C 3.95 g/m*3 7 C 0 km/h
3113 05-04-2010 23:53:02 6.8 C 3.98 g/m*3 6.8 C 0 km/h
3114 06-04-2010 00:05:02 6.5 C 3.9 g/m*3 6.5 C 0 km/h
3115 06-04-2010 00:17:02 6.3 C 4 g/m*3 6.3 C 0 km/h
3116 06-04-2010 00:29:02 6.1 C 4.02 g/m*3 6.1 C 0 km/h
3117 06-04-2010 00:41:02 5.9 C 4.11 g/m*3 5.9 C 0 km/h
3118 06-04-2010 00:53:02 5.8 C 4.08 g/m*3 5.8 C 0 km/h
3119 06-04-2010 01:05:02 5.6 C 4.03 g/m*3 5.6 C 0 km/h
3120 06-04-2010 01:17:02 5.4 C 3.98 g/m*3 5.4 C 0 km/h
3121 06-04-2010 01:29:02 5.3 C 4.02 g/m*3 5.3 C 0 km/h
3122 06-04-2010 01:41:02 5.2 C 4.06 g/m*3 5.2 C 0 km/h
3123 06-04-2010 01:53:02 5.1 C 4.1 g/m*3 5.1 C 0 km/h
3124 06-04-2010 02:05:03 5 C 4.08 g/m*3 5 C 0 km/h
3125 06-04-2010 02:17:03 4.7 C 4.13 g/m*3 4.7 C 0 km/h
Sensor: Nr:Datum:Temp:Abs-Feuchte:Windchill:Wind:
Aussen-T/F 3126 06-04-2010 02:29:03 4.5 C 4.21 g/m*3 4.5 C 0 km/h
3127 06-04-2010 02:41:03 4.3 C 4.15 g/m*3 4.3 C 0 km/h
3128 06-04-2010 02:53:03 4.2 C 4.12 g/m*3 4.2 C 0 km/h
3129 06-04-2010 03:05:03 4.1 C 4.1 g/m*3 4.1 C 0 km/h
3130 06-04-2010 03:17:03 3.9 C 4.17 g/m*3 3.9 C 0 km/h
3131 06-04-2010 03:29:03 3.8 C 4.14 g/m*3 3.8 C 0 km/h
3132 06-04-2010 03:41:03 3.6 C 4.09 g/m*3 3.6 C 0 km/h
3133 06-04-2010 03:53:03 3.5 C 4.12 g/m*3 3.5 C 0 km/h
3134 06-04-2010 04:05:03 3.3 C 4.06 g/m*3 3.3 C 0 km/h
3135 06-04-2010 04:17:03 3.2 C 4.16 g/m*3 3.2 C 0 km/h
3136 06-04-2010 04:29:03 3.2 C 4.22 g/m*3 3.2 C 0 km/h
3137 06-04-2010 04:41:03 3 C 4.22 g/m*3 3 C 0 km/h
3138 06-04-2010 04:53:03 2.8 C 4.22 g/m*3 2.8 C 0 km/h
3139 06-04-2010 05:05:03 2.7 C 4.2 g/m*3 2.7 C 0 km/h
3140 06-04-2010 05:17:03 2.5 C 4.14 g/m*3 2.5 C 0 km/h
3141 06-04-2010 05:29:03 2.4 C 4.11 g/m*3 2.4 C 0 km/h
3142 06-04-2010 05:41:03 2.3 C 4.14 g/m*3 2.3 C 0 km/h
3143 06-04-2010 05:53:03 2.1 C 4.08 g/m*3 2.1 C 0 km/h
3144 06-04-2010 06:05:03 2 C 4.06 g/m*3 2 C 0 km/h
3145 06-04-2010 06:17:03 1.7 C 4.03 g/m*3 1.7 C 0 km/h
3146 06-04-2010 06:29:04 1.7 C 4.08 g/m*3 1.7 C 0 km/h
3147 06-04-2010 06:41:04 1.7 C 4.08 g/m*3 1.7 C 0 km/h
3148 06-04-2010 06:53:04 1.7 C 4.08 g/m*3 1.7 C 0 km/h
3149 06-04-2010 07:05:01 1.5 C 4.08 g/m*3 1.5 C 0 km/h
3150 06-04-2010 07:17:02 1.5 C 4.08 g/m*3 1.5 C 0 km/h
Sensor: Nr:Datum:Temp:Abs-Feuchte:Windchill:Wind:
Aussen-T/F 3151 06-04-2010 07:29:02 1.5 C 4.08 g/m*3 1.5 C 0 km/h
3152 06-04-2010 07:41:02 1.4 C 4.11 g/m*3 1.4 C 0 km/h
3153 06-04-2010 07:53:02 1.5 C 4.14 g/m*3 1.5 C 0 km/h
3154 06-04-2010 08:05:02 1.8 C 4.22 g/m*3 1.8 C 0 km/h
3155 06-04-2010 08:17:02 1.8 C 4.22 g/m*3 1.8 C 0 km/h
3156 06-04-2010 08:29:02 1.9 C 4.3 g/m*3 1.9 C 0 km/h
3157 06-04-2010 08:41:02 2.1 C 4.31 g/m*3 2.1 C 0 km/h
3158 06-04-2010 08:53:02 2.3 C 4.37 g/m*3 2.3 C 0 km/h
3159 06-04-2010 09:05:02 2.6 C 4.51 g/m*3 2.6 C 0 km/h
3160 06-04-2010 09:17:03 3 C 4.52 g/m*3 3 C 0 km/h
3161 06-04-2010 09:29:03 3.5 C 4.61 g/m*3 3.5 C 0 km/h
3162 06-04-2010 09:41:02 4.1 C 4.54 g/m*3 4.1 C 0 km/h
3163 06-04-2010 09:53:02 4.5 C 4.54 g/m*3 4.5 C 0 km/h
3164 06-04-2010 10:05:02 5.1 C 4.58 g/m*3 5.1 C 0 km/h
3165 06-04-2010 10:17:02 5.9 C 4.69 g/m*3 5.9 C 0 km/h
3166 06-04-2010 10:29:02 7.1 C 4.68 g/m*3 7.1 C 0 km/h
3167 06-04-2010 10:41:02 9.2 C 3.93 g/m*3 9.2 C 0 km/h
3168 06-04-2010 10:53:02 9.8 C 3.62 g/m*3 9.8 C 0 km/h
3169 06-04-2010 11:05:01 10.4 C 3.47 g/m*3 10.4 C 0 km/h
3170 06-04-2010 11:17:02 10.9 C 3.28 g/m*3 10.9 C 0 km/h
3171 06-04-2010 11:29:03 11.2 C 3.14 g/m*3 11.2 C 0 km/h
3172 06-04-2010 11:41:01 11.5 C 3.1 g/m*3 11.5 C 0 km/h
3173 06-04-2010 11:53:02 12.2 C 3.02 g/m*3 12.2 C 0 km/h
3174 06-04-2010 12:05:01 12.4 C 2.84 g/m*3 12.4 C 0 km/h
3175 06-04-2010 12:17:01 12.7 C 2.78 g/m*3 12.7 C 0 km/h
Sensor: Nr:Datum:Temp:Abs-Feuchte:Windchill:Wind:
Aussen-T/F 3176 06-04-2010 12:29:01 13 C 2.72 g/m*3 13 C 0 km/h
3177 06-04-2010 12:41:02 13.4 C 2.91 g/m*3 13.4 C 0 km/h
3178 06-04-2010 12:53:02 13.5 C 2.81 g/m*3 13.5 C 0 km/h
3179 06-04-2010 13:05:02 13.9 C 3 g/m*3 13.9 C 0 km/h
3180 06-04-2010 13:17:02 14.2 C 3.05 g/m*3 14.2 C 0 km/h
3181 06-04-2010 13:29:02 14.2 C 3.05 g/m*3 14.2 C 0 km/h
3182 06-04-2010 13:41:02 14.8 C 3.17 g/m*3 14.8 C 0 km/h
3183 06-04-2010 13:53:02 15.4 C 2.89 g/m*3 15.4 C 0 km/h
3184 06-04-2010 14:05:03 16.7 C 3.13 g/m*3 16.7 C 0 km/h
3185 06-04-2010 14:17:02 16.8 C 3 g/m*3 16.8 C 0 km/h
3186 06-04-2010 14:29:02 17 C 2.89 g/m*3 17 C 0 km/h
3187 06-04-2010 14:41:02 17.3 C 2.95 g/m*3 17.3 C 0 km/h
3188 06-04-2010 14:53:01 17.4 C 2.96 g/m*3 17.4 C 0 km/h
3189 06-04-2010 15:05:02 18 C 3.07 g/m*3 18 C 0 km/h
3190 06-04-2010 15:17:01 18.6 C 3.18 g/m*3 18.6 C 0 km/h
3191 06-04-2010 15:29:01 18.5 C 3.16 g/m*3 18.5 C 0 km/h
3192 06-04-2010 15:41:01 19 C 3.26 g/m*3 19 C 0 km/h
3193 06-04-2010 15:53:01 19 C 3.26 g/m*3 19 C 0 km/h
3194 06-04-2010 16:05:02 19.4 C 3.34 g/m*3 19.4 C 0 km/h
3195 06-04-2010 16:17:02 19.7 C 3.4 g/m*3 19.7 C 0 km/h
3196 06-04-2010 16:29:02 20.5 C 3.56 g/m*3 20.5 C 0 km/h
3197 06-04-2010 16:41:01 20.7 C 3.6 g/m*3 20.7 C 0 km/h
3198 06-04-2010 16:53:01 21.5 C 3.77 g/m*3 21.5 C 0 km/h
3199 06-04-2010 17:05:02 21.4 C 3.75 g/m*3 21.4 C 0 km/h
3200 06-04-2010 17:17:02 21.6 C 3.79 g/m*3 21.6 C 0 km/h
Sensor: Nr:Datum:Temp:Abs-Feuchte:Windchill:Wind:
Aussen-T/F 3201 06-04-2010 17:29:02 21 C 3.66 g/m*3 21 C 0 km/h
3202 06-04-2010 17:41:01 21.1 C 3.69 g/m*3 21.1 C 0 km/h
3203 06-04-2010 17:53:01 21.9 C 3.86 g/m*3 21.9 C 0 km/h
3204 06-04-2010 18:05:02 21.7 C 3.82 g/m*3 21.7 C 0 km/h
3205 06-04-2010 18:17:02 21.3 C 3.73 g/m*3 21.3 C 0 km/h
3206 06-04-2010 18:29:02 21.5 C 3.77 g/m*3 21.5 C 0 km/h
3207 06-04-2010 18:41:01 21.9 C 3.86 g/m*3 21.9 C 0 km/h
3208 06-04-2010 18:53:02 21.2 C 3.71 g/m*3 21.2 C 0 km/h
3209 06-04-2010 19:05:01 21.1 C 3.69 g/m*3 21.1 C 0 km/h
3210 06-04-2010 19:17:02 19.8 C 3.42 g/m*3 19.8 C 0 km/h
3211 06-04-2010 19:29:02 19.9 C 3.44 g/m*3 19.9 C 0 km/h
3212 06-04-2010 19:41:01 19.7 C 3.4 g/m*3 19.7 C 0 km/h
3213 06-04-2010 19:53:02 18.2 C 3.26 g/m*3 18.2 C 0 km/h
3214 06-04-2010 20:05:02 16.8 C 3.57 g/m*3 16.8 C 0 km/h
3215 06-04-2010 20:17:02 15.5 C 3.83 g/m*3 15.5 C 0 km/h
3216 06-04-2010 20:29:02 14.7 C 4.03 g/m*3 14.7 C 0 km/h
3217 06-04-2010 20:41:02 14.3 C 3.93 g/m*3 14.3 C 0 km/h
3218 06-04-2010 20:53:02 13.8 C 4.05 g/m*3 13.8 C 0 km/h
3219 06-04-2010 21:05:01 13.5 C 4.09 g/m*3 13.5 C 0 km/h
3220 06-04-2010 21:17:02 13.2 C 4.13 g/m*3 13.2 C 0 km/h
3221 06-04-2010 21:29:02 12.9 C 4.17 g/m*3 12.9 C 0 km/h
3222 06-04-2010 21:41:02 12.8 C 4.14 g/m*3 12.8 C 0 km/h
3223 06-04-2010 21:53:02 12.5 C 4.29 g/m*3 12.5 C 0 km/h
3224 06-04-2010 22:05:02 12.2 C 4.32 g/m*3 12.2 C 0 km/h
3225 06-04-2010 22:17:02 12.1 C 4.29 g/m*3 12.1 C 0 km/h
Sensor: Nr:Datum:Temp:Abs-Feuchte:Windchill:Wind:
Aussen-T/F 3226 06-04-2010 22:29:03 11.8 C 4.32 g/m*3 11.8 C 0 km/h
3227 06-04-2010 22:41:02 11.5 C 4.44 g/m*3 11.5 C 0 km/h
3228 06-04-2010 22:53:02 11.3 C 4.59 g/m*3 11.3 C 0 km/h
3229 06-04-2010 23:05:02 10.9 C 4.58 g/m*3 10.9 C 0 km/h
3230 06-04-2010 23:17:02 10.8 C 4.65 g/m*3 10.8 C 0 km/h
3231 06-04-2010 23:29:02 10.5 C 4.56 g/m*3 10.5 C 0 km/h
3232 06-04-2010 23:41:01 10.3 C 4.5 g/m*3 10.3 C 0 km/h
3233 06-04-2010 23:53:02 10.1 C 4.63 g/m*3 10.1 C 0 km/h
3234 07-04-2010 00:05:01 10 C 4.6 g/m*3 10 C 0 km/h
3235 07-04-2010 00:17:01 9.7 C 4.61 g/m*3 9.7 C 0 km/h
3236 07-04-2010 00:29:01 9.3 C 4.67 g/m*3 9.3 C 0 km/h